PWSweather.com
Personal Weather Stations
Station Observations
KNEOMA130
Stonybrook South, Omaha, NE 68138

Stonybrook SouthOmaha, NE 68138

Lat: 41.190485, Lon: -96.13102900000001

Elevation: 1142

Station Type: Davis VP2

http://chappelleweather.com

High Low Average
Temperature 49.0°F9.4°F 25.3°F-3.7°F 36.4°F2.4°F
Dew Point 33.3°F0.7°F 20.9°F-6.2°F 27.1°F-2.7°F
Winds 16.0 mph SSE25.7 mph SSE Calm Calm 4.1 mph 6.6 mph
Wind Gusts 17.0 mph27.4 mph -- 8.7 mph14.0 mph
Humidity 86% 51% 70%
Pressure 29.82 in1009.80 in 29.62 in1003.00 in -
Precipitation 0.00 in0.00 in - -
Hour Temp Dew Point Humidity Winds Wind Gusts Pressure Precip Precip Rate Daily Precip Total
12:00 AM 26.3°F-3.2°C 21.6°F-5.8°C 82% 1.0 mph SSE1.6 kmh SSE 1.0 mph1.6 kmh 29.82 in1009.8 mb 0.00 in0.0 mm 0.00 in0.0 mm 0.00 in0.0 mm
12:01 AM 26.3°F-3.2°C 21.6°F-5.8°C 82% 2.0 mph SSE3.2 kmh SSE 2.0 mph3.2 kmh 29.81 in1009.5 mb 0.00 in0.0 mm 0.00 in0.0 mm 0.00 in0.0 mm
12:02 AM 26.2°F-3.2°C 21.5°F-5.8°C 82% 1.0 mph SSE1.6 kmh SSE 3.0 mph4.8 kmh 29.81 in1009.5 mb 0.00 in0.0 mm 0.00 in0.0 mm 0.00 in0.0 mm
12:03 AM 26.2°F-3.2°C 21.5°F-5.8°C 82% Calm Calm 3.0 mph4.8 kmh 29.82 in1009.8 mb 0.00 in0.0 mm 0.00 in0.0 mm 0.00 in0.0 mm
12:04 AM 26.2°F-3.2°C 21.7°F-5.7°C 83% 2.0 mph SSE3.2 kmh SSE 3.0 mph4.8 kmh 29.82 in1009.8 mb 0.00 in0.0 mm 0.00 in0.0 mm 0.00 in0.0 mm
12:05 AM 26.1°F-3.3°C 21.6°F-5.8°C 83% 1.0 mph SSE1.6 kmh SSE 3.0 mph4.8 kmh 29.82 in1009.8 mb 0.00 in0.0 mm 0.00 in0.0 mm 0.00 in0.0 mm
12:06 AM 26.1°F-3.3°C 21.6°F-5.8°C 83% Calm Calm 3.0 mph4.8 kmh 29.82 in1009.8 mb 0.00 in0.0 mm 0.00 in0.0 mm 0.00 in0.0 mm
12:07 AM 26.1°F-3.3°C 21.6°F-5.8°C 83% Calm Calm 3.0 mph4.8 kmh 29.82 in1009.8 mb 0.00 in0.0 mm 0.00 in0.0 mm 0.00 in0.0 mm
12:08 AM 26.0°F-3.3°C 21.5°F-5.8°C 83% Calm Calm 3.0 mph4.8 kmh 29.82 in1009.8 mb 0.00 in0.0 mm 0.00 in0.0 mm 0.00 in0.0 mm
12:09 AM 26.0°F-3.3°C 21.5°F-5.8°C 83% Calm Calm 3.0 mph4.8 kmh 29.82 in1009.8 mb 0.00 in0.0 mm 0.00 in0.0 mm 0.00 in0.0 mm
12:10 AM 26.0°F-3.3°C 21.5°F-5.8°C 83% Calm Calm 3.0 mph4.8 kmh 29.82 in1009.8 mb 0.00 in0.0 mm 0.00 in0.0 mm 0.00 in0.0 mm
12:11 AM 26.0°F-3.3°C 21.5°F-5.8°C 83% Calm Calm 3.0 mph4.8 kmh 29.82 in1009.8 mb 0.00 in0.0 mm 0.00 in0.0 mm 0.00 in0.0 mm
12:12 AM 26.0°F-3.3°C 21.5°F-5.8°C 83% Calm Calm 3.0 mph4.8 kmh 29.82 in1009.8 mb 0.00 in0.0 mm 0.00 in0.0 mm 0.00 in0.0 mm
12:13 AM 26.0°F-3.3°C 21.5°F-5.8°C 83% Calm Calm 3.0 mph4.8 kmh 29.82 in1009.8 mb 0.00 in0.0 mm 0.00 in0.0 mm 0.00 in0.0 mm
12:14 AM 26.0°F-3.3°C 21.5°F-5.8°C 83% Calm Calm 2.0 mph3.2 kmh 29.82 in1009.8 mb 0.00 in0.0 mm 0.00 in0.0 mm 0.00 in0.0 mm
12:15 AM 26.0°F-3.3°C 21.5°F-5.8°C 83% Calm Calm 1.0 mph1.6 kmh 29.82 in1009.8 mb 0.00 in0.0 mm 0.00 in0.0 mm 0.00 in0.0 mm
12:16 AM 26.0°F-3.3°C 21.5°F-5.8°C 83% Calm Calm -- 29.82 in1009.8 mb 0.00 in0.0 mm 0.00 in0.0 mm 0.00 in0.0 mm
12:17 AM 25.9°F-3.4°C 21.4°F-5.9°C 83% Calm Calm -- 29.82 in1009.8 mb 0.00 in0.0 mm 0.00 in0.0 mm 0.00 in0.0 mm
12:18 AM 25.9°F-3.4°C 21.4°F-5.9°C 83% Calm Calm -- 29.82 in1009.8 mb 0.00 in0.0 mm 0.00 in0.0 mm 0.00 in0.0 mm
12:19 AM 25.9°F-3.4°C 21.4°F-5.9°C 83% Calm Calm -- 29.82 in1009.8 mb 0.00 in0.0 mm 0.00 in0.0 mm 0.00 in0.0 mm
12:20 AM 25.8°F-3.4°C 21.3°F-5.9°C 83% Calm Calm -- 29.82 in1009.8 mb 0.00 in0.0 mm 0.00 in0.0 mm 0.00 in0.0 mm
12:21 AM 25.8°F-3.4°C 21.3°F-5.9°C 83% Calm Calm -- 29.82 in1009.8 mb 0.00 in0.0 mm 0.00 in0.0 mm 0.00 in0.0 mm
12:22 AM 25.8°F-3.4°C 21.3°F-5.9°C 83% Calm Calm -- 29.82 in1009.8 mb 0.00 in0.0 mm 0.00 in0.0 mm 0.00 in0.0 mm
12:23 AM 25.8°F-3.4°C 21.3°F-5.9°C 83% 1.0 mph SSE1.6 kmh SSE 1.0 mph1.6 kmh 29.82 in1009.8 mb 0.00 in0.0 mm 0.00 in0.0 mm 0.00 in0.0 mm
12:24 AM 25.8°F-3.4°C 21.3°F-5.9°C 83% Calm Calm 2.0 mph3.2 kmh 29.82 in1009.8 mb 0.00 in0.0 mm 0.00 in0.0 mm 0.00 in0.0 mm
12:25 AM 25.7°F-3.5°C 21.3°F-5.9°C 83% Calm Calm 2.0 mph3.2 kmh 29.82 in1009.8 mb 0.00 in0.0 mm 0.00 in0.0 mm 0.00 in0.0 mm
12:26 AM 25.7°F-3.5°C 21.3°F-5.9°C 83% Calm Calm 2.0 mph3.2 kmh 29.82 in1009.8 mb 0.00 in0.0 mm 0.00 in0.0 mm 0.00 in0.0 mm
12:27 AM 25.6°F-3.6°C 21.2°F-6.0°C 83% 1.0 mph SSE1.6 kmh SSE 2.0 mph3.2 kmh 29.82 in1009.8 mb 0.00 in0.0 mm 0.00 in0.0 mm 0.00 in0.0 mm
12:28 AM 25.6°F-3.6°C 21.2°F-6.0°C 83% 2.0 mph SSE3.2 kmh SSE 2.0 mph3.2 kmh 29.82 in1009.8 mb 0.00 in0.0 mm 0.00 in0.0 mm 0.00 in0.0 mm
12:29 AM 25.6°F-3.6°C 21.2°F-6.0°C 83% 1.0 mph SSE1.6 kmh SSE 2.0 mph3.2 kmh 29.82 in1009.8 mb 0.00 in0.0 mm 0.00 in0.0 mm 0.00 in0.0 mm
12:30 AM 25.5°F-3.6°C 21.1°F-6.1°C 83% 1.0 mph SSE1.6 kmh SSE 2.0 mph3.2 kmh 29.82 in1009.8 mb 0.00 in0.0 mm 0.00 in0.0 mm 0.00 in0.0 mm
12:31 AM 25.5°F-3.6°C 21.1°F-6.1°C 83% 1.0 mph SSE1.6 kmh SSE 2.0 mph3.2 kmh 29.81 in1009.5 mb 0.00 in0.0 mm 0.00 in0.0 mm 0.00 in0.0 mm
12:32 AM 25.5°F-3.6°C 21.1°F-6.1°C 83% 1.0 mph SSE1.6 kmh SSE 2.0 mph3.2 kmh 29.82 in1009.8 mb 0.00 in0.0 mm 0.00 in0.0 mm 0.00 in0.0 mm
12:33 AM 25.4°F-3.7°C 21.0°F-6.1°C 83% 2.0 mph SSE3.2 kmh SSE 2.0 mph3.2 kmh 29.81 in1009.5 mb 0.00 in0.0 mm 0.00 in0.0 mm 0.00 in0.0 mm
12:34 AM 25.4°F-3.7°C 21.0°F-6.1°C 83% 1.0 mph SSE1.6 kmh SSE 2.0 mph3.2 kmh 29.81 in1009.5 mb 0.00 in0.0 mm 0.00 in0.0 mm 0.00 in0.0 mm
12:35 AM 25.4°F-3.7°C 21.0°F-6.1°C 83% 2.0 mph SSE3.2 kmh SSE 2.0 mph3.2 kmh 29.81 in1009.5 mb 0.00 in0.0 mm 0.00 in0.0 mm 0.00 in0.0 mm
12:36 AM 25.4°F-3.7°C 21.0°F-6.1°C 83% 2.0 mph SSE3.2 kmh SSE 3.0 mph4.8 kmh 29.81 in1009.5 mb 0.00 in0.0 mm 0.00 in0.0 mm 0.00 in0.0 mm
12:37 AM 25.4°F-3.7°C 21.0°F-6.1°C 83% 2.0 mph SSE3.2 kmh SSE 3.0 mph4.8 kmh 29.81 in1009.5 mb 0.00 in0.0 mm 0.00 in0.0 mm 0.00 in0.0 mm
12:38 AM 25.3°F-3.7°C 20.9°F-6.2°C 83% 2.0 mph SSE3.2 kmh SSE 3.0 mph4.8 kmh 29.81 in1009.5 mb 0.00 in0.0 mm 0.00 in0.0 mm 0.00 in0.0 mm
12:39 AM 25.3°F-3.7°C 20.9°F-6.2°C 83% 5.0 mph SSE8.0 kmh SSE 5.0 mph8.0 kmh 29.81 in1009.5 mb 0.00 in0.0 mm 0.00 in0.0 mm 0.00 in0.0 mm
12:40 AM 25.3°F-3.7°C 21.1°F-6.1°C 84% 5.0 mph SSE8.0 kmh SSE 5.0 mph8.0 kmh 29.81 in1009.5 mb 0.00 in0.0 mm 0.00 in0.0 mm 0.00 in0.0 mm
12:41 AM 25.3°F-3.7°C 21.1°F-6.1°C 84% 4.0 mph SSE6.4 kmh SSE 5.0 mph8.0 kmh 29.81 in1009.5 mb 0.00 in0.0 mm 0.00 in0.0 mm 0.00 in0.0 mm
12:42 AM 25.3°F-3.7°C 21.1°F-6.1°C 84% 4.0 mph SSE6.4 kmh SSE 6.0 mph9.7 kmh 29.81 in1009.5 mb 0.00 in0.0 mm 0.00 in0.0 mm 0.00 in0.0 mm
12:43 AM 25.4°F-3.7°C 21.2°F-6.0°C 84% 5.0 mph S8.0 kmh S 6.0 mph9.7 kmh 29.81 in1009.5 mb 0.00 in0.0 mm 0.00 in0.0 mm 0.00 in0.0 mm
12:44 AM 25.5°F-3.6°C 21.6°F-5.8°C 85% 3.0 mph S4.8 kmh S 6.0 mph9.7 kmh 29.80 in1009.1 mb 0.00 in0.0 mm 0.00 in0.0 mm 0.00 in0.0 mm
12:45 AM 25.5°F-3.6°C 21.6°F-5.8°C 85% 5.0 mph S8.0 kmh S 6.0 mph9.7 kmh 29.80 in1009.1 mb 0.00 in0.0 mm 0.00 in0.0 mm 0.00 in0.0 mm
12:46 AM 25.6°F-3.6°C 21.7°F-5.7°C 85% 3.0 mph S4.8 kmh S 6.0 mph9.7 kmh 29.80 in1009.1 mb 0.00 in0.0 mm 0.00 in0.0 mm 0.00 in0.0 mm
12:47 AM 25.8°F-3.4°C 22.2°F-5.4°C 86% 3.0 mph S4.8 kmh S 6.0 mph9.7 kmh 29.80 in1009.1 mb 0.00 in0.0 mm 0.00 in0.0 mm 0.00 in0.0 mm
12:48 AM 25.9°F-3.4°C 22.3°F-5.4°C 86% 2.0 mph S3.2 kmh S 6.0 mph9.7 kmh 29.80 in1009.1 mb 0.00 in0.0 mm 0.00 in0.0 mm 0.00 in0.0 mm
12:49 AM 26.0°F-3.3°C 22.4°F-5.3°C 86% 3.0 mph S4.8 kmh S 6.0 mph9.7 kmh 29.80 in1009.1 mb 0.00 in0.0 mm 0.00 in0.0 mm 0.00 in0.0 mm
12:50 AM 26.1°F-3.3°C 22.5°F-5.3°C 86% 2.0 mph S3.2 kmh S 6.0 mph9.7 kmh 29.80 in1009.1 mb 0.00 in0.0 mm 0.00 in0.0 mm 0.00 in0.0 mm
12:51 AM 26.2°F-3.2°C 22.6°F-5.2°C 86% 2.0 mph S3.2 kmh S 6.0 mph9.7 kmh 29.80 in1009.1 mb 0.00 in0.0 mm 0.00 in0.0 mm 0.00 in0.0 mm
12:52 AM 26.2°F-3.2°C 22.3°F-5.4°C 85% 2.0 mph S3.2 kmh S 6.0 mph9.7 kmh 29.81 in1009.5 mb 0.00 in0.0 mm 0.00 in0.0 mm 0.00 in0.0 mm
12:53 AM 26.2°F-3.2°C 22.3°F-5.4°C 85% 1.0 mph S1.6 kmh S 6.0 mph9.7 kmh 29.81 in1009.5 mb 0.00 in0.0 mm 0.00 in0.0 mm 0.00 in0.0 mm
12:54 AM 26.2°F-3.2°C 22.3°F-5.4°C 85% Calm Calm 6.0 mph9.7 kmh 29.80 in1009.1 mb 0.00 in0.0 mm 0.00 in0.0 mm 0.00 in0.0 mm
12:55 AM 26.3°F-3.2°C 22.4°F-5.3°C 85% 2.0 mph S3.2 kmh S 6.0 mph9.7 kmh 29.80 in1009.1 mb 0.00 in0.0 mm 0.00 in0.0 mm 0.00 in0.0 mm
12:56 AM 26.3°F-3.2°C 22.4°F-5.3°C 85% 1.0 mph S1.6 kmh S 5.0 mph8.0 kmh 29.80 in1009.1 mb 0.00 in0.0 mm 0.00 in0.0 mm 0.00 in0.0 mm
12:57 AM 26.3°F-3.2°C 22.4°F-5.3°C 85% 1.0 mph S1.6 kmh S 3.0 mph4.8 kmh 29.80 in1009.1 mb 0.00 in0.0 mm 0.00 in0.0 mm 0.00 in0.0 mm
12:58 AM 26.4°F-3.1°C 22.5°F-5.3°C 85% 2.0 mph S3.2 kmh S 3.0 mph4.8 kmh 29.80 in1009.1 mb 0.00 in0.0 mm 0.00 in0.0 mm 0.00 in0.0 mm
12:59 AM 26.4°F-3.1°C 22.5°F-5.3°C 85% 1.0 mph S1.6 kmh S 3.0 mph4.8 kmh 29.79 in1008.8 mb 0.00 in0.0 mm 0.00 in0.0 mm 0.00 in0.0 mm
01:00 AM 26.4°F-3.1°C 22.2°F-5.4°C 84% 2.0 mph S3.2 kmh S 3.0 mph4.8 kmh 29.79 in1008.8 mb 0.00 in0.0 mm 0.00 in0.0 mm 0.00 in0.0 mm
01:01 AM 26.4°F-3.1°C 22.2°F-5.4°C 84% Calm Calm 3.0 mph4.8 kmh 29.79 in1008.8 mb 0.00 in0.0 mm 0.00 in0.0 mm 0.00 in0.0 mm
01:02 AM 26.4°F-3.1°C 22.2°F-5.4°C 84% 1.0 mph S1.6 kmh S 3.0 mph4.8 kmh 29.79 in1008.8 mb 0.00 in0.0 mm 0.00 in0.0 mm 0.00 in0.0 mm
01:03 AM 26.3°F-3.2°C 22.1°F-5.5°C 84% 1.0 mph S1.6 kmh S 3.0 mph4.8 kmh 29.80 in1009.1 mb 0.00 in0.0 mm 0.00 in0.0 mm 0.00 in0.0 mm
01:04 AM 26.4°F-3.1°C 22.2°F-5.4°C 84% Calm Calm 3.0 mph4.8 kmh 29.80 in1009.1 mb 0.00 in0.0 mm 0.00 in0.0 mm 0.00 in0.0 mm
01:05 AM 26.4°F-3.1°C 22.5°F-5.3°C 85% Calm Calm 3.0 mph4.8 kmh 29.80 in1009.1 mb 0.00 in0.0 mm 0.00 in0.0 mm 0.00 in0.0 mm
01:06 AM 26.5°F-3.1°C 22.6°F-5.2°C 85% Calm Calm 3.0 mph4.8 kmh 29.80 in1009.1 mb 0.00 in0.0 mm 0.00 in0.0 mm 0.00 in0.0 mm
01:07 AM 26.5°F-3.1°C 22.6°F-5.2°C 85% Calm Calm 3.0 mph4.8 kmh 29.80 in1009.1 mb 0.00 in0.0 mm 0.00 in0.0 mm 0.00 in0.0 mm
01:08 AM 26.6°F-3.0°C 22.7°F-5.2°C 85% Calm Calm 3.0 mph4.8 kmh 29.80 in1009.1 mb 0.00 in0.0 mm 0.00 in0.0 mm 0.00 in0.0 mm
01:09 AM 26.6°F-3.0°C 22.7°F-5.2°C 85% Calm Calm 3.0 mph4.8 kmh 29.80 in1009.1 mb 0.00 in0.0 mm 0.00 in0.0 mm 0.00 in0.0 mm
01:10 AM 26.7°F-2.9°C 22.8°F-5.1°C 85% Calm Calm 3.0 mph4.8 kmh 29.80 in1009.1 mb 0.00 in0.0 mm 0.00 in0.0 mm 0.00 in0.0 mm
01:11 AM 26.7°F-2.9°C 22.8°F-5.1°C 85% Calm Calm 2.0 mph3.2 kmh 29.80 in1009.1 mb 0.00 in0.0 mm 0.00 in0.0 mm 0.00 in0.0 mm
01:12 AM 26.7°F-2.9°C 22.8°F-5.1°C 85% 1.0 mph S1.6 kmh S 2.0 mph3.2 kmh 29.79 in1008.8 mb 0.00 in0.0 mm 0.00 in0.0 mm 0.00 in0.0 mm
01:13 AM 26.8°F-2.9°C 22.9°F-5.1°C 85% Calm Calm 2.0 mph3.2 kmh 29.80 in1009.1 mb 0.00 in0.0 mm 0.00 in0.0 mm 0.00 in0.0 mm
01:14 AM 26.8°F-2.9°C 22.9°F-5.1°C 85% 1.0 mph S1.6 kmh S 2.0 mph3.2 kmh 29.79 in1008.8 mb 0.00 in0.0 mm 0.00 in0.0 mm 0.00 in0.0 mm
01:15 AM 26.9°F-2.8°C 23.0°F-5.0°C 85% Calm Calm 2.0 mph3.2 kmh 29.79 in1008.8 mb 0.00 in0.0 mm 0.00 in0.0 mm 0.00 in0.0 mm
01:16 AM 26.9°F-2.8°C 22.7°F-5.2°C 84% Calm Calm 2.0 mph3.2 kmh 29.79 in1008.8 mb 0.00 in0.0 mm 0.00 in0.0 mm 0.00 in0.0 mm
01:17 AM 26.9°F-2.8°C 22.7°F-5.2°C 84% Calm Calm 2.0 mph3.2 kmh 29.79 in1008.8 mb 0.00 in0.0 mm 0.00 in0.0 mm 0.00 in0.0 mm
01:18 AM 26.9°F-2.8°C 22.7°F-5.2°C 84% Calm Calm 2.0 mph3.2 kmh 29.79 in1008.8 mb 0.00 in0.0 mm 0.00 in0.0 mm 0.00 in0.0 mm
01:19 AM 26.9°F-2.8°C 22.7°F-5.2°C 84% Calm Calm 2.0 mph3.2 kmh 29.79 in1008.8 mb 0.00 in0.0 mm 0.00 in0.0 mm 0.00 in0.0 mm
01:20 AM 26.9°F-2.8°C 22.7°F-5.2°C 84% Calm Calm 2.0 mph3.2 kmh 29.79 in1008.8 mb 0.00 in0.0 mm 0.00 in0.0 mm 0.00 in0.0 mm
01:21 AM 26.9°F-2.8°C 22.7°F-5.2°C 84% Calm Calm 2.0 mph3.2 kmh 29.79 in1008.8 mb 0.00 in0.0 mm 0.00 in0.0 mm 0.00 in0.0 mm
01:22 AM 26.9°F-2.8°C 22.7°F-5.2°C 84% Calm Calm 2.0 mph3.2 kmh 29.79 in1008.8 mb 0.00 in0.0 mm 0.00 in0.0 mm 0.00 in0.0 mm
01:23 AM 27.0°F-2.8°C 22.8°F-5.1°C 84% 1.0 mph S1.6 kmh S 2.0 mph3.2 kmh 29.79 in1008.8 mb 0.00 in0.0 mm 0.00 in0.0 mm 0.00 in0.0 mm
01:24 AM 26.9°F-2.8°C 22.7°F-5.2°C 84% Calm Calm 2.0 mph3.2 kmh 29.79 in1008.8 mb 0.00 in0.0 mm 0.00 in0.0 mm 0.00 in0.0 mm
01:25 AM 27.0°F-2.8°C 22.8°F-5.1°C 84% Calm Calm 2.0 mph3.2 kmh 29.79 in1008.8 mb 0.00 in0.0 mm 0.00 in0.0 mm 0.00 in0.0 mm
01:26 AM 26.9°F-2.8°C 22.7°F-5.2°C 84% Calm Calm 2.0 mph3.2 kmh 29.79 in1008.8 mb 0.00 in0.0 mm 0.00 in0.0 mm 0.00 in0.0 mm
01:27 AM 26.9°F-2.8°C 22.7°F-5.2°C 84% 1.0 mph S1.6 kmh S 2.0 mph3.2 kmh 29.79 in1008.8 mb 0.00 in0.0 mm 0.00 in0.0 mm 0.00 in0.0 mm
01:28 AM 26.9°F-2.8°C 22.7°F-5.2°C 84% 1.0 mph S1.6 kmh S 2.0 mph3.2 kmh 29.79 in1008.8 mb 0.00 in0.0 mm 0.00 in0.0 mm 0.00 in0.0 mm
01:29 AM 26.9°F-2.8°C 22.4°F-5.3°C 83% Calm Calm 2.0 mph3.2 kmh 29.79 in1008.8 mb 0.00 in0.0 mm 0.00 in0.0 mm 0.00 in0.0 mm
01:30 AM 26.9°F-2.8°C 22.4°F-5.3°C 83% 1.0 mph S1.6 kmh S 2.0 mph3.2 kmh 29.79 in1008.8 mb 0.00 in0.0 mm 0.00 in0.0 mm 0.00 in0.0 mm
01:31 AM 26.8°F-2.9°C 22.3°F-5.4°C 83% Calm Calm 2.0 mph3.2 kmh 29.79 in1008.8 mb 0.00 in0.0 mm 0.00 in0.0 mm 0.00 in0.0 mm
01:32 AM 26.9°F-2.8°C 22.4°F-5.3°C 83% Calm Calm 2.0 mph3.2 kmh 29.79 in1008.8 mb 0.00 in0.0 mm 0.00 in0.0 mm 0.00 in0.0 mm
01:33 AM 26.8°F-2.9°C 22.3°F-5.4°C 83% Calm Calm 2.0 mph3.2 kmh 29.79 in1008.8 mb 0.00 in0.0 mm 0.00 in0.0 mm 0.00 in0.0 mm
01:34 AM 26.8°F-2.9°C 22.3°F-5.4°C 83% 1.0 mph S1.6 kmh S 2.0 mph3.2 kmh 29.79 in1008.8 mb 0.00 in0.0 mm 0.00 in0.0 mm 0.00 in0.0 mm
01:35 AM 26.8°F-2.9°C 22.3°F-5.4°C 83% Calm Calm 2.0 mph3.2 kmh 29.79 in1008.8 mb 0.00 in0.0 mm 0.00 in0.0 mm 0.00 in0.0 mm
01:36 AM 26.8°F-2.9°C 22.6°F-5.2°C 84% 2.0 mph S3.2 kmh S 3.0 mph4.8 kmh 29.79 in1008.8 mb 0.00 in0.0 mm 0.00 in0.0 mm 0.00 in0.0 mm
01:37 AM 26.8°F-2.9°C 22.3°F-5.4°C 83% Calm Calm 3.0 mph4.8 kmh 29.79 in1008.8 mb 0.00 in0.0 mm 0.00 in0.0 mm 0.00 in0.0 mm
01:38 AM 26.8°F-2.9°C 22.6°F-5.2°C 84% Calm Calm 3.0 mph4.8 kmh 29.79 in1008.8 mb 0.00 in0.0 mm 0.00 in0.0 mm 0.00 in0.0 mm
01:39 AM 26.8°F-2.9°C 22.3°F-5.4°C 83% Calm Calm 3.0 mph4.8 kmh 29.79 in1008.8 mb 0.00 in0.0 mm 0.00 in0.0 mm 0.00 in0.0 mm
01:40 AM 26.8°F-2.9°C 22.3°F-5.4°C 83% Calm Calm 3.0 mph4.8 kmh 29.79 in1008.8 mb 0.00 in0.0 mm 0.00 in0.0 mm 0.00 in0.0 mm
01:41 AM 26.7°F-2.9°C 22.2°F-5.4°C 83% Calm Calm 3.0 mph4.8 kmh 29.79 in1008.8 mb 0.00 in0.0 mm 0.00 in0.0 mm 0.00 in0.0 mm
01:42 AM 26.7°F-2.9°C 22.2°F-5.4°C 83% Calm Calm 3.0 mph4.8 kmh 29.79 in1008.8 mb 0.00 in0.0 mm 0.00 in0.0 mm 0.00 in0.0 mm
01:43 AM 26.7°F-2.9°C 22.2°F-5.4°C 83% 1.0 mph S1.6 kmh S 3.0 mph4.8 kmh 29.79 in1008.8 mb 0.00 in0.0 mm 0.00 in0.0 mm 0.00 in0.0 mm
01:44 AM 26.7°F-2.9°C 22.2°F-5.4°C 83% 2.0 mph S3.2 kmh S 3.0 mph4.8 kmh 29.79 in1008.8 mb 0.00 in0.0 mm 0.00 in0.0 mm 0.00 in0.0 mm
01:45 AM 26.7°F-2.9°C 22.2°F-5.4°C 83% Calm Calm 3.0 mph4.8 kmh 29.79 in1008.8 mb 0.00 in0.0 mm 0.00 in0.0 mm 0.00 in0.0 mm
01:46 AM 26.7°F-2.9°C 22.2°F-5.4°C 83% Calm Calm 2.0 mph3.2 kmh 29.79 in1008.8 mb 0.00 in0.0 mm 0.00 in0.0 mm 0.00 in0.0 mm
01:47 AM 26.7°F-2.9°C 22.2°F-5.4°C 83% Calm Calm 2.0 mph3.2 kmh 29.79 in1008.8 mb 0.00 in0.0 mm 0.00 in0.0 mm 0.00 in0.0 mm
01:48 AM 26.7°F-2.9°C 22.2°F-5.4°C 83% 2.0 mph S3.2 kmh S 2.0 mph3.2 kmh 29.78 in1008.5 mb 0.00 in0.0 mm 0.00 in0.0 mm 0.00 in0.0 mm
01:49 AM 26.7°F-2.9°C 22.5°F-5.3°C 84% 1.0 mph S1.6 kmh S 3.0 mph4.8 kmh 29.78 in1008.5 mb 0.00 in0.0 mm 0.00 in0.0 mm 0.00 in0.0 mm
01:50 AM 26.7°F-2.9°C 22.5°F-5.3°C 84% 1.0 mph S1.6 kmh S 3.0 mph4.8 kmh 29.78 in1008.5 mb 0.00 in0.0 mm 0.00 in0.0 mm 0.00 in0.0 mm
01:51 AM 26.7°F-2.9°C 22.5°F-5.3°C 84% 1.0 mph S1.6 kmh S 3.0 mph4.8 kmh 29.78 in1008.5 mb 0.00 in0.0 mm 0.00 in0.0 mm 0.00 in0.0 mm
01:52 AM 26.8°F-2.9°C 22.6°F-5.2°C 84% 2.0 mph S3.2 kmh S 3.0 mph4.8 kmh 29.78 in1008.5 mb 0.00 in0.0 mm 0.00 in0.0 mm 0.00 in0.0 mm
01:53 AM 26.8°F-2.9°C 22.6°F-5.2°C 84% 1.0 mph S1.6 kmh S 3.0 mph4.8 kmh 29.78 in1008.5 mb 0.00 in0.0 mm 0.00 in0.0 mm 0.00 in0.0 mm
01:54 AM 26.8°F-2.9°C 22.6°F-5.2°C 84% 2.0 mph S3.2 kmh S 3.0 mph4.8 kmh 29.78 in1008.5 mb 0.00 in0.0 mm 0.00 in0.0 mm 0.00 in0.0 mm
01:55 AM 26.8°F-2.9°C 22.6°F-5.2°C 84% 2.0 mph S3.2 kmh S 3.0 mph4.8 kmh 29.78 in1008.5 mb 0.00 in0.0 mm 0.00 in0.0 mm 0.00 in0.0 mm
01:56 AM 26.8°F-2.9°C 22.6°F-5.2°C 84% 2.0 mph S3.2 kmh S 3.0 mph4.8 kmh 29.78 in1008.5 mb 0.00 in0.0 mm 0.00 in0.0 mm 0.00 in0.0 mm
01:57 AM 26.9°F-2.8°C 22.7°F-5.2°C 84% 1.0 mph SSE1.6 kmh SSE 5.0 mph8.0 kmh 29.78 in1008.5 mb 0.00 in0.0 mm 0.00 in0.0 mm 0.00 in0.0 mm
01:58 AM 26.9°F-2.8°C 22.7°F-5.2°C 84% 2.0 mph SSE3.2 kmh SSE 5.0 mph8.0 kmh 29.78 in1008.5 mb 0.00 in0.0 mm 0.00 in0.0 mm 0.00 in0.0 mm
01:59 AM 26.9°F-2.8°C 22.7°F-5.2°C 84% 1.0 mph SSE1.6 kmh SSE 5.0 mph8.0 kmh 29.78 in1008.5 mb 0.00 in0.0 mm 0.00 in0.0 mm 0.00 in0.0 mm
02:00 AM 26.9°F-2.8°C 22.7°F-5.2°C 84% 1.0 mph SSE1.6 kmh SSE 5.0 mph8.0 kmh 29.78 in1008.5 mb 0.00 in0.0 mm 0.00 in0.0 mm 0.00 in0.0 mm
02:01 AM 26.9°F-2.8°C 22.7°F-5.2°C 84% 2.0 mph SSE3.2 kmh SSE 5.0 mph8.0 kmh 29.78 in1008.5 mb 0.00 in0.0 mm 0.00 in0.0 mm 0.00 in0.0 mm
02:02 AM 26.9°F-2.8°C 22.7°F-5.2°C 84% 1.0 mph SSE1.6 kmh SSE 5.0 mph8.0 kmh 29.78 in1008.5 mb 0.00 in0.0 mm 0.00 in0.0 mm 0.00 in0.0 mm
02:03 AM 26.9°F-2.8°C 22.7°F-5.2°C 84% 2.0 mph SSE3.2 kmh SSE 5.0 mph8.0 kmh 29.78 in1008.5 mb 0.00 in0.0 mm 0.00 in0.0 mm 0.00 in0.0 mm
02:04 AM 26.9°F-2.8°C 22.7°F-5.2°C 84% 1.0 mph SSE1.6 kmh SSE 5.0 mph8.0 kmh 29.78 in1008.5 mb 0.00 in0.0 mm 0.00 in0.0 mm 0.00 in0.0 mm
02:05 AM 26.9°F-2.8°C 22.7°F-5.2°C 84% Calm Calm 5.0 mph8.0 kmh 29.78 in1008.5 mb 0.00 in0.0 mm 0.00 in0.0 mm 0.00 in0.0 mm
02:06 AM 27.0°F-2.8°C 22.8°F-5.1°C 84% Calm Calm 5.0 mph8.0 kmh 29.78 in1008.5 mb 0.00 in0.0 mm 0.00 in0.0 mm 0.00 in0.0 mm
02:07 AM 27.0°F-2.8°C 22.8°F-5.1°C 84% Calm Calm 5.0 mph8.0 kmh 29.78 in1008.5 mb 0.00 in0.0 mm 0.00 in0.0 mm 0.00 in0.0 mm
02:08 AM 27.0°F-2.8°C 22.8°F-5.1°C 84% Calm Calm 5.0 mph8.0 kmh 29.78 in1008.5 mb 0.00 in0.0 mm 0.00 in0.0 mm 0.00 in0.0 mm
02:09 AM 27.0°F-2.8°C 22.8°F-5.1°C 84% Calm Calm 2.0 mph3.2 kmh 29.78 in1008.5 mb 0.00 in0.0 mm 0.00 in0.0 mm 0.00 in0.0 mm
02:10 AM 27.0°F-2.8°C 22.8°F-5.1°C 84% Calm Calm 2.0 mph3.2 kmh 29.78 in1008.5 mb 0.00 in0.0 mm 0.00 in0.0 mm 0.00 in0.0 mm
02:11 AM 27.0°F-2.8°C 22.8°F-5.1°C 84% 1.0 mph SSE1.6 kmh SSE 2.0 mph3.2 kmh 29.78 in1008.5 mb 0.00 in0.0 mm 0.00 in0.0 mm 0.00 in0.0 mm
02:12 AM 27.0°F-2.8°C 22.8°F-5.1°C 84% 2.0 mph SSE3.2 kmh SSE 2.0 mph3.2 kmh 29.78 in1008.5 mb 0.00 in0.0 mm 0.00 in0.0 mm 0.00 in0.0 mm
02:13 AM 27.0°F-2.8°C 22.8°F-5.1°C 84% 1.0 mph SSE1.6 kmh SSE 2.0 mph3.2 kmh 29.78 in1008.5 mb 0.00 in0.0 mm 0.00 in0.0 mm 0.00 in0.0 mm
02:14 AM 27.0°F-2.8°C 22.8°F-5.1°C 84% 1.0 mph SSE1.6 kmh SSE 2.0 mph3.2 kmh 29.78 in1008.5 mb 0.00 in0.0 mm 0.00 in0.0 mm 0.00 in0.0 mm
02:15 AM 27.0°F-2.8°C 22.8°F-5.1°C 84% 1.0 mph SSE1.6 kmh SSE 2.0 mph3.2 kmh 29.78 in1008.5 mb 0.00 in0.0 mm 0.00 in0.0 mm 0.00 in0.0 mm
02:16 AM 27.0°F-2.8°C 22.8°F-5.1°C 84% 1.0 mph SSE1.6 kmh SSE 2.0 mph3.2 kmh 29.77 in1008.1 mb 0.00 in0.0 mm 0.00 in0.0 mm 0.00 in0.0 mm
02:17 AM 27.0°F-2.8°C 22.5°F-5.3°C 83% 2.0 mph SSE3.2 kmh SSE 2.0 mph3.2 kmh 29.78 in1008.5 mb 0.00 in0.0 mm 0.00 in0.0 mm 0.00 in0.0 mm
02:18 AM 27.0°F-2.8°C 22.8°F-5.1°C 84% 1.0 mph SSE1.6 kmh SSE 2.0 mph3.2 kmh 29.78 in1008.5 mb 0.00 in0.0 mm 0.00 in0.0 mm 0.00 in0.0 mm
02:19 AM 27.0°F-2.8°C 22.8°F-5.1°C 84% 1.0 mph SSE1.6 kmh SSE 2.0 mph3.2 kmh 29.78 in1008.5 mb 0.00 in0.0 mm 0.00 in0.0 mm 0.00 in0.0 mm
02:20 AM 27.0°F-2.8°C 22.5°F-5.3°C 83% 1.0 mph SSE1.6 kmh SSE 2.0 mph3.2 kmh 29.78 in1008.5 mb 0.00 in0.0 mm 0.00 in0.0 mm 0.00 in0.0 mm
02:21 AM 27.0°F-2.8°C 22.5°F-5.3°C 83% 1.0 mph SSE1.6 kmh SSE 2.0 mph3.2 kmh 29.78 in1008.5 mb 0.00 in0.0 mm 0.00 in0.0 mm 0.00 in0.0 mm
02:23 AM 26.9°F-2.8°C 22.4°F-5.3°C 83% 4.0 mph SSE6.4 kmh SSE 4.0 mph6.4 kmh 29.78 in1008.5 mb 0.00 in0.0 mm 0.00 in0.0 mm 0.00 in0.0 mm
02:24 AM 26.9°F-2.8°C 22.4°F-5.3°C 83% 4.0 mph SSE6.4 kmh SSE 5.0 mph8.0 kmh 29.78 in1008.5 mb 0.00 in0.0 mm 0.00 in0.0 mm 0.00 in0.0 mm
02:25 AM 26.9°F-2.8°C 22.4°F-5.3°C 83% 4.0 mph SSE6.4 kmh SSE 5.0 mph8.0 kmh 29.77 in1008.1 mb 0.00 in0.0 mm 0.00 in0.0 mm 0.00 in0.0 mm
02:26 AM 26.9°F-2.8°C 22.7°F-5.2°C 84% 2.0 mph SSE3.2 kmh SSE 5.0 mph8.0 kmh 29.77 in1008.1 mb 0.00 in0.0 mm 0.00 in0.0 mm 0.00 in0.0 mm
02:27 AM 26.9°F-2.8°C 22.7°F-5.2°C 84% 4.0 mph SSE6.4 kmh SSE 5.0 mph8.0 kmh 29.77 in1008.1 mb 0.00 in0.0 mm 0.00 in0.0 mm 0.00 in0.0 mm
02:28 AM 26.9°F-2.8°C 22.7°F-5.2°C 84% 1.0 mph SSE1.6 kmh SSE 5.0 mph8.0 kmh 29.77 in1008.1 mb 0.00 in0.0 mm 0.00 in0.0 mm 0.00 in0.0 mm
02:29 AM 26.9°F-2.8°C 22.7°F-5.2°C 84% 1.0 mph SSE1.6 kmh SSE 5.0 mph8.0 kmh 29.77 in1008.1 mb 0.00 in0.0 mm 0.00 in0.0 mm 0.00 in0.0 mm
02:30 AM 26.9°F-2.8°C 22.7°F-5.2°C 84% 2.0 mph SSE3.2 kmh SSE 5.0 mph8.0 kmh 29.77 in1008.1 mb 0.00 in0.0 mm 0.00 in0.0 mm 0.00 in0.0 mm
02:31 AM 26.9°F-2.8°C 22.7°F-5.2°C 84% 1.0 mph SSE1.6 kmh SSE 5.0 mph8.0 kmh 29.78 in1008.5 mb 0.00 in0.0 mm 0.00 in0.0 mm 0.00 in0.0 mm
02:32 AM 26.9°F-2.8°C 22.7°F-5.2°C 84% 1.0 mph SSE1.6 kmh SSE 5.0 mph8.0 kmh 29.78 in1008.5 mb 0.00 in0.0 mm 0.00 in0.0 mm 0.00 in0.0 mm
02:33 AM 26.9°F-2.8°C 22.7°F-5.2°C 84% 1.0 mph SSE1.6 kmh SSE 5.0 mph8.0 kmh 29.78 in1008.5 mb 0.00 in0.0 mm 0.00 in0.0 mm 0.00 in0.0 mm
02:34 AM 27.0°F-2.8°C 22.8°F-5.1°C 84% 1.0 mph SSE1.6 kmh SSE 4.0 mph6.4 kmh 29.78 in1008.5 mb 0.00 in0.0 mm 0.00 in0.0 mm 0.00 in0.0 mm
02:35 AM 27.0°F-2.8°C 22.8°F-5.1°C 84% 1.0 mph SSE1.6 kmh SSE 4.0 mph6.4 kmh 29.78 in1008.5 mb 0.00 in0.0 mm 0.00 in0.0 mm 0.00 in0.0 mm
02:36 AM 27.0°F-2.8°C 22.8°F-5.1°C 84% 1.0 mph SSE1.6 kmh SSE 4.0 mph6.4 kmh 29.78 in1008.5 mb 0.00 in0.0 mm 0.00 in0.0 mm 0.00 in0.0 mm
02:37 AM 27.0°F-2.8°C 22.8°F-5.1°C 84% 1.0 mph SSE1.6 kmh SSE 4.0 mph6.4 kmh 29.78 in1008.5 mb 0.00 in0.0 mm 0.00 in0.0 mm 0.00 in0.0 mm
02:38 AM 27.0°F-2.8°C 22.8°F-5.1°C 84% Calm Calm 4.0 mph6.4 kmh 29.78 in1008.5 mb 0.00 in0.0 mm 0.00 in0.0 mm 0.00 in0.0 mm
02:39 AM 27.0°F-2.8°C 22.8°F-5.1°C 84% Calm Calm 4.0 mph6.4 kmh 29.77 in1008.1 mb 0.00 in0.0 mm 0.00 in0.0 mm 0.00 in0.0 mm
02:40 AM 27.0°F-2.8°C 22.8°F-5.1°C 84% Calm Calm 2.0 mph3.2 kmh 29.77 in1008.1 mb 0.00 in0.0 mm 0.00 in0.0 mm 0.00 in0.0 mm
02:41 AM 27.0°F-2.8°C 22.8°F-5.1°C 84% Calm Calm 2.0 mph3.2 kmh 29.77 in1008.1 mb 0.00 in0.0 mm 0.00 in0.0 mm 0.00 in0.0 mm
02:42 AM 26.9°F-2.8°C 22.7°F-5.2°C 84% Calm Calm 2.0 mph3.2 kmh 29.77 in1008.1 mb 0.00 in0.0 mm 0.00 in0.0 mm 0.00 in0.0 mm
02:43 AM 27.0°F-2.8°C 22.8°F-5.1°C 84% Calm Calm 2.0 mph3.2 kmh 29.77 in1008.1 mb 0.00 in0.0 mm 0.00 in0.0 mm 0.00 in0.0 mm
02:44 AM 27.0°F-2.8°C 22.8°F-5.1°C 84% 2.0 mph SSE3.2 kmh SSE 2.0 mph3.2 kmh 29.77 in1008.1 mb 0.00 in0.0 mm 0.00 in0.0 mm 0.00 in0.0 mm
02:45 AM 27.0°F-2.8°C 22.8°F-5.1°C 84% 1.0 mph SSE1.6 kmh SSE 2.0 mph3.2 kmh 29.77 in1008.1 mb 0.00 in0.0 mm 0.00 in0.0 mm 0.00 in0.0 mm
02:46 AM 27.0°F-2.8°C 22.8°F-5.1°C 84% Calm Calm 2.0 mph3.2 kmh 29.77 in1008.1 mb 0.00 in0.0 mm 0.00 in0.0 mm 0.00 in0.0 mm
02:47 AM 27.0°F-2.8°C 22.8°F-5.1°C 84% Calm Calm 2.0 mph3.2 kmh 29.77 in1008.1 mb 0.00 in0.0 mm 0.00 in0.0 mm 0.00 in0.0 mm
02:48 AM 27.0°F-2.8°C 22.8°F-5.1°C 84% 1.0 mph SSE1.6 kmh SSE 2.0 mph3.2 kmh 29.77 in1008.1 mb 0.00 in0.0 mm 0.00 in0.0 mm 0.00 in0.0 mm
02:49 AM 27.0°F-2.8°C 22.8°F-5.1°C 84% 4.0 mph SSE6.4 kmh SSE 4.0 mph6.4 kmh 29.77 in1008.1 mb 0.00 in0.0 mm 0.00 in0.0 mm 0.00 in0.0 mm
02:50 AM 27.0°F-2.8°C 22.8°F-5.1°C 84% 1.0 mph SSE1.6 kmh SSE 4.0 mph6.4 kmh 29.77 in1008.1 mb 0.00 in0.0 mm 0.00 in0.0 mm 0.00 in0.0 mm
02:51 AM 27.1°F-2.7°C 22.9°F-5.1°C 84% 1.0 mph SSE1.6 kmh SSE 4.0 mph6.4 kmh 29.77 in1008.1 mb 0.00 in0.0 mm 0.00 in0.0 mm 0.00 in0.0 mm
02:52 AM 27.1°F-2.7°C 22.9°F-5.1°C 84% 1.0 mph SSE1.6 kmh SSE 4.0 mph6.4 kmh 29.77 in1008.1 mb 0.00 in0.0 mm 0.00 in0.0 mm 0.00 in0.0 mm
02:53 AM 27.1°F-2.7°C 22.9°F-5.1°C 84% 2.0 mph SSE3.2 kmh SSE 4.0 mph6.4 kmh 29.77 in1008.1 mb 0.00 in0.0 mm 0.00 in0.0 mm 0.00 in0.0 mm
02:54 AM 27.0°F-2.8°C 22.8°F-5.1°C 84% 1.0 mph SSE1.6 kmh SSE 4.0 mph6.4 kmh 29.77 in1008.1 mb 0.00 in0.0 mm 0.00 in0.0 mm 0.00 in0.0 mm
02:55 AM 27.1°F-2.7°C 22.9°F-5.1°C 84% 1.0 mph SSE1.6 kmh SSE 4.0 mph6.4 kmh 29.77 in1008.1 mb 0.00 in0.0 mm 0.00 in0.0 mm 0.00 in0.0 mm
02:56 AM 27.2°F-2.7°C 23.0°F-5.0°C 84% 1.0 mph SSE1.6 kmh SSE 4.0 mph6.4 kmh 29.77 in1008.1 mb 0.00 in0.0 mm 0.00 in0.0 mm 0.00 in0.0 mm
02:57 AM 27.2°F-2.7°C 23.0°F-5.0°C 84% 1.0 mph SSE1.6 kmh SSE 4.0 mph6.4 kmh 29.77 in1008.1 mb 0.00 in0.0 mm 0.00 in0.0 mm 0.00 in0.0 mm
02:58 AM 27.2°F-2.7°C 23.0°F-5.0°C 84% 2.0 mph SSE3.2 kmh SSE 4.0 mph6.4 kmh 29.77 in1008.1 mb 0.00 in0.0 mm 0.00 in0.0 mm 0.00 in0.0 mm
02:59 AM 27.4°F-2.6°C 23.5°F-4.7°C 85% 2.0 mph SSE3.2 kmh SSE 4.0 mph6.4 kmh 29.77 in1008.1 mb 0.00 in0.0 mm 0.00 in0.0 mm 0.00 in0.0 mm
03:00 AM 27.5°F-2.5°C 23.6°F-4.7°C 85% 1.0 mph SSE1.6 kmh SSE 4.0 mph6.4 kmh 29.77 in1008.1 mb 0.00 in0.0 mm 0.00 in0.0 mm 0.00 in0.0 mm
03:01 AM 27.7°F-2.4°C 23.8°F-4.6°C 85% 1.0 mph SSE1.6 kmh SSE 4.0 mph6.4 kmh 29.77 in1008.1 mb 0.00 in0.0 mm 0.00 in0.0 mm 0.00 in0.0 mm
03:02 AM 27.8°F-2.3°C 23.9°F-4.5°C 85% 2.0 mph SSE3.2 kmh SSE 4.0 mph6.4 kmh 29.77 in1008.1 mb 0.00 in0.0 mm 0.00 in0.0 mm 0.00 in0.0 mm
03:03 AM 27.9°F-2.3°C 24.0°F-4.4°C 85% Calm Calm 4.0 mph6.4 kmh 29.77 in1008.1 mb 0.00 in0.0 mm 0.00 in0.0 mm 0.00 in0.0 mm
03:04 AM 28.1°F-2.2°C 24.2°F-4.3°C 85% 2.0 mph SSE3.2 kmh SSE 4.0 mph6.4 kmh 29.77 in1008.1 mb 0.00 in0.0 mm 0.00 in0.0 mm 0.00 in0.0 mm
03:05 AM 28.1°F-2.2°C 24.2°F-4.3°C 85% 2.0 mph SSE3.2 kmh SSE 4.0 mph6.4 kmh 29.77 in1008.1 mb 0.00 in0.0 mm 0.00 in0.0 mm 0.00 in0.0 mm
03:06 AM 28.3°F-2.1°C 24.4°F-4.2°C 85% 2.0 mph SSE3.2 kmh SSE 4.0 mph6.4 kmh 29.77 in1008.1 mb 0.00 in0.0 mm 0.00 in0.0 mm 0.00 in0.0 mm
03:07 AM 28.3°F-2.1°C 24.1°F-4.4°C 84% Calm Calm 4.0 mph6.4 kmh 29.77 in1008.1 mb 0.00 in0.0 mm 0.00 in0.0 mm 0.00 in0.0 mm
03:08 AM 28.5°F-1.9°C 24.3°F-4.3°C 84% 2.0 mph SSE3.2 kmh SSE 4.0 mph6.4 kmh 29.77 in1008.1 mb 0.00 in0.0 mm 0.00 in0.0 mm 0.00 in0.0 mm
03:09 AM 28.5°F-1.9°C 24.3°F-4.3°C 84% 2.0 mph SSE3.2 kmh SSE 4.0 mph6.4 kmh 29.77 in1008.1 mb 0.00 in0.0 mm 0.00 in0.0 mm 0.00 in0.0 mm
03:10 AM 28.6°F-1.9°C 24.4°F-4.2°C 84% 1.0 mph SSE1.6 kmh SSE 4.0 mph6.4 kmh 29.77 in1008.1 mb 0.00 in0.0 mm 0.00 in0.0 mm 0.00 in0.0 mm
03:11 AM 28.6°F-1.9°C 24.1°F-4.4°C 83% 2.0 mph SSE3.2 kmh SSE 4.0 mph6.4 kmh 29.77 in1008.1 mb 0.00 in0.0 mm 0.00 in0.0 mm 0.00 in0.0 mm
03:13 AM 28.7°F-1.8°C 24.2°F-4.3°C 83% 1.0 mph SSE1.6 kmh SSE 4.0 mph6.4 kmh 29.77 in1008.1 mb 0.00 in0.0 mm 0.00 in0.0 mm 0.00 in0.0 mm
03:14 AM 28.7°F-1.8°C 24.2°F-4.3°C 83% 1.0 mph SSE1.6 kmh SSE 4.0 mph6.4 kmh 29.77 in1008.1 mb 0.00 in0.0 mm 0.00 in0.0 mm 0.00 in0.0 mm
03:15 AM 28.8°F-1.8°C 24.3°F-4.3°C 83% 2.0 mph SSE3.2 kmh SSE 4.0 mph6.4 kmh 29.76 in1007.8 mb 0.00 in0.0 mm 0.00 in0.0 mm 0.00 in0.0 mm
03:16 AM 28.8°F-1.8°C 24.3°F-4.3°C 83% 1.0 mph SSE1.6 kmh SSE 4.0 mph6.4 kmh 29.76 in1007.8 mb 0.00 in0.0 mm 0.00 in0.0 mm 0.00 in0.0 mm
03:17 AM 28.8°F-1.8°C 24.3°F-4.3°C 83% 2.0 mph SSE3.2 kmh SSE 4.0 mph6.4 kmh 29.76 in1007.8 mb 0.00 in0.0 mm 0.00 in0.0 mm 0.00 in0.0 mm
03:18 AM 28.9°F-1.7°C 24.4°F-4.2°C 83% 1.0 mph SSE1.6 kmh SSE 4.0 mph6.4 kmh 29.76 in1007.8 mb 0.00 in0.0 mm 0.00 in0.0 mm 0.00 in0.0 mm
03:19 AM 28.9°F-1.7°C 24.4°F-4.2°C 83% Calm Calm 4.0 mph6.4 kmh 29.76 in1007.8 mb 0.00 in0.0 mm 0.00 in0.0 mm 0.00 in0.0 mm
03:20 AM 28.9°F-1.7°C 24.4°F-4.2°C 83% 1.0 mph SSE1.6 kmh SSE 4.0 mph6.4 kmh 29.76 in1007.8 mb 0.00 in0.0 mm 0.00 in0.0 mm 0.00 in0.0 mm
03:21 AM 28.9°F-1.7°C 24.1°F-4.4°C 82% 1.0 mph SSE1.6 kmh SSE 4.0 mph6.4 kmh 29.76 in1007.8 mb 0.00 in0.0 mm 0.00 in0.0 mm 0.00 in0.0 mm
03:24 AM 29.0°F-1.7°C 24.2°F-4.3°C 82% Calm Calm 4.0 mph6.4 kmh 29.76 in1007.8 mb 0.00 in0.0 mm 0.00 in0.0 mm 0.00 in0.0 mm
03:30 AM 28.9°F-1.7°C 24.1°F-4.4°C 82% 1.0 mph SSE1.6 kmh SSE 4.0 mph6.4 kmh 29.76 in1007.8 mb 0.00 in0.0 mm 0.00 in0.0 mm 0.00 in0.0 mm
03:31 AM 28.9°F-1.7°C 24.1°F-4.4°C 82% 1.0 mph SSE1.6 kmh SSE 4.0 mph6.4 kmh 29.76 in1007.8 mb 0.00 in0.0 mm 0.00 in0.0 mm 0.00 in0.0 mm
03:32 AM 28.9°F-1.7°C 24.1°F-4.4°C 82% 1.0 mph SSE1.6 kmh SSE 4.0 mph6.4 kmh 29.76 in1007.8 mb 0.00 in0.0 mm 0.00 in0.0 mm 0.00 in0.0 mm
03:33 AM 28.9°F-1.7°C 24.1°F-4.4°C 82% 1.0 mph SSE1.6 kmh SSE 4.0 mph6.4 kmh 29.76 in1007.8 mb 0.00 in0.0 mm 0.00 in0.0 mm 0.00 in0.0 mm
03:34 AM 28.9°F-1.7°C 24.1°F-4.4°C 82% 1.0 mph SSE1.6 kmh SSE 4.0 mph6.4 kmh 29.76 in1007.8 mb 0.00 in0.0 mm 0.00 in0.0 mm 0.00 in0.0 mm
03:35 AM 28.9°F-1.7°C 24.1°F-4.4°C 82% 4.0 mph SSE6.4 kmh SSE 5.0 mph8.0 kmh 29.76 in1007.8 mb 0.00 in0.0 mm 0.00 in0.0 mm 0.00 in0.0 mm
03:36 AM 28.9°F-1.7°C 23.8°F-4.6°C 81% 2.0 mph S3.2 kmh S 5.0 mph8.0 kmh 29.76 in1007.8 mb 0.00 in0.0 mm 0.00 in0.0 mm 0.00 in0.0 mm
03:37 AM 28.9°F-1.7°C 23.8°F-4.6°C 81% 2.0 mph SSE3.2 kmh SSE 5.0 mph8.0 kmh 29.76 in1007.8 mb 0.00 in0.0 mm 0.00 in0.0 mm 0.00 in0.0 mm
03:38 AM 28.9°F-1.7°C 23.8°F-4.6°C 81% 2.0 mph SSE3.2 kmh SSE 5.0 mph8.0 kmh 29.76 in1007.8 mb 0.00 in0.0 mm 0.00 in0.0 mm 0.00 in0.0 mm
03:39 AM 28.9°F-1.7°C 23.8°F-4.6°C 81% 1.0 mph SSE1.6 kmh SSE 5.0 mph8.0 kmh 29.76 in1007.8 mb 0.00 in0.0 mm 0.00 in0.0 mm 0.00 in0.0 mm
03:40 AM 28.9°F-1.7°C 23.8°F-4.6°C 81% 2.0 mph S3.2 kmh S 5.0 mph8.0 kmh 29.76 in1007.8 mb 0.00 in0.0 mm 0.00 in0.0 mm 0.00 in0.0 mm
03:41 AM 28.9°F-1.7°C 23.8°F-4.6°C 81% 1.0 mph SSE1.6 kmh SSE 5.0 mph8.0 kmh 29.76 in1007.8 mb 0.00 in0.0 mm 0.00 in0.0 mm 0.00 in0.0 mm
03:42 AM 28.9°F-1.7°C 24.1°F-4.4°C 82% 2.0 mph S3.2 kmh S 5.0 mph8.0 kmh 29.76 in1007.8 mb 0.00 in0.0 mm 0.00 in0.0 mm 0.00 in0.0 mm
03:43 AM 28.9°F-1.7°C 24.1°F-4.4°C 82% 1.0 mph S1.6 kmh S 5.0 mph8.0 kmh 29.76 in1007.8 mb 0.00 in0.0 mm 0.00 in0.0 mm 0.00 in0.0 mm
03:44 AM 28.9°F-1.7°C 24.1°F-4.4°C 82% 1.0 mph S1.6 kmh S 5.0 mph8.0 kmh 29.76 in1007.8 mb 0.00 in0.0 mm 0.00 in0.0 mm 0.00 in0.0 mm
03:45 AM 29.0°F-1.7°C 24.2°F-4.3°C 82% 1.0 mph SSE1.6 kmh SSE 4.0 mph6.4 kmh 29.76 in1007.8 mb 0.00 in0.0 mm 0.00 in0.0 mm 0.00 in0.0 mm
03:46 AM 29.0°F-1.7°C 24.2°F-4.3°C 82% 1.0 mph SSE1.6 kmh SSE 4.0 mph6.4 kmh 29.76 in1007.8 mb 0.00 in0.0 mm 0.00 in0.0 mm 0.00 in0.0 mm
03:47 AM 29.0°F-1.7°C 23.9°F-4.5°C 81% Calm Calm 4.0 mph6.4 kmh 29.76 in1007.8 mb 0.00 in0.0 mm 0.00 in0.0 mm 0.00 in0.0 mm
03:48 AM 29.0°F-1.7°C 23.9°F-4.5°C 81% 1.0 mph S1.6 kmh S 4.0 mph6.4 kmh 29.76 in1007.8 mb 0.00 in0.0 mm 0.00 in0.0 mm 0.00 in0.0 mm
03:49 AM 28.9°F-1.7°C 23.8°F-4.6°C 81% Calm Calm 4.0 mph6.4 kmh 29.76 in1007.8 mb 0.00 in0.0 mm 0.00 in0.0 mm 0.00 in0.0 mm
03:50 AM 28.9°F-1.7°C 23.8°F-4.6°C 81% 1.0 mph SSE1.6 kmh SSE 4.0 mph6.4 kmh 29.75 in1007.5 mb 0.00 in0.0 mm 0.00 in0.0 mm 0.00 in0.0 mm
03:51 AM 28.9°F-1.7°C 23.8°F-4.6°C 81% Calm Calm 2.0 mph3.2 kmh 29.76 in1007.8 mb 0.00 in0.0 mm 0.00 in0.0 mm 0.00 in0.0 mm
03:52 AM 28.8°F-1.8°C 23.7°F-4.6°C 81% Calm Calm 2.0 mph3.2 kmh 29.75 in1007.5 mb 0.00 in0.0 mm 0.00 in0.0 mm 0.00 in0.0 mm
03:53 AM 28.9°F-1.7°C 23.8°F-4.6°C 81% Calm Calm 2.0 mph3.2 kmh 29.75 in1007.5 mb 0.00 in0.0 mm 0.00 in0.0 mm 0.00 in0.0 mm
03:54 AM 28.8°F-1.8°C 23.7°F-4.6°C 81% Calm Calm 2.0 mph3.2 kmh 29.75 in1007.5 mb 0.00 in0.0 mm 0.00 in0.0 mm 0.00 in0.0 mm
03:55 AM 28.8°F-1.8°C 23.7°F-4.6°C 81% 1.0 mph SSE1.6 kmh SSE 2.0 mph3.2 kmh 29.75 in1007.5 mb 0.00 in0.0 mm 0.00 in0.0 mm 0.00 in0.0 mm
03:56 AM 28.8°F-1.8°C 23.7°F-4.6°C 81% 1.0 mph SSE1.6 kmh SSE 2.0 mph3.2 kmh 29.75 in1007.5 mb 0.00 in0.0 mm 0.00 in0.0 mm 0.00 in0.0 mm
03:57 AM 28.7°F-1.8°C 23.6°F-4.7°C 81% 2.0 mph SSE3.2 kmh SSE 2.0 mph3.2 kmh 29.75 in1007.5 mb 0.00 in0.0 mm 0.00 in0.0 mm 0.00 in0.0 mm
03:58 AM 28.7°F-1.8°C 23.6°F-4.7°C 81% 5.0 mph SSE8.0 kmh SSE 5.0 mph8.0 kmh 29.75 in1007.5 mb 0.00 in0.0 mm 0.00 in0.0 mm 0.00 in0.0 mm
03:59 AM 28.7°F-1.8°C 23.6°F-4.7°C 81% 2.0 mph SSE3.2 kmh SSE 6.0 mph9.7 kmh 29.75 in1007.5 mb 0.00 in0.0 mm 0.00 in0.0 mm 0.00 in0.0 mm
04:00 AM 28.7°F-1.8°C 23.6°F-4.7°C 81% 4.0 mph SSE6.4 kmh SSE 7.0 mph11.3 kmh 29.75 in1007.5 mb 0.00 in0.0 mm 0.00 in0.0 mm 0.00 in0.0 mm
04:01 AM 28.8°F-1.8°C 24.0°F-4.4°C 82% 1.0 mph SSE1.6 kmh SSE 7.0 mph11.3 kmh 29.75 in1007.5 mb 0.00 in0.0 mm 0.00 in0.0 mm 0.00 in0.0 mm
04:02 AM 28.8°F-1.8°C 24.0°F-4.4°C 82% 2.0 mph SSE3.2 kmh SSE 7.0 mph11.3 kmh 29.76 in1007.8 mb 0.00 in0.0 mm 0.00 in0.0 mm 0.00 in0.0 mm
04:03 AM 29.0°F-1.7°C 24.2°F-4.3°C 82% 2.0 mph SSE3.2 kmh SSE 7.0 mph11.3 kmh 29.75 in1007.5 mb 0.00 in0.0 mm 0.00 in0.0 mm 0.00 in0.0 mm
04:04 AM 29.0°F-1.7°C 24.2°F-4.3°C 82% 1.0 mph SSE1.6 kmh SSE 7.0 mph11.3 kmh 29.75 in1007.5 mb 0.00 in0.0 mm 0.00 in0.0 mm 0.00 in0.0 mm
04:05 AM 29.1°F-1.6°C 24.3°F-4.3°C 82% 2.0 mph SSE3.2 kmh SSE 7.0 mph11.3 kmh 29.75 in1007.5 mb 0.00 in0.0 mm 0.00 in0.0 mm 0.00 in0.0 mm
04:06 AM 29.2°F-1.6°C 24.4°F-4.2°C 82% 4.0 mph SSE6.4 kmh SSE 7.0 mph11.3 kmh 29.75 in1007.5 mb 0.00 in0.0 mm 0.00 in0.0 mm 0.00 in0.0 mm
04:07 AM 29.2°F-1.6°C 24.1°F-4.4°C 81% 2.0 mph SSE3.2 kmh SSE 7.0 mph11.3 kmh 29.75 in1007.5 mb 0.00 in0.0 mm 0.00 in0.0 mm 0.00 in0.0 mm
04:08 AM 29.2°F-1.6°C 24.1°F-4.4°C 81% Calm Calm 7.0 mph11.3 kmh 29.75 in1007.5 mb 0.00 in0.0 mm 0.00 in0.0 mm 0.00 in0.0 mm
04:09 AM 29.2°F-1.6°C 24.1°F-4.4°C 81% 1.0 mph SSE1.6 kmh SSE 7.0 mph11.3 kmh 29.75 in1007.5 mb 0.00 in0.0 mm 0.00 in0.0 mm 0.00 in0.0 mm
04:10 AM 29.2°F-1.6°C 24.1°F-4.4°C 81% 1.0 mph SSE1.6 kmh SSE 4.0 mph6.4 kmh 29.75 in1007.5 mb 0.00 in0.0 mm 0.00 in0.0 mm 0.00 in0.0 mm
04:11 AM 29.1°F-1.6°C 24.0°F-4.4°C 81% 1.0 mph SSE1.6 kmh SSE 4.0 mph6.4 kmh 29.75 in1007.5 mb 0.00 in0.0 mm 0.00 in0.0 mm 0.00 in0.0 mm
04:12 AM 29.1°F-1.6°C 24.0°F-4.4°C 81% 1.0 mph SSE1.6 kmh SSE 4.0 mph6.4 kmh 29.75 in1007.5 mb 0.00 in0.0 mm 0.00 in0.0 mm 0.00 in0.0 mm
04:13 AM 29.1°F-1.6°C 24.0°F-4.4°C 81% 4.0 mph SSE6.4 kmh SSE 4.0 mph6.4 kmh 29.75 in1007.5 mb 0.00 in0.0 mm 0.00 in0.0 mm 0.00 in0.0 mm
04:14 AM 29.1°F-1.6°C 24.0°F-4.4°C 81% 1.0 mph SSE1.6 kmh SSE 5.0 mph8.0 kmh 29.75 in1007.5 mb 0.00 in0.0 mm 0.00 in0.0 mm 0.00 in0.0 mm
04:15 AM 29.0°F-1.7°C 23.9°F-4.5°C 81% 1.0 mph SSE1.6 kmh SSE 5.0 mph8.0 kmh 29.75 in1007.5 mb 0.00 in0.0 mm 0.00 in0.0 mm 0.00 in0.0 mm
04:16 AM 29.0°F-1.7°C 23.9°F-4.5°C 81% 1.0 mph SSE1.6 kmh SSE 5.0 mph8.0 kmh 29.75 in1007.5 mb 0.00 in0.0 mm 0.00 in0.0 mm 0.00 in0.0 mm
04:17 AM 29.0°F-1.7°C 23.9°F-4.5°C 81% 1.0 mph SSE1.6 kmh SSE 5.0 mph8.0 kmh 29.75 in1007.5 mb 0.00 in0.0 mm 0.00 in0.0 mm 0.00 in0.0 mm
04:18 AM 29.0°F-1.7°C 23.9°F-4.5°C 81% 2.0 mph SSE3.2 kmh SSE 5.0 mph8.0 kmh 29.75 in1007.5 mb 0.00 in0.0 mm 0.00 in0.0 mm 0.00 in0.0 mm
04:19 AM 29.0°F-1.7°C 23.9°F-4.5°C 81% 1.0 mph SSE1.6 kmh SSE 5.0 mph8.0 kmh 29.75 in1007.5 mb 0.00 in0.0 mm 0.00 in0.0 mm 0.00 in0.0 mm
04:20 AM 29.0°F-1.7°C 23.9°F-4.5°C 81% 2.0 mph SSE3.2 kmh SSE 5.0 mph8.0 kmh 29.75 in1007.5 mb 0.00 in0.0 mm 0.00 in0.0 mm 0.00 in0.0 mm
04:21 AM 29.0°F-1.7°C 23.9°F-4.5°C 81% 2.0 mph SSE3.2 kmh SSE 5.0 mph8.0 kmh 29.75 in1007.5 mb 0.00 in0.0 mm 0.00 in0.0 mm 0.00 in0.0 mm
04:22 AM 29.0°F-1.7°C 23.9°F-4.5°C 81% 2.0 mph SSE3.2 kmh SSE 5.0 mph8.0 kmh 29.75 in1007.5 mb 0.00 in0.0 mm 0.00 in0.0 mm 0.00 in0.0 mm
04:23 AM 29.1°F-1.6°C 24.0°F-4.4°C 81% 1.0 mph SSE1.6 kmh SSE 5.0 mph8.0 kmh 29.75 in1007.5 mb 0.00 in0.0 mm 0.00 in0.0 mm 0.00 in0.0 mm
04:24 AM 29.1°F-1.6°C 24.0°F-4.4°C 81% 1.0 mph SSE1.6 kmh SSE 4.0 mph6.4 kmh 29.75 in1007.5 mb 0.00 in0.0 mm 0.00 in0.0 mm 0.00 in0.0 mm
04:25 AM 29.1°F-1.6°C 24.0°F-4.4°C 81% 1.0 mph SSE1.6 kmh SSE 4.0 mph6.4 kmh 29.75 in1007.5 mb 0.00 in0.0 mm 0.00 in0.0 mm 0.00 in0.0 mm
04:26 AM 29.2°F-1.6°C 24.1°F-4.4°C 81% Calm Calm 4.0 mph6.4 kmh 29.75 in1007.5 mb 0.00 in0.0 mm 0.00 in0.0 mm 0.00 in0.0 mm
04:27 AM 29.2°F-1.6°C 24.1°F-4.4°C 81% 1.0 mph SSE1.6 kmh SSE 4.0 mph6.4 kmh 29.75 in1007.5 mb 0.00 in0.0 mm 0.00 in0.0 mm 0.00 in0.0 mm
04:28 AM 29.2°F-1.6°C 24.1°F-4.4°C 81% Calm Calm 4.0 mph6.4 kmh 29.75 in1007.5 mb 0.00 in0.0 mm 0.00 in0.0 mm 0.00 in0.0 mm
04:29 AM 29.2°F-1.6°C 24.1°F-4.4°C 81% Calm Calm 4.0 mph6.4 kmh 29.75 in1007.5 mb 0.00 in0.0 mm 0.00 in0.0 mm 0.00 in0.0 mm
04:30 AM 29.2°F-1.6°C 24.1°F-4.4°C 81% Calm Calm 4.0 mph6.4 kmh 29.75 in1007.5 mb 0.00 in0.0 mm 0.00 in0.0 mm 0.00 in0.0 mm
04:31 AM 29.2°F-1.6°C 24.1°F-4.4°C 81% Calm Calm 4.0 mph6.4 kmh 29.75 in1007.5 mb 0.00 in0.0 mm 0.00 in0.0 mm 0.00 in0.0 mm
04:32 AM 29.2°F-1.6°C 24.1°F-4.4°C 81% Calm Calm 4.0 mph6.4 kmh 29.75 in1007.5 mb 0.00 in0.0 mm 0.00 in0.0 mm 0.00 in0.0 mm
04:33 AM 29.2°F-1.6°C 24.1°F-4.4°C 81% 1.0 mph SSE1.6 kmh SSE 4.0 mph6.4 kmh 29.75 in1007.5 mb 0.00 in0.0 mm 0.00 in0.0 mm 0.00 in0.0 mm
04:34 AM 29.3°F-1.5°C 24.2°F-4.3°C 81% Calm Calm 4.0 mph6.4 kmh 29.75 in1007.5 mb 0.00 in0.0 mm 0.00 in0.0 mm 0.00 in0.0 mm
04:35 AM 29.3°F-1.5°C 24.2°F-4.3°C 81% 1.0 mph SSE1.6 kmh SSE 1.0 mph1.6 kmh 29.75 in1007.5 mb 0.00 in0.0 mm 0.00 in0.0 mm 0.00 in0.0 mm
04:36 AM 29.3°F-1.5°C 24.2°F-4.3°C 81% 1.0 mph SSE1.6 kmh SSE 2.0 mph3.2 kmh 29.75 in1007.5 mb 0.00 in0.0 mm 0.00 in0.0 mm 0.00 in0.0 mm
04:37 AM 29.3°F-1.5°C 24.2°F-4.3°C 81% 1.0 mph SSE1.6 kmh SSE 2.0 mph3.2 kmh 29.75 in1007.5 mb 0.00 in0.0 mm 0.00 in0.0 mm 0.00 in0.0 mm
04:38 AM 29.3°F-1.5°C 24.2°F-4.3°C 81% 2.0 mph SSE3.2 kmh SSE 2.0 mph3.2 kmh 29.74 in1007.1 mb 0.00 in0.0 mm 0.00 in0.0 mm 0.00 in0.0 mm
04:39 AM 29.2°F-1.6°C 24.1°F-4.4°C 81% 2.0 mph SSE3.2 kmh SSE 2.0 mph3.2 kmh 29.74 in1007.1 mb 0.00 in0.0 mm 0.00 in0.0 mm 0.00 in0.0 mm
04:40 AM 29.2°F-1.6°C 24.1°F-4.4°C 81% 2.0 mph SSE3.2 kmh SSE 2.0 mph3.2 kmh 29.74 in1007.1 mb 0.00 in0.0 mm 0.00 in0.0 mm 0.00 in0.0 mm
04:41 AM 29.2°F-1.6°C 24.1°F-4.4°C 81% 1.0 mph SSE1.6 kmh SSE 2.0 mph3.2 kmh 29.74 in1007.1 mb 0.00 in0.0 mm 0.00 in0.0 mm 0.00 in0.0 mm
04:42 AM 29.2°F-1.6°C 23.8°F-4.6°C 80% 1.0 mph SSE1.6 kmh SSE 2.0 mph3.2 kmh 29.74 in1007.1 mb 0.00 in0.0 mm 0.00 in0.0 mm 0.00 in0.0 mm
04:43 AM 29.2°F-1.6°C 23.8°F-4.6°C 80% 1.0 mph SSE1.6 kmh SSE 2.0 mph3.2 kmh 29.74 in1007.1 mb 0.00 in0.0 mm 0.00 in0.0 mm 0.00 in0.0 mm
04:44 AM 29.2°F-1.6°C 23.8°F-4.6°C 80% 2.0 mph SSE3.2 kmh SSE 2.0 mph3.2 kmh 29.74 in1007.1 mb 0.00 in0.0 mm 0.00 in0.0 mm 0.00 in0.0 mm
04:45 AM 29.2°F-1.6°C 24.1°F-4.4°C 81% 2.0 mph SSE3.2 kmh SSE 4.0 mph6.4 kmh 29.74 in1007.1 mb 0.00 in0.0 mm 0.00 in0.0 mm 0.00 in0.0 mm
04:46 AM 29.1°F-1.6°C 24.0°F-4.4°C 81% 2.0 mph SSE3.2 kmh SSE 4.0 mph6.4 kmh 29.74 in1007.1 mb 0.00 in0.0 mm 0.00 in0.0 mm 0.00 in0.0 mm
04:47 AM 29.1°F-1.6°C 23.7°F-4.6°C 80% Calm Calm 4.0 mph6.4 kmh 29.74 in1007.1 mb 0.00 in0.0 mm 0.00 in0.0 mm 0.00 in0.0 mm
04:48 AM 29.1°F-1.6°C 23.7°F-4.6°C 80% 2.0 mph SSE3.2 kmh SSE 4.0 mph6.4 kmh 29.74 in1007.1 mb 0.00 in0.0 mm 0.00 in0.0 mm 0.00 in0.0 mm
04:49 AM 29.1°F-1.6°C 23.7°F-4.6°C 80% 2.0 mph SSE3.2 kmh SSE 4.0 mph6.4 kmh 29.74 in1007.1 mb 0.00 in0.0 mm 0.00 in0.0 mm 0.00 in0.0 mm
04:50 AM 29.0°F-1.7°C 23.6°F-4.7°C 80% 2.0 mph SSE3.2 kmh SSE 5.0 mph8.0 kmh 29.74 in1007.1 mb 0.00 in0.0 mm 0.00 in0.0 mm 0.00 in0.0 mm
04:51 AM 29.0°F-1.7°C 23.6°F-4.7°C 80% 2.0 mph SSE3.2 kmh SSE 5.0 mph8.0 kmh 29.74 in1007.1 mb 0.00 in0.0 mm 0.00 in0.0 mm 0.00 in0.0 mm
04:52 AM 29.0°F-1.7°C 23.6°F-4.7°C 80% 4.0 mph SSE6.4 kmh SSE 5.0 mph8.0 kmh 29.74 in1007.1 mb 0.00 in0.0 mm 0.00 in0.0 mm 0.00 in0.0 mm
04:53 AM 29.0°F-1.7°C 23.6°F-4.7°C 80% 4.0 mph SSE6.4 kmh SSE 5.0 mph8.0 kmh 29.74 in1007.1 mb 0.00 in0.0 mm 0.00 in0.0 mm 0.00 in0.0 mm
04:54 AM 29.0°F-1.7°C 23.6°F-4.7°C 80% 2.0 mph SSE3.2 kmh SSE 5.0 mph8.0 kmh 29.74 in1007.1 mb 0.00 in0.0 mm 0.00 in0.0 mm 0.00 in0.0 mm
04:55 AM 28.9°F-1.7°C 23.5°F-4.7°C 80% 4.0 mph SSE6.4 kmh SSE 5.0 mph8.0 kmh 29.74 in1007.1 mb 0.00 in0.0 mm 0.00 in0.0 mm 0.00 in0.0 mm
04:56 AM 28.9°F-1.7°C 23.5°F-4.7°C 80% 1.0 mph SSE1.6 kmh SSE 5.0 mph8.0 kmh 29.74 in1007.1 mb 0.00 in0.0 mm 0.00 in0.0 mm 0.00 in0.0 mm
04:57 AM 28.8°F-1.8°C 23.4°F-4.8°C 80% 2.0 mph SSE3.2 kmh SSE 5.0 mph8.0 kmh 29.74 in1007.1 mb 0.00 in0.0 mm 0.00 in0.0 mm 0.00 in0.0 mm
04:58 AM 28.8°F-1.8°C 23.4°F-4.8°C 80% 2.0 mph SSE3.2 kmh SSE 5.0 mph8.0 kmh 29.74 in1007.1 mb 0.00 in0.0 mm 0.00 in0.0 mm 0.00 in0.0 mm
04:59 AM 28.7°F-1.8°C 23.3°F-4.8°C 80% 2.0 mph SSE3.2 kmh SSE 5.0 mph8.0 kmh 29.73 in1006.8 mb 0.00 in0.0 mm 0.00 in0.0 mm 0.00 in0.0 mm
05:00 AM 28.7°F-1.8°C 23.3°F-4.8°C 80% 2.0 mph SSE3.2 kmh SSE 5.0 mph8.0 kmh 29.73 in1006.8 mb 0.00 in0.0 mm 0.00 in0.0 mm 0.00 in0.0 mm
05:01 AM 28.7°F-1.8°C 23.3°F-4.8°C 80% 2.0 mph SSE3.2 kmh SSE 5.0 mph8.0 kmh 29.73 in1006.8 mb 0.00 in0.0 mm 0.00 in0.0 mm 0.00 in0.0 mm
05:02 AM 28.7°F-1.8°C 23.3°F-4.8°C 80% 2.0 mph SSE3.2 kmh SSE 5.0 mph8.0 kmh 29.73 in1006.8 mb 0.00 in0.0 mm 0.00 in0.0 mm 0.00 in0.0 mm
05:03 AM 28.6°F-1.9°C 23.2°F-4.9°C 80% 2.0 mph SSE3.2 kmh SSE 5.0 mph8.0 kmh 29.74 in1007.1 mb 0.00 in0.0 mm 0.00 in0.0 mm 0.00 in0.0 mm
05:04 AM 28.6°F-1.9°C 23.2°F-4.9°C 80% 2.0 mph SSE3.2 kmh SSE 4.0 mph6.4 kmh 29.74 in1007.1 mb 0.00 in0.0 mm 0.00 in0.0 mm 0.00 in0.0 mm
05:05 AM 28.5°F-1.9°C 23.1°F-4.9°C 80% 4.0 mph SSE6.4 kmh SSE 4.0 mph6.4 kmh 29.74 in1007.1 mb 0.00 in0.0 mm 0.00 in0.0 mm 0.00 in0.0 mm
05:06 AM 28.5°F-1.9°C 23.1°F-4.9°C 80% 1.0 mph SSE1.6 kmh SSE 4.0 mph6.4 kmh 29.73 in1006.8 mb 0.00 in0.0 mm 0.00 in0.0 mm 0.00 in0.0 mm
05:07 AM 28.5°F-1.9°C 23.1°F-4.9°C 80% 1.0 mph SSE1.6 kmh SSE 4.0 mph6.4 kmh 29.73 in1006.8 mb 0.00 in0.0 mm 0.00 in0.0 mm 0.00 in0.0 mm
05:08 AM 28.4°F-2.0°C 23.0°F-5.0°C 80% 2.0 mph SSE3.2 kmh SSE 4.0 mph6.4 kmh 29.73 in1006.8 mb 0.00 in0.0 mm 0.00 in0.0 mm 0.00 in0.0 mm
05:09 AM 28.4°F-2.0°C 23.3°F-4.8°C 81% 2.0 mph SSE3.2 kmh SSE 4.0 mph6.4 kmh 29.73 in1006.8 mb 0.00 in0.0 mm 0.00 in0.0 mm 0.00 in0.0 mm
05:10 AM 28.4°F-2.0°C 23.3°F-4.8°C 81% 1.0 mph SSE1.6 kmh SSE 4.0 mph6.4 kmh 29.74 in1007.1 mb 0.00 in0.0 mm 0.00 in0.0 mm 0.00 in0.0 mm
05:11 AM 28.3°F-2.1°C 23.2°F-4.9°C 81% 1.0 mph SSE1.6 kmh SSE 4.0 mph6.4 kmh 29.73 in1006.8 mb 0.00 in0.0 mm 0.00 in0.0 mm 0.00 in0.0 mm
05:12 AM 28.3°F-2.1°C 23.2°F-4.9°C 81% 4.0 mph SSE6.4 kmh SSE 4.0 mph6.4 kmh 29.74 in1007.1 mb 0.00 in0.0 mm 0.00 in0.0 mm 0.00 in0.0 mm
05:13 AM 28.3°F-2.1°C 23.2°F-4.9°C 81% 1.0 mph SSE1.6 kmh SSE 4.0 mph6.4 kmh 29.74 in1007.1 mb 0.00 in0.0 mm 0.00 in0.0 mm 0.00 in0.0 mm
05:14 AM 28.3°F-2.1°C 23.2°F-4.9°C 81% 1.0 mph SSE1.6 kmh SSE 4.0 mph6.4 kmh 29.73 in1006.8 mb 0.00 in0.0 mm 0.00 in0.0 mm 0.00 in0.0 mm
05:15 AM 28.3°F-2.1°C 23.2°F-4.9°C 81% 1.0 mph SSE1.6 kmh SSE 4.0 mph6.4 kmh 29.73 in1006.8 mb 0.00 in0.0 mm 0.00 in0.0 mm 0.00 in0.0 mm
05:16 AM 28.3°F-2.1°C 23.2°F-4.9°C 81% Calm Calm 4.0 mph6.4 kmh 29.73 in1006.8 mb 0.00 in0.0 mm 0.00 in0.0 mm 0.00 in0.0 mm
05:17 AM 28.3°F-2.1°C 23.2°F-4.9°C 81% 1.0 mph SSE1.6 kmh SSE 4.0 mph6.4 kmh 29.74 in1007.1 mb 0.00 in0.0 mm 0.00 in0.0 mm 0.00 in0.0 mm
05:18 AM 28.3°F-2.1°C 23.5°F-4.7°C 82% 1.0 mph SSE1.6 kmh SSE 4.0 mph6.4 kmh 29.74 in1007.1 mb 0.00 in0.0 mm 0.00 in0.0 mm 0.00 in0.0 mm
05:19 AM 28.3°F-2.1°C 23.5°F-4.7°C 82% 1.0 mph SSE1.6 kmh SSE 4.0 mph6.4 kmh 29.74 in1007.1 mb 0.00 in0.0 mm 0.00 in0.0 mm 0.00 in0.0 mm
05:20 AM 28.3°F-2.1°C 23.5°F-4.7°C 82% 3.0 mph S4.8 kmh S 4.0 mph6.4 kmh 29.74 in1007.1 mb 0.00 in0.0 mm 0.00 in0.0 mm 0.00 in0.0 mm
05:21 AM 28.3°F-2.1°C 23.5°F-4.7°C 82% Calm Calm 4.0 mph6.4 kmh 29.74 in1007.1 mb 0.00 in0.0 mm 0.00 in0.0 mm 0.00 in0.0 mm
05:22 AM 28.3°F-2.1°C 23.5°F-4.7°C 82% Calm Calm 4.0 mph6.4 kmh 29.74 in1007.1 mb 0.00 in0.0 mm 0.00 in0.0 mm 0.00 in0.0 mm
05:23 AM 28.3°F-2.1°C 23.5°F-4.7°C 82% Calm Calm 3.0 mph4.8 kmh 29.73 in1006.8 mb 0.00 in0.0 mm 0.00 in0.0 mm 0.00 in0.0 mm
05:24 AM 28.3°F-2.1°C 23.5°F-4.7°C 82% Calm Calm 3.0 mph4.8 kmh 29.73 in1006.8 mb 0.00 in0.0 mm 0.00 in0.0 mm 0.00 in0.0 mm
05:25 AM 28.3°F-2.1°C 23.5°F-4.7°C 82% 3.0 mph S4.8 kmh S 3.0 mph4.8 kmh 29.73 in1006.8 mb 0.00 in0.0 mm 0.00 in0.0 mm 0.00 in0.0 mm
05:26 AM 28.3°F-2.1°C 23.5°F-4.7°C 82% 3.0 mph SSE4.8 kmh SSE 4.0 mph6.4 kmh 29.73 in1006.8 mb 0.00 in0.0 mm 0.00 in0.0 mm 0.00 in0.0 mm
05:27 AM 28.2°F-2.1°C 23.4°F-4.8°C 82% 1.0 mph SSE1.6 kmh SSE 4.0 mph6.4 kmh 29.73 in1006.8 mb 0.00 in0.0 mm 0.00 in0.0 mm 0.00 in0.0 mm
05:28 AM 28.2°F-2.1°C 23.4°F-4.8°C 82% 3.0 mph SSE4.8 kmh SSE 5.0 mph8.0 kmh 29.73 in1006.8 mb 0.00 in0.0 mm 0.00 in0.0 mm 0.00 in0.0 mm
05:29 AM 28.2°F-2.1°C 23.4°F-4.8°C 82% 1.0 mph SSE1.6 kmh SSE 5.0 mph8.0 kmh 29.73 in1006.8 mb 0.00 in0.0 mm 0.00 in0.0 mm 0.00 in0.0 mm
05:30 AM 28.2°F-2.1°C 23.4°F-4.8°C 82% 2.0 mph SSE3.2 kmh SSE 6.0 mph9.7 kmh 29.73 in1006.8 mb 0.00 in0.0 mm 0.00 in0.0 mm 0.00 in0.0 mm
05:31 AM 28.2°F-2.1°C 23.4°F-4.8°C 82% 4.0 mph SSE6.4 kmh SSE 6.0 mph9.7 kmh 29.73 in1006.8 mb 0.00 in0.0 mm 0.00 in0.0 mm 0.00 in0.0 mm
05:32 AM 28.2°F-2.1°C 23.4°F-4.8°C 82% 2.0 mph SSE3.2 kmh SSE 6.0 mph9.7 kmh 29.73 in1006.8 mb 0.00 in0.0 mm 0.00 in0.0 mm 0.00 in0.0 mm
05:33 AM 28.2°F-2.1°C 23.4°F-4.8°C 82% 4.0 mph S6.4 kmh S 7.0 mph11.3 kmh 29.73 in1006.8 mb 0.00 in0.0 mm 0.00 in0.0 mm 0.00 in0.0 mm
05:34 AM 28.2°F-2.1°C 23.4°F-4.8°C 82% 2.0 mph S3.2 kmh S 7.0 mph11.3 kmh 29.73 in1006.8 mb 0.00 in0.0 mm 0.00 in0.0 mm 0.00 in0.0 mm
05:35 AM 28.3°F-2.1°C 23.5°F-4.7°C 82% 4.0 mph S6.4 kmh S 7.0 mph11.3 kmh 29.73 in1006.8 mb 0.00 in0.0 mm 0.00 in0.0 mm 0.00 in0.0 mm
05:36 AM 28.3°F-2.1°C 23.8°F-4.6°C 83% 3.0 mph S4.8 kmh S 7.0 mph11.3 kmh 29.73 in1006.8 mb 0.00 in0.0 mm 0.00 in0.0 mm 0.00 in0.0 mm
05:37 AM 28.4°F-2.0°C 23.9°F-4.5°C 83% 4.0 mph SE6.4 kmh SE 7.0 mph11.3 kmh 29.73 in1006.8 mb 0.00 in0.0 mm 0.00 in0.0 mm 0.00 in0.0 mm
05:38 AM 28.4°F-2.0°C 23.9°F-4.5°C 83% 4.0 mph SSE6.4 kmh SSE 7.0 mph11.3 kmh 29.72 in1006.4 mb 0.00 in0.0 mm 0.00 in0.0 mm 0.00 in0.0 mm
05:39 AM 28.4°F-2.0°C 23.9°F-4.5°C 83% 2.0 mph SSE3.2 kmh SSE 7.0 mph11.3 kmh 29.73 in1006.8 mb 0.00 in0.0 mm 0.00 in0.0 mm 0.00 in0.0 mm
05:40 AM 28.5°F-1.9°C 24.0°F-4.4°C 83% 3.0 mph SSE4.8 kmh SSE 7.0 mph11.3 kmh 29.73 in1006.8 mb 0.00 in0.0 mm 0.00 in0.0 mm 0.00 in0.0 mm
05:41 AM 28.6°F-1.9°C 24.1°F-4.4°C 83% 6.0 mph SSE9.7 kmh SSE 7.0 mph11.3 kmh 29.73 in1006.8 mb 0.00 in0.0 mm 0.00 in0.0 mm 0.00 in0.0 mm
05:42 AM 28.7°F-1.8°C 24.2°F-4.3°C 83% 2.0 mph SSE3.2 kmh SSE 7.0 mph11.3 kmh 29.73 in1006.8 mb 0.00 in0.0 mm 0.00 in0.0 mm 0.00 in0.0 mm
05:43 AM 28.8°F-1.8°C 24.3°F-4.3°C 83% 3.0 mph SSE4.8 kmh SSE 6.0 mph9.7 kmh 29.73 in1006.8 mb 0.00 in0.0 mm 0.00 in0.0 mm 0.00 in0.0 mm
05:44 AM 28.8°F-1.8°C 24.3°F-4.3°C 83% 3.0 mph SSE4.8 kmh SSE 6.0 mph9.7 kmh 29.72 in1006.4 mb 0.00 in0.0 mm 0.00 in0.0 mm 0.00 in0.0 mm
05:45 AM 28.9°F-1.7°C 24.4°F-4.2°C 83% 5.0 mph SSE8.0 kmh SSE 6.0 mph9.7 kmh 29.73 in1006.8 mb 0.00 in0.0 mm 0.00 in0.0 mm 0.00 in0.0 mm
05:46 AM 28.9°F-1.7°C 24.1°F-4.4°C 82% 4.0 mph SSE6.4 kmh SSE 6.0 mph9.7 kmh 29.72 in1006.4 mb 0.00 in0.0 mm 0.00 in0.0 mm 0.00 in0.0 mm
05:47 AM 29.0°F-1.7°C 24.2°F-4.3°C 82% 3.0 mph SE4.8 kmh SE 6.0 mph9.7 kmh 29.72 in1006.4 mb 0.00 in0.0 mm 0.00 in0.0 mm 0.00 in0.0 mm
05:48 AM 29.0°F-1.7°C 24.2°F-4.3°C 82% 3.0 mph SE4.8 kmh SE 6.0 mph9.7 kmh 29.72 in1006.4 mb 0.00 in0.0 mm 0.00 in0.0 mm 0.00 in0.0 mm
05:49 AM 29.2°F-1.6°C 24.4°F-4.2°C 82% 2.0 mph SE3.2 kmh SE 6.0 mph9.7 kmh 29.72 in1006.4 mb 0.00 in0.0 mm 0.00 in0.0 mm 0.00 in0.0 mm
05:50 AM 29.3°F-1.5°C 24.5°F-4.2°C 82% 2.0 mph SE3.2 kmh SE 6.0 mph9.7 kmh 29.72 in1006.4 mb 0.00 in0.0 mm 0.00 in0.0 mm 0.00 in0.0 mm
05:51 AM 29.4°F-1.4°C 24.6°F-4.1°C 82% 5.0 mph S8.0 kmh S 6.0 mph9.7 kmh 29.72 in1006.4 mb 0.00 in0.0 mm 0.00 in0.0 mm 0.00 in0.0 mm
05:52 AM 29.4°F-1.4°C 24.6°F-4.1°C 82% 4.0 mph S6.4 kmh S 6.0 mph9.7 kmh 29.72 in1006.4 mb 0.00 in0.0 mm 0.00 in0.0 mm 0.00 in0.0 mm
05:53 AM 29.5°F-1.4°C 24.7°F-4.1°C 82% 5.0 mph SSE8.0 kmh SSE 6.0 mph9.7 kmh 29.72 in1006.4 mb 0.00 in0.0 mm 0.00 in0.0 mm 0.00 in0.0 mm
05:54 AM 29.6°F-1.3°C 24.5°F-4.2°C 81% 3.0 mph SSE4.8 kmh SSE 6.0 mph9.7 kmh 29.72 in1006.4 mb 0.00 in0.0 mm 0.00 in0.0 mm 0.00 in0.0 mm
05:55 AM 29.6°F-1.3°C 24.8°F-4.0°C 82% 3.0 mph SSE4.8 kmh SSE 6.0 mph9.7 kmh 29.72 in1006.4 mb 0.00 in0.0 mm 0.00 in0.0 mm 0.00 in0.0 mm
05:56 AM 29.7°F-1.3°C 24.6°F-4.1°C 81% 1.0 mph SSE1.6 kmh SSE 5.0 mph8.0 kmh 29.72 in1006.4 mb 0.00 in0.0 mm 0.00 in0.0 mm 0.00 in0.0 mm
05:57 AM 29.8°F-1.2°C 24.7°F-4.1°C 81% 3.0 mph S4.8 kmh S 6.0 mph9.7 kmh 29.72 in1006.4 mb 0.00 in0.0 mm 0.00 in0.0 mm 0.00 in0.0 mm
05:58 AM 29.9°F-1.2°C 24.8°F-4.0°C 81% 2.0 mph S3.2 kmh S 6.0 mph9.7 kmh 29.72 in1006.4 mb 0.00 in0.0 mm 0.00 in0.0 mm 0.00 in0.0 mm
05:59 AM 29.9°F-1.2°C 24.8°F-4.0°C 81% 4.0 mph SE6.4 kmh SE 6.0 mph9.7 kmh 29.72 in1006.4 mb 0.00 in0.0 mm 0.00 in0.0 mm 0.00 in0.0 mm
06:00 AM 29.9°F-1.2°C 24.8°F-4.0°C 81% 5.0 mph SSE8.0 kmh SSE 6.0 mph9.7 kmh 29.72 in1006.4 mb 0.00 in0.0 mm 0.00 in0.0 mm 0.00 in0.0 mm
06:01 AM 30.0°F-1.1°C 24.9°F-3.9°C 81% 4.0 mph SSE6.4 kmh SSE 6.0 mph9.7 kmh 29.72 in1006.4 mb 0.00 in0.0 mm 0.00 in0.0 mm 0.00 in0.0 mm
06:02 AM 30.1°F-1.1°C 24.7°F-4.1°C 80% 4.0 mph SSE6.4 kmh SSE 8.0 mph12.9 kmh 29.72 in1006.4 mb 0.00 in0.0 mm 0.00 in0.0 mm 0.00 in0.0 mm
06:03 AM 30.1°F-1.1°C 24.7°F-4.1°C 80% 3.0 mph S4.8 kmh S 8.0 mph12.9 kmh 29.72 in1006.4 mb 0.00 in0.0 mm 0.00 in0.0 mm 0.00 in0.0 mm
06:04 AM 30.2°F-1.0°C 24.8°F-4.0°C 80% 3.0 mph S4.8 kmh S 8.0 mph12.9 kmh 29.72 in1006.4 mb 0.00 in0.0 mm 0.00 in0.0 mm 0.00 in0.0 mm
06:05 AM 30.3°F-0.9°C 24.9°F-3.9°C 80% 3.0 mph S4.8 kmh S 8.0 mph12.9 kmh 29.72 in1006.4 mb 0.00 in0.0 mm 0.00 in0.0 mm 0.00 in0.0 mm
06:06 AM 30.3°F-0.9°C 24.9°F-3.9°C 80% 4.0 mph SSE6.4 kmh SSE 8.0 mph12.9 kmh 29.72 in1006.4 mb 0.00 in0.0 mm 0.00 in0.0 mm 0.00 in0.0 mm
06:07 AM 30.3°F-0.9°C 24.9°F-3.9°C 80% 2.0 mph S3.2 kmh S 8.0 mph12.9 kmh 29.72 in1006.4 mb 0.00 in0.0 mm 0.00 in0.0 mm 0.00 in0.0 mm
06:08 AM 30.3°F-0.9°C 24.6°F-4.1°C 79% 2.0 mph S3.2 kmh S 8.0 mph12.9 kmh 29.72 in1006.4 mb 0.00 in0.0 mm 0.00 in0.0 mm 0.00 in0.0 mm
06:09 AM 30.3°F-0.9°C 24.6°F-4.1°C 79% 4.0 mph S6.4 kmh S 8.0 mph12.9 kmh 29.72 in1006.4 mb 0.00 in0.0 mm 0.00 in0.0 mm 0.00 in0.0 mm
06:10 AM 30.3°F-0.9°C 24.6°F-4.1°C 79% 6.0 mph S9.7 kmh S 8.0 mph12.9 kmh 29.72 in1006.4 mb 0.00 in0.0 mm 0.00 in0.0 mm 0.00 in0.0 mm
06:11 AM 30.4°F-0.9°C 24.7°F-4.1°C 79% 3.0 mph S4.8 kmh S 8.0 mph12.9 kmh 29.72 in1006.4 mb 0.00 in0.0 mm 0.00 in0.0 mm 0.00 in0.0 mm
06:12 AM 30.4°F-0.9°C 24.7°F-4.1°C 79% 5.0 mph S8.0 kmh S 6.0 mph9.7 kmh 29.72 in1006.4 mb 0.00 in0.0 mm 0.00 in0.0 mm 0.00 in0.0 mm
06:13 AM 30.5°F-0.8°C 24.8°F-4.0°C 79% 4.0 mph S6.4 kmh S 6.0 mph9.7 kmh 29.72 in1006.4 mb 0.00 in0.0 mm 0.00 in0.0 mm 0.00 in0.0 mm
06:14 AM 30.5°F-0.8°C 24.8°F-4.0°C 79% 2.0 mph S3.2 kmh S 6.0 mph9.7 kmh 29.72 in1006.4 mb 0.00 in0.0 mm 0.00 in0.0 mm 0.00 in0.0 mm
06:15 AM 30.5°F-0.8°C 24.8°F-4.0°C 79% 1.0 mph S1.6 kmh S 6.0 mph9.7 kmh 29.72 in1006.4 mb 0.00 in0.0 mm 0.00 in0.0 mm 0.00 in0.0 mm
06:16 AM 30.5°F-0.8°C 24.8°F-4.0°C 79% 6.0 mph S9.7 kmh S 6.0 mph9.7 kmh 29.72 in1006.4 mb 0.00 in0.0 mm 0.00 in0.0 mm 0.00 in0.0 mm
06:17 AM 30.5°F-0.8°C 24.8°F-4.0°C 79% 5.0 mph S8.0 kmh S 6.0 mph9.7 kmh 29.72 in1006.4 mb 0.00 in0.0 mm 0.00 in0.0 mm 0.00 in0.0 mm
06:18 AM 30.6°F-0.8°C 24.9°F-3.9°C 79% 4.0 mph SSE6.4 kmh SSE 6.0 mph9.7 kmh 29.72 in1006.4 mb 0.00 in0.0 mm 0.00 in0.0 mm 0.00 in0.0 mm
06:19 AM 30.6°F-0.8°C 24.9°F-3.9°C 79% 3.0 mph SSE4.8 kmh SSE 6.0 mph9.7 kmh 29.72 in1006.4 mb 0.00 in0.0 mm 0.00 in0.0 mm 0.00 in0.0 mm
06:20 AM 30.6°F-0.8°C 24.9°F-3.9°C 79% 4.0 mph SSE6.4 kmh SSE 6.0 mph9.7 kmh 29.72 in1006.4 mb 0.00 in0.0 mm 0.00 in0.0 mm 0.00 in0.0 mm
06:21 AM 30.7°F-0.7°C 25.0°F-3.9°C 79% 3.0 mph SSE4.8 kmh SSE 6.0 mph9.7 kmh 29.72 in1006.4 mb 0.00 in0.0 mm 0.00 in0.0 mm 0.00 in0.0 mm
06:22 AM 30.7°F-0.7°C 24.7°F-4.1°C 78% 5.0 mph SSE8.0 kmh SSE 6.0 mph9.7 kmh 29.72 in1006.4 mb 0.00 in0.0 mm 0.00 in0.0 mm 0.00 in0.0 mm
06:23 AM 30.7°F-0.7°C 24.7°F-4.1°C 78% 5.0 mph SSE8.0 kmh SSE 6.0 mph9.7 kmh 29.71 in1006.1 mb 0.00 in0.0 mm 0.00 in0.0 mm 0.00 in0.0 mm
06:24 AM 30.8°F-0.7°C 24.7°F-4.1°C 78% 4.0 mph S6.4 kmh S 6.0 mph9.7 kmh 29.72 in1006.4 mb 0.00 in0.0 mm 0.00 in0.0 mm 0.00 in0.0 mm
06:25 AM 30.8°F-0.7°C 24.7°F-4.1°C 78% 6.0 mph S9.7 kmh S 6.0 mph9.7 kmh 29.71 in1006.1 mb 0.00 in0.0 mm 0.00 in0.0 mm 0.00 in0.0 mm
06:26 AM 30.8°F-0.7°C 24.7°F-4.1°C 78% 5.0 mph S8.0 kmh S 6.0 mph9.7 kmh 29.71 in1006.1 mb 0.00 in0.0 mm 0.00 in0.0 mm 0.00 in0.0 mm
06:27 AM 30.9°F-0.6°C 24.8°F-4.0°C 78% 6.0 mph S9.7 kmh S 8.0 mph12.9 kmh 29.71 in1006.1 mb 0.00 in0.0 mm 0.00 in0.0 mm 0.00 in0.0 mm
06:28 AM 31.0°F-0.6°C 24.9°F-3.9°C 78% 5.0 mph S8.0 kmh S 8.0 mph12.9 kmh 29.71 in1006.1 mb 0.00 in0.0 mm 0.00 in0.0 mm 0.00 in0.0 mm
06:29 AM 31.0°F-0.6°C 24.9°F-3.9°C 78% 4.0 mph S6.4 kmh S 8.0 mph12.9 kmh 29.71 in1006.1 mb 0.00 in0.0 mm 0.00 in0.0 mm 0.00 in0.0 mm
06:30 AM 31.1°F-0.5°C 25.0°F-3.9°C 78% 4.0 mph S6.4 kmh S 8.0 mph12.9 kmh 29.71 in1006.1 mb 0.00 in0.0 mm 0.00 in0.0 mm 0.00 in0.0 mm
06:31 AM 31.1°F-0.5°C 25.0°F-3.9°C 78% 6.0 mph S9.7 kmh S 8.0 mph12.9 kmh 29.71 in1006.1 mb 0.00 in0.0 mm 0.00 in0.0 mm 0.00 in0.0 mm
06:32 AM 31.2°F-0.4°C 25.1°F-3.8°C 78% 6.0 mph S9.7 kmh S 8.0 mph12.9 kmh 29.71 in1006.1 mb 0.00 in0.0 mm 0.00 in0.0 mm 0.00 in0.0 mm
06:33 AM 31.2°F-0.4°C 24.8°F-4.0°C 77% 8.0 mph SSE12.9 kmh SSE 9.0 mph14.5 kmh 29.71 in1006.1 mb 0.00 in0.0 mm 0.00 in0.0 mm 0.00 in0.0 mm
06:34 AM 31.3°F-0.4°C 24.9°F-3.9°C 77% 5.0 mph SSE8.0 kmh SSE 9.0 mph14.5 kmh 29.71 in1006.1 mb 0.00 in0.0 mm 0.00 in0.0 mm 0.00 in0.0 mm
06:35 AM 31.4°F-0.3°C 25.0°F-3.9°C 77% 3.0 mph S4.8 kmh S 9.0 mph14.5 kmh 29.71 in1006.1 mb 0.00 in0.0 mm 0.00 in0.0 mm 0.00 in0.0 mm
06:36 AM 31.4°F-0.3°C 25.0°F-3.9°C 77% 5.0 mph SSE8.0 kmh SSE 9.0 mph14.5 kmh 29.71 in1006.1 mb 0.00 in0.0 mm 0.00 in0.0 mm 0.00 in0.0 mm
06:37 AM 31.4°F-0.3°C 25.0°F-3.9°C 77% 4.0 mph S6.4 kmh S 9.0 mph14.5 kmh 29.71 in1006.1 mb 0.00 in0.0 mm 0.00 in0.0 mm 0.00 in0.0 mm
06:38 AM 31.4°F-0.3°C 24.7°F-4.1°C 76% 5.0 mph S8.0 kmh S 9.0 mph14.5 kmh 29.71 in1006.1 mb 0.00 in0.0 mm 0.00 in0.0 mm 0.00 in0.0 mm
06:39 AM 31.5°F-0.3°C 25.1°F-3.8°C 77% 3.0 mph S4.8 kmh S 9.0 mph14.5 kmh 29.71 in1006.1 mb 0.00 in0.0 mm 0.00 in0.0 mm 0.00 in0.0 mm
06:40 AM 31.5°F-0.3°C 25.1°F-3.8°C 77% 2.0 mph S3.2 kmh S 9.0 mph14.5 kmh 29.71 in1006.1 mb 0.00 in0.0 mm 0.00 in0.0 mm 0.00 in0.0 mm
06:41 AM 31.6°F-0.2°C 24.9°F-3.9°C 76% 4.0 mph S6.4 kmh S 9.0 mph14.5 kmh 29.71 in1006.1 mb 0.00 in0.0 mm 0.00 in0.0 mm 0.00 in0.0 mm
06:42 AM 31.6°F-0.2°C 24.9°F-3.9°C 76% 4.0 mph SE6.4 kmh SE 9.0 mph14.5 kmh 29.71 in1006.1 mb 0.00 in0.0 mm 0.00 in0.0 mm 0.00 in0.0 mm
06:43 AM 31.6°F-0.2°C 24.9°F-3.9°C 76% 2.0 mph S3.2 kmh S 9.0 mph14.5 kmh 29.71 in1006.1 mb 0.00 in0.0 mm 0.00 in0.0 mm 0.00 in0.0 mm
06:44 AM 31.6°F-0.2°C 24.9°F-3.9°C 76% 3.0 mph SE4.8 kmh SE 9.0 mph14.5 kmh 29.71 in1006.1 mb 0.00 in0.0 mm 0.00 in0.0 mm 0.00 in0.0 mm
06:45 AM 31.7°F-0.2°C 25.0°F-3.9°C 76% 7.0 mph S11.3 kmh S 9.0 mph14.5 kmh 29.71 in1006.1 mb 0.00 in0.0 mm 0.00 in0.0 mm 0.00 in0.0 mm
06:46 AM 31.7°F-0.2°C 25.0°F-3.9°C 76% 4.0 mph S6.4 kmh S 9.0 mph14.5 kmh 29.71 in1006.1 mb 0.00 in0.0 mm 0.00 in0.0 mm 0.00 in0.0 mm
06:47 AM 31.7°F-0.2°C 25.0°F-3.9°C 76% 4.0 mph S6.4 kmh S 9.0 mph14.5 kmh 29.71 in1006.1 mb 0.00 in0.0 mm 0.00 in0.0 mm 0.00 in0.0 mm
06:48 AM 31.8°F-0.1°C 25.1°F-3.8°C 76% 4.0 mph SSE6.4 kmh SSE 9.0 mph14.5 kmh 29.71 in1006.1 mb 0.00 in0.0 mm 0.00 in0.0 mm 0.00 in0.0 mm
06:49 AM 31.8°F-0.1°C 25.1°F-3.8°C 76% 5.0 mph S8.0 kmh S 9.0 mph14.5 kmh 29.71 in1006.1 mb 0.00 in0.0 mm 0.00 in0.0 mm 0.00 in0.0 mm
06:50 AM 31.8°F-0.1°C 25.1°F-3.8°C 76% 5.0 mph S8.0 kmh S 8.0 mph12.9 kmh 29.71 in1006.1 mb 0.00 in0.0 mm 0.00 in0.0 mm 0.00 in0.0 mm
06:51 AM 31.8°F-0.1°C 24.8°F-4.0°C 75% 7.0 mph S11.3 kmh S 8.0 mph12.9 kmh 29.71 in1006.1 mb 0.00 in0.0 mm 0.00 in0.0 mm 0.00 in0.0 mm
06:52 AM 31.8°F-0.1°C 24.8°F-4.0°C 75% 4.0 mph S6.4 kmh S 8.0 mph12.9 kmh 29.71 in1006.1 mb 0.00 in0.0 mm 0.00 in0.0 mm 0.00 in0.0 mm
06:53 AM 31.7°F-0.2°C 24.7°F-4.1°C 75% 6.0 mph SSE9.7 kmh SSE 8.0 mph12.9 kmh 29.71 in1006.1 mb 0.00 in0.0 mm 0.00 in0.0 mm 0.00 in0.0 mm
06:54 AM 31.7°F-0.2°C 24.7°F-4.1°C 75% 5.0 mph S8.0 kmh S 8.0 mph12.9 kmh 29.71 in1006.1 mb 0.00 in0.0 mm 0.00 in0.0 mm 0.00 in0.0 mm
06:55 AM 31.7°F-0.2°C 24.7°F-4.1°C 75% 8.0 mph S12.9 kmh S 8.0 mph12.9 kmh 29.71 in1006.1 mb 0.00 in0.0 mm 0.00 in0.0 mm 0.00 in0.0 mm
06:56 AM 31.7°F-0.2°C 24.7°F-4.1°C 75% 7.0 mph S11.3 kmh S 9.0 mph14.5 kmh 29.71 in1006.1 mb 0.00 in0.0 mm 0.00 in0.0 mm 0.00 in0.0 mm
06:57 AM 31.7°F-0.2°C 25.0°F-3.9°C 76% 5.0 mph S8.0 kmh S 9.0 mph14.5 kmh 29.71 in1006.1 mb 0.00 in0.0 mm 0.00 in0.0 mm 0.00 in0.0 mm
06:58 AM 31.7°F-0.2°C 24.7°F-4.1°C 75% 5.0 mph S8.0 kmh S 9.0 mph14.5 kmh 29.71 in1006.1 mb 0.00 in0.0 mm 0.00 in0.0 mm 0.00 in0.0 mm
06:59 AM 31.7°F-0.2°C 24.7°F-4.1°C 75% 5.0 mph S8.0 kmh S 10.0 mph16.1 kmh 29.71 in1006.1 mb 0.00 in0.0 mm 0.00 in0.0 mm 0.00 in0.0 mm
07:00 AM 31.7°F-0.2°C 24.7°F-4.1°C 75% 4.0 mph S6.4 kmh S 10.0 mph16.1 kmh 29.71 in1006.1 mb 0.00 in0.0 mm 0.00 in0.0 mm 0.00 in0.0 mm
07:01 AM 31.8°F-0.1°C 24.8°F-4.0°C 75% 5.0 mph S8.0 kmh S 10.0 mph16.1 kmh 29.71 in1006.1 mb 0.00 in0.0 mm 0.00 in0.0 mm 0.00 in0.0 mm
07:02 AM 31.8°F-0.1°C 24.8°F-4.0°C 75% 7.0 mph S11.3 kmh S 10.0 mph16.1 kmh 29.71 in1006.1 mb 0.00 in0.0 mm 0.00 in0.0 mm 0.00 in0.0 mm
07:03 AM 31.7°F-0.2°C 24.7°F-4.1°C 75% 3.0 mph S4.8 kmh S 10.0 mph16.1 kmh 29.71 in1006.1 mb 0.00 in0.0 mm 0.00 in0.0 mm 0.00 in0.0 mm
07:04 AM 31.8°F-0.1°C 25.1°F-3.8°C 76% 9.0 mph S14.5 kmh S 10.0 mph16.1 kmh 29.70 in1005.8 mb 0.00 in0.0 mm 0.00 in0.0 mm 0.00 in0.0 mm
07:05 AM 31.8°F-0.1°C 25.1°F-3.8°C 76% 7.0 mph SE11.3 kmh SE 10.0 mph16.1 kmh 29.70 in1005.8 mb 0.00 in0.0 mm 0.00 in0.0 mm 0.00 in0.0 mm
07:06 AM 31.9°F-0.1°C 24.9°F-3.9°C 75% 6.0 mph S9.7 kmh S 10.0 mph16.1 kmh 29.70 in1005.8 mb 0.00 in0.0 mm 0.00 in0.0 mm 0.00 in0.0 mm
07:07 AM 31.9°F-0.1°C 24.9°F-3.9°C 75% 3.0 mph S4.8 kmh S 10.0 mph16.1 kmh 29.70 in1005.8 mb 0.00 in0.0 mm 0.00 in0.0 mm 0.00 in0.0 mm
07:08 AM 32.0°F0.0°C 25.0°F-3.9°C 75% 5.0 mph S8.0 kmh S 10.0 mph16.1 kmh 29.70 in1005.8 mb 0.00 in0.0 mm 0.00 in0.0 mm 0.00 in0.0 mm
07:09 AM 32.0°F0.0°C 25.0°F-3.9°C 75% 4.0 mph S6.4 kmh S 10.0 mph16.1 kmh 29.70 in1005.8 mb 0.00 in0.0 mm 0.00 in0.0 mm 0.00 in0.0 mm
07:10 AM 32.1°F0.1°C 25.1°F-3.8°C 75% 6.0 mph S9.7 kmh S 10.0 mph16.1 kmh 29.70 in1005.8 mb 0.00 in0.0 mm 0.00 in0.0 mm 0.00 in0.0 mm
07:11 AM 32.1°F0.1°C 25.1°F-3.8°C 75% 8.0 mph S12.9 kmh S 10.0 mph16.1 kmh 29.70 in1005.8 mb 0.00 in0.0 mm 0.00 in0.0 mm 0.00 in0.0 mm
07:12 AM 32.1°F0.1°C 25.1°F-3.8°C 75% 8.0 mph S12.9 kmh S 10.0 mph16.1 kmh 29.70 in1005.8 mb 0.00 in0.0 mm 0.00 in0.0 mm 0.00 in0.0 mm
07:13 AM 32.2°F0.1°C 25.2°F-3.8°C 75% 6.0 mph S9.7 kmh S 10.0 mph16.1 kmh 29.70 in1005.8 mb 0.00 in0.0 mm 0.00 in0.0 mm 0.00 in0.0 mm
07:14 AM 32.1°F0.1°C 25.1°F-3.8°C 75% 7.0 mph S11.3 kmh S 10.0 mph16.1 kmh 29.70 in1005.8 mb 0.00 in0.0 mm 0.00 in0.0 mm 0.00 in0.0 mm
07:15 AM 32.2°F0.1°C 25.2°F-3.8°C 75% 6.0 mph SSE9.7 kmh SSE 9.0 mph14.5 kmh 29.70 in1005.8 mb 0.00 in0.0 mm 0.00 in0.0 mm 0.00 in0.0 mm
07:16 AM 32.2°F0.1°C 25.2°F-3.8°C 75% 7.0 mph S11.3 kmh S 9.0 mph14.5 kmh 29.70 in1005.8 mb 0.00 in0.0 mm 0.00 in0.0 mm 0.00 in0.0 mm
07:17 AM 32.2°F0.1°C 24.8°F-4.0°C 74% 4.0 mph S6.4 kmh S 9.0 mph14.5 kmh 29.70 in1005.8 mb 0.00 in0.0 mm 0.00 in0.0 mm 0.00 in0.0 mm
07:18 AM 32.2°F0.1°C 24.8°F-4.0°C 74% 6.0 mph SSE9.7 kmh SSE 9.0 mph14.5 kmh 29.70 in1005.8 mb 0.00 in0.0 mm 0.00 in0.0 mm 0.00 in0.0 mm
07:19 AM 32.2°F0.1°C 24.8°F-4.0°C 74% 5.0 mph S8.0 kmh S 9.0 mph14.5 kmh 29.70 in1005.8 mb 0.00 in0.0 mm 0.00 in0.0 mm 0.00 in0.0 mm
07:20 AM 32.2°F0.1°C 24.8°F-4.0°C 74% 7.0 mph S11.3 kmh S 9.0 mph14.5 kmh 29.70 in1005.8 mb 0.00 in0.0 mm 0.00 in0.0 mm 0.00 in0.0 mm
07:21 AM 32.3°F0.2°C 24.9°F-3.9°C 74% 5.0 mph S8.0 kmh S 9.0 mph14.5 kmh 29.70 in1005.8 mb 0.00 in0.0 mm 0.00 in0.0 mm 0.00 in0.0 mm
07:22 AM 32.3°F0.2°C 24.9°F-3.9°C 74% 5.0 mph S8.0 kmh S 9.0 mph14.5 kmh 29.70 in1005.8 mb 0.00 in0.0 mm 0.00 in0.0 mm 0.00 in0.0 mm
07:23 AM 32.3°F0.2°C 24.9°F-3.9°C 74% 7.0 mph S11.3 kmh S 9.0 mph14.5 kmh 29.70 in1005.8 mb 0.00 in0.0 mm 0.00 in0.0 mm 0.00 in0.0 mm
07:24 AM 32.3°F0.2°C 24.9°F-3.9°C 74% 4.0 mph S6.4 kmh S 9.0 mph14.5 kmh 29.70 in1005.8 mb 0.00 in0.0 mm 0.00 in0.0 mm 0.00 in0.0 mm
07:25 AM 32.3°F0.2°C 24.9°F-3.9°C 74% 3.0 mph S4.8 kmh S 8.0 mph12.9 kmh 29.70 in1005.8 mb 0.00 in0.0 mm 0.00 in0.0 mm 0.00 in0.0 mm
07:26 AM 32.3°F0.2°C 24.9°F-3.9°C 74% 2.0 mph SSE3.2 kmh SSE 8.0 mph12.9 kmh 29.70 in1005.8 mb 0.00 in0.0 mm 0.00 in0.0 mm 0.00 in0.0 mm
07:27 AM 32.3°F0.2°C 24.9°F-3.9°C 74% 5.0 mph S8.0 kmh S 8.0 mph12.9 kmh 29.70 in1005.8 mb 0.00 in0.0 mm 0.00 in0.0 mm 0.00 in0.0 mm
07:28 AM 32.3°F0.2°C 24.9°F-3.9°C 74% 3.0 mph S4.8 kmh S 9.0 mph14.5 kmh 29.70 in1005.8 mb 0.00 in0.0 mm 0.00 in0.0 mm 0.00 in0.0 mm
07:29 AM 32.3°F0.2°C 24.9°F-3.9°C 74% 5.0 mph S8.0 kmh S 9.0 mph14.5 kmh 29.70 in1005.8 mb 0.00 in0.0 mm 0.00 in0.0 mm 0.00 in0.0 mm
07:30 AM 32.3°F0.2°C 24.9°F-3.9°C 74% 4.0 mph S6.4 kmh S 9.0 mph14.5 kmh 29.70 in1005.8 mb 0.00 in0.0 mm 0.00 in0.0 mm 0.00 in0.0 mm
07:31 AM 32.3°F0.2°C 24.9°F-3.9°C 74% 5.0 mph S8.0 kmh S 11.0 mph17.7 kmh 29.70 in1005.8 mb 0.00 in0.0 mm 0.00 in0.0 mm 0.00 in0.0 mm
07:32 AM 32.3°F0.2°C 24.9°F-3.9°C 74% 5.0 mph S8.0 kmh S 11.0 mph17.7 kmh 29.70 in1005.8 mb 0.00 in0.0 mm 0.00 in0.0 mm 0.00 in0.0 mm
07:33 AM 32.3°F0.2°C 24.9°F-3.9°C 74% 4.0 mph S6.4 kmh S 11.0 mph17.7 kmh 29.70 in1005.8 mb 0.00 in0.0 mm 0.00 in0.0 mm 0.00 in0.0 mm
07:34 AM 32.4°F0.2°C 25.0°F-3.9°C 74% 5.0 mph SSE8.0 kmh SSE 11.0 mph17.7 kmh 29.70 in1005.8 mb 0.00 in0.0 mm 0.00 in0.0 mm 0.00 in0.0 mm
07:35 AM 32.4°F0.2°C 25.0°F-3.9°C 74% 5.0 mph S8.0 kmh S 11.0 mph17.7 kmh 29.70 in1005.8 mb 0.00 in0.0 mm 0.00 in0.0 mm 0.00 in0.0 mm
07:36 AM 32.4°F0.2°C 25.0°F-3.9°C 74% 3.0 mph S4.8 kmh S 11.0 mph17.7 kmh 29.70 in1005.8 mb 0.00 in0.0 mm 0.00 in0.0 mm 0.00 in0.0 mm
07:37 AM 32.4°F0.2°C 25.0°F-3.9°C 74% 6.0 mph S9.7 kmh S 11.0 mph17.7 kmh 29.70 in1005.8 mb 0.00 in0.0 mm 0.00 in0.0 mm 0.00 in0.0 mm
07:38 AM 32.4°F0.2°C 25.0°F-3.9°C 74% 6.0 mph S9.7 kmh S 11.0 mph17.7 kmh 29.70 in1005.8 mb 0.00 in0.0 mm 0.00 in0.0 mm 0.00 in0.0 mm
07:39 AM 32.4°F0.2°C 25.0°F-3.9°C 74% 5.0 mph S8.0 kmh S 11.0 mph17.7 kmh 29.70 in1005.8 mb 0.00 in0.0 mm 0.00 in0.0 mm 0.00 in0.0 mm
07:40 AM 32.4°F0.2°C 25.0°F-3.9°C 74% 7.0 mph S11.3 kmh S 11.0 mph17.7 kmh 29.70 in1005.8 mb 0.00 in0.0 mm 0.00 in0.0 mm 0.00 in0.0 mm
07:41 AM 32.5°F0.3°C 25.1°F-3.8°C 74% 7.0 mph S11.3 kmh S 11.0 mph17.7 kmh 29.70 in1005.8 mb 0.00 in0.0 mm 0.00 in0.0 mm 0.00 in0.0 mm
07:42 AM 32.5°F0.3°C 25.1°F-3.8°C 74% 3.0 mph SSE4.8 kmh SSE 11.0 mph17.7 kmh 29.70 in1005.8 mb 0.00 in0.0 mm 0.00 in0.0 mm 0.00 in0.0 mm
07:43 AM 32.5°F0.3°C 25.1°F-3.8°C 74% 4.0 mph S6.4 kmh S 11.0 mph17.7 kmh 29.70 in1005.8 mb 0.00 in0.0 mm 0.00 in0.0 mm 0.00 in0.0 mm
07:44 AM 32.5°F0.3°C 25.1°F-3.8°C 74% 6.0 mph S9.7 kmh S 11.0 mph17.7 kmh 29.70 in1005.8 mb 0.00 in0.0 mm 0.00 in0.0 mm 0.00 in0.0 mm
07:45 AM 32.5°F0.3°C 25.1°F-3.8°C 74% 5.0 mph SSW8.0 kmh SSW 11.0 mph17.7 kmh 29.70 in1005.8 mb 0.00 in0.0 mm 0.00 in0.0 mm 0.00 in0.0 mm
07:46 AM 32.4°F0.2°C 25.0°F-3.9°C 74% 6.0 mph S9.7 kmh S 11.0 mph17.7 kmh 29.70 in1005.8 mb 0.00 in0.0 mm 0.00 in0.0 mm 0.00 in0.0 mm
07:47 AM 32.4°F0.2°C 25.0°F-3.9°C 74% 3.0 mph S4.8 kmh S 10.0 mph16.1 kmh 29.70 in1005.8 mb 0.00 in0.0 mm 0.00 in0.0 mm 0.00 in0.0 mm
07:48 AM 32.4°F0.2°C 25.0°F-3.9°C 74% 6.0 mph S9.7 kmh S 10.0 mph16.1 kmh 29.70 in1005.8 mb 0.00 in0.0 mm 0.00 in0.0 mm 0.00 in0.0 mm
07:49 AM 32.4°F0.2°C 25.0°F-3.9°C 74% 7.0 mph S11.3 kmh S 10.0 mph16.1 kmh 29.70 in1005.8 mb 0.00 in0.0 mm 0.00 in0.0 mm 0.00 in0.0 mm
07:50 AM 32.4°F0.2°C 25.0°F-3.9°C 74% 6.0 mph S9.7 kmh S 10.0 mph16.1 kmh 29.70 in1005.8 mb 0.00 in0.0 mm 0.00 in0.0 mm 0.00 in0.0 mm
07:51 AM 32.3°F0.2°C 24.9°F-3.9°C 74% 6.0 mph S9.7 kmh S 10.0 mph16.1 kmh 29.70 in1005.8 mb 0.00 in0.0 mm 0.00 in0.0 mm 0.00 in0.0 mm
07:52 AM 32.3°F0.2°C 24.9°F-3.9°C 74% 7.0 mph S11.3 kmh S 10.0 mph16.1 kmh 29.70 in1005.8 mb 0.00 in0.0 mm 0.00 in0.0 mm 0.00 in0.0 mm
07:53 AM 32.3°F0.2°C 24.9°F-3.9°C 74% 7.0 mph SSE11.3 kmh SSE 10.0 mph16.1 kmh 29.70 in1005.8 mb 0.00 in0.0 mm 0.00 in0.0 mm 0.00 in0.0 mm
07:54 AM 32.3°F0.2°C 24.9°F-3.9°C 74% 5.0 mph S8.0 kmh S 10.0 mph16.1 kmh 29.70 in1005.8 mb 0.00 in0.0 mm 0.00 in0.0 mm 0.00 in0.0 mm
07:55 AM 32.3°F0.2°C 24.9°F-3.9°C 74% 6.0 mph S9.7 kmh S 10.0 mph16.1 kmh 29.70 in1005.8 mb 0.00 in0.0 mm 0.00 in0.0 mm 0.00 in0.0 mm
07:56 AM 32.3°F0.2°C 24.9°F-3.9°C 74% 9.0 mph SE14.5 kmh SE 11.0 mph17.7 kmh 29.70 in1005.8 mb 0.00 in0.0 mm 0.00 in0.0 mm 0.00 in0.0 mm
07:57 AM 32.3°F0.2°C 24.9°F-3.9°C 74% 5.0 mph S8.0 kmh S 11.0 mph17.7 kmh 29.70 in1005.8 mb 0.00 in0.0 mm 0.00 in0.0 mm 0.00 in0.0 mm
07:58 AM 32.3°F0.2°C 24.9°F-3.9°C 74% 5.0 mph S8.0 kmh S 11.0 mph17.7 kmh 29.70 in1005.8 mb 0.00 in0.0 mm 0.00 in0.0 mm 0.00 in0.0 mm
07:59 AM 32.3°F0.2°C 24.9°F-3.9°C 74% 4.0 mph S6.4 kmh S 11.0 mph17.7 kmh 29.70 in1005.8 mb 0.00 in0.0 mm 0.00 in0.0 mm 0.00 in0.0 mm
08:00 AM 32.3°F0.2°C 24.9°F-3.9°C 74% 9.0 mph SE14.5 kmh SE 11.0 mph17.7 kmh 29.70 in1005.8 mb 0.00 in0.0 mm 0.00 in0.0 mm 0.00 in0.0 mm
08:01 AM 32.3°F0.2°C 24.9°F-3.9°C 74% 5.0 mph S8.0 kmh S 11.0 mph17.7 kmh 29.70 in1005.8 mb 0.00 in0.0 mm 0.00 in0.0 mm 0.00 in0.0 mm
08:02 AM 32.3°F0.2°C 24.9°F-3.9°C 74% 2.0 mph S3.2 kmh S 11.0 mph17.7 kmh 29.70 in1005.8 mb 0.00 in0.0 mm 0.00 in0.0 mm 0.00 in0.0 mm
08:03 AM 32.3°F0.2°C 24.9°F-3.9°C 74% 5.0 mph SSE8.0 kmh SSE 11.0 mph17.7 kmh 29.70 in1005.8 mb 0.00 in0.0 mm 0.00 in0.0 mm 0.00 in0.0 mm
08:04 AM 32.3°F0.2°C 24.9°F-3.9°C 74% 10.0 mph S16.1 kmh S 11.0 mph17.7 kmh 29.70 in1005.8 mb 0.00 in0.0 mm 0.00 in0.0 mm 0.00 in0.0 mm
08:05 AM 32.3°F0.2°C 24.9°F-3.9°C 74% 3.0 mph S4.8 kmh S 11.0 mph17.7 kmh 29.70 in1005.8 mb 0.00 in0.0 mm 0.00 in0.0 mm 0.00 in0.0 mm
08:06 AM 32.3°F0.2°C 24.9°F-3.9°C 74% 5.0 mph SSE8.0 kmh SSE 11.0 mph17.7 kmh 29.70 in1005.8 mb 0.00 in0.0 mm 0.00 in0.0 mm 0.00 in0.0 mm
08:07 AM 32.3°F0.2°C 24.9°F-3.9°C 74% 3.0 mph S4.8 kmh S 11.0 mph17.7 kmh 29.70 in1005.8 mb 0.00 in0.0 mm 0.00 in0.0 mm 0.00 in0.0 mm
08:08 AM 32.3°F0.2°C 24.9°F-3.9°C 74% 9.0 mph S14.5 kmh S 11.0 mph17.7 kmh 29.70 in1005.8 mb 0.00 in0.0 mm 0.00 in0.0 mm 0.00 in0.0 mm
08:09 AM 32.4°F0.2°C 25.0°F-3.9°C 74% 6.0 mph S9.7 kmh S 11.0 mph17.7 kmh 29.70 in1005.8 mb 0.00 in0.0 mm 0.00 in0.0 mm 0.00 in0.0 mm
08:10 AM 32.3°F0.2°C 24.9°F-3.9°C 74% 7.0 mph S11.3 kmh S 11.0 mph17.7 kmh 29.70 in1005.8 mb 0.00 in0.0 mm 0.00 in0.0 mm 0.00 in0.0 mm
08:11 AM 32.4°F0.2°C 25.0°F-3.9°C 74% 5.0 mph S8.0 kmh S 11.0 mph17.7 kmh 29.70 in1005.8 mb 0.00 in0.0 mm 0.00 in0.0 mm 0.00 in0.0 mm
08:12 AM 32.4°F0.2°C 25.0°F-3.9°C 74% 5.0 mph S8.0 kmh S 11.0 mph17.7 kmh 29.70 in1005.8 mb 0.00 in0.0 mm 0.00 in0.0 mm 0.00 in0.0 mm
08:13 AM 32.4°F0.2°C 25.0°F-3.9°C 74% 6.0 mph S9.7 kmh S 10.0 mph16.1 kmh 29.70 in1005.8 mb 0.00 in0.0 mm 0.00 in0.0 mm 0.00 in0.0 mm
08:14 AM 32.4°F0.2°C 25.0°F-3.9°C 74% 7.0 mph SSE11.3 kmh SSE 10.0 mph16.1 kmh 29.70 in1005.8 mb 0.00 in0.0 mm 0.00 in0.0 mm 0.00 in0.0 mm
08:15 AM 32.4°F0.2°C 25.0°F-3.9°C 74% 5.0 mph SSE8.0 kmh SSE 10.0 mph16.1 kmh 29.70 in1005.8 mb 0.00 in0.0 mm 0.00 in0.0 mm 0.00 in0.0 mm
08:16 AM 32.4°F0.2°C 25.0°F-3.9°C 74% 6.0 mph S9.7 kmh S 10.0 mph16.1 kmh 29.70 in1005.8 mb 0.00 in0.0 mm 0.00 in0.0 mm 0.00 in0.0 mm
08:17 AM 32.4°F0.2°C 25.0°F-3.9°C 74% 4.0 mph S6.4 kmh S 10.0 mph16.1 kmh 29.70 in1005.8 mb 0.00 in0.0 mm 0.00 in0.0 mm 0.00 in0.0 mm
08:18 AM 32.4°F0.2°C 25.0°F-3.9°C 74% 7.0 mph S11.3 kmh S 9.0 mph14.5 kmh 29.70 in1005.8 mb 0.00 in0.0 mm 0.00 in0.0 mm 0.00 in0.0 mm
08:19 AM 32.4°F0.2°C 25.0°F-3.9°C 74% 5.0 mph S8.0 kmh S 10.0 mph16.1 kmh 29.70 in1005.8 mb 0.00 in0.0 mm 0.00 in0.0 mm 0.00 in0.0 mm
08:20 AM 32.4°F0.2°C 25.0°F-3.9°C 74% 6.0 mph S9.7 kmh S 10.0 mph16.1 kmh 29.70 in1005.8 mb 0.00 in0.0 mm 0.00 in0.0 mm 0.00 in0.0 mm
08:21 AM 32.4°F0.2°C 25.0°F-3.9°C 74% 5.0 mph S8.0 kmh S 10.0 mph16.1 kmh 29.70 in1005.8 mb 0.00 in0.0 mm 0.00 in0.0 mm 0.00 in0.0 mm
08:22 AM 32.4°F0.2°C 25.0°F-3.9°C 74% 6.0 mph S9.7 kmh S 10.0 mph16.1 kmh 29.70 in1005.8 mb 0.00 in0.0 mm 0.00 in0.0 mm 0.00 in0.0 mm
08:23 AM 32.4°F0.2°C 25.0°F-3.9°C 74% 6.0 mph S9.7 kmh S 10.0 mph16.1 kmh 29.70 in1005.8 mb 0.00 in0.0 mm 0.00 in0.0 mm 0.00 in0.0 mm
08:24 AM 32.4°F0.2°C 25.0°F-3.9°C 74% 6.0 mph S9.7 kmh S 10.0 mph16.1 kmh 29.70 in1005.8 mb 0.00 in0.0 mm 0.00 in0.0 mm 0.00 in0.0 mm
08:25 AM 32.5°F0.3°C 25.1°F-3.8°C 74% 4.0 mph S6.4 kmh S 10.0 mph16.1 kmh 29.70 in1005.8 mb 0.00 in0.0 mm 0.00 in0.0 mm 0.00 in0.0 mm
08:26 AM 32.5°F0.3°C 25.1°F-3.8°C 74% 5.0 mph S8.0 kmh S 10.0 mph16.1 kmh 29.70 in1005.8 mb 0.00 in0.0 mm 0.00 in0.0 mm 0.00 in0.0 mm
08:27 AM 32.5°F0.3°C 25.1°F-3.8°C 74% 9.0 mph S14.5 kmh S 10.0 mph16.1 kmh 29.70 in1005.8 mb 0.00 in0.0 mm 0.00 in0.0 mm 0.00 in0.0 mm
08:28 AM 32.5°F0.3°C 25.1°F-3.8°C 74% 5.0 mph S8.0 kmh S 10.0 mph16.1 kmh 29.70 in1005.8 mb 0.00 in0.0 mm 0.00 in0.0 mm 0.00 in0.0 mm
08:29 AM 32.5°F0.3°C 25.1°F-3.8°C 74% 5.0 mph S8.0 kmh S 10.0 mph16.1 kmh 29.70 in1005.8 mb 0.00 in0.0 mm 0.00 in0.0 mm 0.00 in0.0 mm
08:30 AM 32.5°F0.3°C 25.1°F-3.8°C 74% 4.0 mph S6.4 kmh S 10.0 mph16.1 kmh 29.69 in1005.4 mb 0.00 in0.0 mm 0.00 in0.0 mm 0.00 in0.0 mm
08:31 AM 32.6°F0.3°C 25.2°F-3.8°C 74% 7.0 mph SSE11.3 kmh SSE 10.0 mph16.1 kmh 29.69 in1005.4 mb 0.00 in0.0 mm 0.00 in0.0 mm 0.00 in0.0 mm
08:32 AM 32.6°F0.3°C 25.2°F-3.8°C 74% 9.0 mph SSE14.5 kmh SSE 10.0 mph16.1 kmh 29.69 in1005.4 mb 0.00 in0.0 mm 0.00 in0.0 mm 0.00 in0.0 mm
08:33 AM 32.6°F0.3°C 25.2°F-3.8°C 74% 6.0 mph S9.7 kmh S 10.0 mph16.1 kmh 29.69 in1005.4 mb 0.00 in0.0 mm 0.00 in0.0 mm 0.00 in0.0 mm
08:34 AM 32.7°F0.4°C 25.3°F-3.7°C 74% 6.0 mph S9.7 kmh S 10.0 mph16.1 kmh 29.69 in1005.4 mb 0.00 in0.0 mm 0.00 in0.0 mm 0.00 in0.0 mm
08:35 AM 32.7°F0.4°C 25.3°F-3.7°C 74% 6.0 mph S9.7 kmh S 13.0 mph20.9 kmh 29.69 in1005.4 mb 0.00 in0.0 mm 0.00 in0.0 mm 0.00 in0.0 mm
08:36 AM 32.7°F0.4°C 25.3°F-3.7°C 74% 6.0 mph SSE9.7 kmh SSE 13.0 mph20.9 kmh 29.69 in1005.4 mb 0.00 in0.0 mm 0.00 in0.0 mm 0.00 in0.0 mm
08:37 AM 32.8°F0.4°C 25.1°F-3.8°C 73% 4.0 mph S6.4 kmh S 13.0 mph20.9 kmh 29.69 in1005.4 mb 0.00 in0.0 mm 0.00 in0.0 mm 0.00 in0.0 mm
08:38 AM 32.8°F0.4°C 25.1°F-3.8°C 73% 4.0 mph S6.4 kmh S 13.0 mph20.9 kmh 29.69 in1005.4 mb 0.00 in0.0 mm 0.00 in0.0 mm 0.00 in0.0 mm
08:39 AM 32.8°F0.4°C 25.1°F-3.8°C 73% 8.0 mph SSW12.9 kmh SSW 13.0 mph20.9 kmh 29.69 in1005.4 mb 0.00 in0.0 mm 0.00 in0.0 mm 0.00 in0.0 mm
08:40 AM 32.9°F0.5°C 25.2°F-3.8°C 73% 4.0 mph S6.4 kmh S 13.0 mph20.9 kmh 29.69 in1005.4 mb 0.00 in0.0 mm 0.00 in0.0 mm 0.00 in0.0 mm
08:41 AM 32.9°F0.5°C 25.2°F-3.8°C 73% 7.0 mph SSE11.3 kmh SSE 15.0 mph24.1 kmh 29.69 in1005.4 mb 0.00 in0.0 mm 0.00 in0.0 mm 0.00 in0.0 mm
08:42 AM 32.9°F0.5°C 25.2°F-3.8°C 73% 7.0 mph S11.3 kmh S 15.0 mph24.1 kmh 29.69 in1005.4 mb 0.00 in0.0 mm 0.00 in0.0 mm 0.00 in0.0 mm
08:43 AM 33.0°F0.6°C 25.3°F-3.7°C 73% 9.0 mph S14.5 kmh S 15.0 mph24.1 kmh 29.69 in1005.4 mb 0.00 in0.0 mm 0.00 in0.0 mm 0.00 in0.0 mm
08:44 AM 33.0°F0.6°C 25.3°F-3.7°C 73% 6.0 mph SSW9.7 kmh SSW 15.0 mph24.1 kmh 29.69 in1005.4 mb 0.00 in0.0 mm 0.00 in0.0 mm 0.00 in0.0 mm
08:45 AM 33.1°F0.6°C 25.4°F-3.7°C 73% 10.0 mph S16.1 kmh S 15.0 mph24.1 kmh 29.69 in1005.4 mb 0.00 in0.0 mm 0.00 in0.0 mm 0.00 in0.0 mm
08:46 AM 33.2°F0.7°C 25.5°F-3.6°C 73% 5.0 mph S8.0 kmh S 15.0 mph24.1 kmh 29.69 in1005.4 mb 0.00 in0.0 mm 0.00 in0.0 mm 0.00 in0.0 mm
08:47 AM 33.2°F0.7°C 25.5°F-3.6°C 73% 4.0 mph S6.4 kmh S 15.0 mph24.1 kmh 29.69 in1005.4 mb 0.00 in0.0 mm 0.00 in0.0 mm 0.00 in0.0 mm
08:48 AM 33.2°F0.7°C 25.1°F-3.8°C 72% 6.0 mph S9.7 kmh S 15.0 mph24.1 kmh 29.69 in1005.4 mb 0.00 in0.0 mm 0.00 in0.0 mm 0.00 in0.0 mm
08:49 AM 33.3°F0.7°C 25.2°F-3.8°C 72% 3.0 mph SSE4.8 kmh SSE 15.0 mph24.1 kmh 29.69 in1005.4 mb 0.00 in0.0 mm 0.00 in0.0 mm 0.00 in0.0 mm
08:50 AM 33.3°F0.7°C 25.2°F-3.8°C 72% 7.0 mph S11.3 kmh S 15.0 mph24.1 kmh 29.69 in1005.4 mb 0.00 in0.0 mm 0.00 in0.0 mm 0.00 in0.0 mm
08:51 AM 33.4°F0.8°C 25.3°F-3.7°C 72% 6.0 mph S9.7 kmh S 11.0 mph17.7 kmh 29.69 in1005.4 mb 0.00 in0.0 mm 0.00 in0.0 mm 0.00 in0.0 mm
08:52 AM 33.4°F0.8°C 25.3°F-3.7°C 72% 6.0 mph SSE9.7 kmh SSE 11.0 mph17.7 kmh 29.69 in1005.4 mb 0.00 in0.0 mm 0.00 in0.0 mm 0.00 in0.0 mm
08:53 AM 33.4°F0.8°C 25.3°F-3.7°C 72% 4.0 mph S6.4 kmh S 11.0 mph17.7 kmh 29.69 in1005.4 mb 0.00 in0.0 mm 0.00 in0.0 mm 0.00 in0.0 mm
08:54 AM 33.4°F0.8°C 25.3°F-3.7°C 72% 5.0 mph SE8.0 kmh SE 11.0 mph17.7 kmh 29.69 in1005.4 mb 0.00 in0.0 mm 0.00 in0.0 mm 0.00 in0.0 mm
08:55 AM 33.5°F0.8°C 25.4°F-3.7°C 72% 8.0 mph SSE12.9 kmh SSE 11.0 mph17.7 kmh 29.69 in1005.4 mb 0.00 in0.0 mm 0.00 in0.0 mm 0.00 in0.0 mm
08:56 AM 33.6°F0.9°C 25.5°F-3.6°C 72% 7.0 mph S11.3 kmh S 11.0 mph17.7 kmh 29.69 in1005.4 mb 0.00 in0.0 mm 0.00 in0.0 mm 0.00 in0.0 mm
08:57 AM 33.7°F0.9°C 25.6°F-3.6°C 72% 4.0 mph S6.4 kmh S 11.0 mph17.7 kmh 29.69 in1005.4 mb 0.00 in0.0 mm 0.00 in0.0 mm 0.00 in0.0 mm
08:58 AM 33.7°F0.9°C 25.6°F-3.6°C 72% 7.0 mph S11.3 kmh S 11.0 mph17.7 kmh 29.69 in1005.4 mb 0.00 in0.0 mm 0.00 in0.0 mm 0.00 in0.0 mm
08:59 AM 33.8°F1.0°C 25.7°F-3.5°C 72% 6.0 mph S9.7 kmh S 11.0 mph17.7 kmh 29.69 in1005.4 mb 0.00 in0.0 mm 0.00 in0.0 mm 0.00 in0.0 mm
09:00 AM 33.9°F1.1°C 25.8°F-3.4°C 72% 5.0 mph S8.0 kmh S 11.0 mph17.7 kmh 29.69 in1005.4 mb 0.00 in0.0 mm 0.00 in0.0 mm 0.00 in0.0 mm
09:01 AM 33.9°F1.1°C 25.5°F-3.6°C 71% 3.0 mph S4.8 kmh S 11.0 mph17.7 kmh 29.69 in1005.4 mb 0.00 in0.0 mm 0.00 in0.0 mm 0.00 in0.0 mm
09:02 AM 34.0°F1.1°C 25.6°F-3.6°C 71% 6.0 mph S9.7 kmh S 12.0 mph19.3 kmh 29.69 in1005.4 mb 0.00 in0.0 mm 0.00 in0.0 mm 0.00 in0.0 mm
09:03 AM 34.1°F1.2°C 25.7°F-3.5°C 71% 7.0 mph S11.3 kmh S 12.0 mph19.3 kmh 29.69 in1005.4 mb 0.00 in0.0 mm 0.00 in0.0 mm 0.00 in0.0 mm
09:04 AM 34.1°F1.2°C 25.7°F-3.5°C 71% 11.0 mph SSE17.7 kmh SSE 14.0 mph22.5 kmh 29.69 in1005.4 mb 0.00 in0.0 mm 0.00 in0.0 mm 0.00 in0.0 mm
09:05 AM 34.2°F1.2°C 25.8°F-3.4°C 71% 8.0 mph SSE12.9 kmh SSE 14.0 mph22.5 kmh 29.68 in1005.1 mb 0.00 in0.0 mm 0.00 in0.0 mm 0.00 in0.0 mm
09:06 AM 34.3°F1.3°C 25.9°F-3.4°C 71% 9.0 mph SSE14.5 kmh SSE 14.0 mph22.5 kmh 29.68 in1005.1 mb 0.00 in0.0 mm 0.00 in0.0 mm 0.00 in0.0 mm
09:07 AM 34.4°F1.3°C 26.0°F-3.3°C 71% 9.0 mph SSE14.5 kmh SSE 14.0 mph22.5 kmh 29.68 in1005.1 mb 0.00 in0.0 mm 0.00 in0.0 mm 0.00 in0.0 mm
09:08 AM 34.4°F1.3°C 26.0°F-3.3°C 71% 6.0 mph S9.7 kmh S 14.0 mph22.5 kmh 29.68 in1005.1 mb 0.00 in0.0 mm 0.00 in0.0 mm 0.00 in0.0 mm
09:09 AM 34.5°F1.4°C 25.7°F-3.5°C 70% 8.0 mph S12.9 kmh S 14.0 mph22.5 kmh 29.68 in1005.1 mb 0.00 in0.0 mm 0.00 in0.0 mm 0.00 in0.0 mm
09:10 AM 34.6°F1.4°C 25.8°F-3.4°C 70% 7.0 mph SSE11.3 kmh SSE 14.0 mph22.5 kmh 29.68 in1005.1 mb 0.00 in0.0 mm 0.00 in0.0 mm 0.00 in0.0 mm
09:11 AM 34.6°F1.4°C 25.8°F-3.4°C 70% 5.0 mph S8.0 kmh S 14.0 mph22.5 kmh 29.68 in1005.1 mb 0.00 in0.0 mm 0.00 in0.0 mm 0.00 in0.0 mm
09:12 AM 34.7°F1.5°C 25.9°F-3.4°C 70% 7.0 mph S11.3 kmh S 14.0 mph22.5 kmh 29.68 in1005.1 mb 0.00 in0.0 mm 0.00 in0.0 mm 0.00 in0.0 mm
09:13 AM 34.8°F1.6°C 26.0°F-3.3°C 70% 4.0 mph SSW6.4 kmh SSW 14.0 mph22.5 kmh 29.68 in1005.1 mb 0.00 in0.0 mm 0.00 in0.0 mm 0.00 in0.0 mm
09:14 AM 34.8°F1.6°C 26.0°F-3.3°C 70% 5.0 mph S8.0 kmh S 13.0 mph20.9 kmh 29.68 in1005.1 mb 0.00 in0.0 mm 0.00 in0.0 mm 0.00 in0.0 mm
09:15 AM 34.9°F1.6°C 26.1°F-3.3°C 70% 5.0 mph S8.0 kmh S 13.0 mph20.9 kmh 29.69 in1005.4 mb 0.00 in0.0 mm 0.00 in0.0 mm 0.00 in0.0 mm
09:16 AM 35.0°F1.7°C 26.2°F-3.2°C 70% 8.0 mph S12.9 kmh S 13.0 mph20.9 kmh 29.69 in1005.4 mb 0.00 in0.0 mm 0.00 in0.0 mm 0.00 in0.0 mm
09:17 AM 35.0°F1.7°C 26.2°F-3.2°C 70% 9.0 mph S14.5 kmh S 13.0 mph20.9 kmh 29.69 in1005.4 mb 0.00 in0.0 mm 0.00 in0.0 mm 0.00 in0.0 mm
09:18 AM 35.1°F1.7°C 26.3°F-3.2°C 70% 8.0 mph S12.9 kmh S 12.0 mph19.3 kmh 29.69 in1005.4 mb 0.00 in0.0 mm 0.00 in0.0 mm 0.00 in0.0 mm
09:19 AM 35.2°F1.8°C 26.0°F-3.3°C 69% 6.0 mph SSE9.7 kmh SSE 12.0 mph19.3 kmh 29.69 in1005.4 mb 0.00 in0.0 mm 0.00 in0.0 mm 0.00 in0.0 mm
09:20 AM 35.3°F1.8°C 26.1°F-3.3°C 69% 9.0 mph SSW14.5 kmh SSW 12.0 mph19.3 kmh 29.69 in1005.4 mb 0.00 in0.0 mm 0.00 in0.0 mm 0.00 in0.0 mm
09:21 AM 35.4°F1.9°C 26.2°F-3.2°C 69% 4.0 mph SSW6.4 kmh SSW 14.0 mph22.5 kmh 29.69 in1005.4 mb 0.00 in0.0 mm 0.00 in0.0 mm 0.00 in0.0 mm
09:22 AM 35.5°F1.9°C 26.3°F-3.2°C 69% 12.0 mph S19.3 kmh S 17.0 mph27.4 kmh 29.69 in1005.4 mb 0.00 in0.0 mm 0.00 in0.0 mm 0.00 in0.0 mm
09:23 AM 35.6°F2.0°C 26.4°F-3.1°C 69% 10.0 mph SSE16.1 kmh SSE 17.0 mph27.4 kmh 29.69 in1005.4 mb 0.00 in0.0 mm 0.00 in0.0 mm 0.00 in0.0 mm
09:24 AM 35.6°F2.0°C 26.1°F-3.3°C 68% 8.0 mph S12.9 kmh S 17.0 mph27.4 kmh 29.68 in1005.1 mb 0.00 in0.0 mm 0.00 in0.0 mm 0.00 in0.0 mm
09:25 AM 35.7°F2.1°C 26.2°F-3.2°C 68% 4.0 mph SSE6.4 kmh SSE 17.0 mph27.4 kmh 29.68 in1005.1 mb 0.00 in0.0 mm 0.00 in0.0 mm 0.00 in0.0 mm
09:26 AM 35.8°F2.1°C 26.3°F-3.2°C 68% 5.0 mph S8.0 kmh S 17.0 mph27.4 kmh 29.68 in1005.1 mb 0.00 in0.0 mm 0.00 in0.0 mm 0.00 in0.0 mm
09:27 AM 35.9°F2.2°C 26.4°F-3.1°C 68% 6.0 mph S9.7 kmh S 17.0 mph27.4 kmh 29.69 in1005.4 mb 0.00 in0.0 mm 0.00 in0.0 mm 0.00 in0.0 mm
09:28 AM 35.9°F2.2°C 26.4°F-3.1°C 68% 9.0 mph S14.5 kmh S 17.0 mph27.4 kmh 29.69 in1005.4 mb 0.00 in0.0 mm 0.00 in0.0 mm 0.00 in0.0 mm
09:29 AM 36.0°F2.2°C 26.5°F-3.1°C 68% 8.0 mph S12.9 kmh S 17.0 mph27.4 kmh 29.69 in1005.4 mb 0.00 in0.0 mm 0.00 in0.0 mm 0.00 in0.0 mm
09:30 AM 36.0°F2.2°C 26.5°F-3.1°C 68% 8.0 mph S12.9 kmh S 17.0 mph27.4 kmh 29.69 in1005.4 mb 0.00 in0.0 mm 0.00 in0.0 mm 0.00 in0.0 mm
09:31 AM 36.1°F2.3°C 26.6°F-3.0°C 68% 10.0 mph S16.1 kmh S 17.0 mph27.4 kmh 29.69 in1005.4 mb 0.00 in0.0 mm 0.00 in0.0 mm 0.00 in0.0 mm
09:32 AM 36.1°F2.3°C 26.2°F-3.2°C 67% 9.0 mph S14.5 kmh S 15.0 mph24.1 kmh 29.69 in1005.4 mb 0.00 in0.0 mm 0.00 in0.0 mm 0.00 in0.0 mm
09:33 AM 36.2°F2.3°C 26.3°F-3.2°C 67% 8.0 mph S12.9 kmh S 15.0 mph24.1 kmh 29.69 in1005.4 mb 0.00 in0.0 mm 0.00 in0.0 mm 0.00 in0.0 mm
09:34 AM 36.2°F2.3°C 26.3°F-3.2°C 67% 7.0 mph S11.3 kmh S 15.0 mph24.1 kmh 29.69 in1005.4 mb 0.00 in0.0 mm 0.00 in0.0 mm 0.00 in0.0 mm
09:35 AM 36.3°F2.4°C 26.4°F-3.1°C 67% 6.0 mph S9.7 kmh S 15.0 mph24.1 kmh 29.69 in1005.4 mb 0.00 in0.0 mm 0.00 in0.0 mm 0.00 in0.0 mm
09:36 AM 36.3°F2.4°C 26.4°F-3.1°C 67% 11.0 mph S17.7 kmh S 15.0 mph24.1 kmh 29.69 in1005.4 mb 0.00 in0.0 mm 0.00 in0.0 mm 0.00 in0.0 mm
09:37 AM 36.4°F2.4°C 26.5°F-3.1°C 67% 8.0 mph S12.9 kmh S 15.0 mph24.1 kmh 29.69 in1005.4 mb 0.00 in0.0 mm 0.00 in0.0 mm 0.00 in0.0 mm
09:38 AM 36.4°F2.4°C 26.5°F-3.1°C 67% 5.0 mph S8.0 kmh S 15.0 mph24.1 kmh 29.69 in1005.4 mb 0.00 in0.0 mm 0.00 in0.0 mm 0.00 in0.0 mm
09:39 AM 36.4°F2.4°C 26.5°F-3.1°C 67% 10.0 mph SSE16.1 kmh SSE 15.0 mph24.1 kmh 29.69 in1005.4 mb 0.00 in0.0 mm 0.00 in0.0 mm 0.00 in0.0 mm
09:40 AM 36.5°F2.5°C 26.6°F-3.0°C 67% 7.0 mph S11.3 kmh S 15.0 mph24.1 kmh 29.69 in1005.4 mb 0.00 in0.0 mm 0.00 in0.0 mm 0.00 in0.0 mm
09:41 AM 36.5°F2.5°C 26.6°F-3.0°C 67% 8.0 mph SSE12.9 kmh SSE 15.0 mph24.1 kmh 29.69 in1005.4 mb 0.00 in0.0 mm 0.00 in0.0 mm 0.00 in0.0 mm
09:42 AM 36.6°F2.6°C 26.7°F-2.9°C 67% 12.0 mph S19.3 kmh S 15.0 mph24.1 kmh 29.69 in1005.4 mb 0.00 in0.0 mm 0.00 in0.0 mm 0.00 in0.0 mm
09:43 AM 36.7°F2.6°C 26.8°F-2.9°C 67% 5.0 mph SSE8.0 kmh SSE 15.0 mph24.1 kmh 29.69 in1005.4 mb 0.00 in0.0 mm 0.00 in0.0 mm 0.00 in0.0 mm
09:44 AM 36.7°F2.6°C 26.8°F-2.9°C 67% 5.0 mph SW8.0 kmh SW 15.0 mph24.1 kmh 29.69 in1005.4 mb 0.00 in0.0 mm 0.00 in0.0 mm 0.00 in0.0 mm
09:45 AM 36.8°F2.7°C 26.5°F-3.1°C 66% 7.0 mph S11.3 kmh S 15.0 mph24.1 kmh 29.69 in1005.4 mb 0.00 in0.0 mm 0.00 in0.0 mm 0.00 in0.0 mm
09:46 AM 36.8°F2.7°C 26.5°F-3.1°C 66% 5.0 mph SSE8.0 kmh SSE 15.0 mph24.1 kmh 29.69 in1005.4 mb 0.00 in0.0 mm 0.00 in0.0 mm 0.00 in0.0 mm
09:47 AM 36.9°F2.7°C 27.0°F-2.8°C 67% 14.0 mph S22.5 kmh S 15.0 mph24.1 kmh 29.68 in1005.1 mb 0.00 in0.0 mm 0.00 in0.0 mm 0.00 in0.0 mm
09:48 AM 37.0°F2.8°C 26.7°F-2.9°C 66% 3.0 mph S4.8 kmh S 16.0 mph25.7 kmh 29.69 in1005.4 mb 0.00 in0.0 mm 0.00 in0.0 mm 0.00 in0.0 mm
09:49 AM 37.0°F2.8°C 26.7°F-2.9°C 66% 2.0 mph S3.2 kmh S 16.0 mph25.7 kmh 29.69 in1005.4 mb 0.00 in0.0 mm 0.00 in0.0 mm 0.00 in0.0 mm
09:50 AM 37.0°F2.8°C 26.7°F-2.9°C 66% 3.0 mph S4.8 kmh S 16.0 mph25.7 kmh 29.68 in1005.1 mb 0.00 in0.0 mm 0.00 in0.0 mm 0.00 in0.0 mm
09:51 AM 37.1°F2.8°C 26.8°F-2.9°C 66% 4.0 mph S6.4 kmh S 16.0 mph25.7 kmh 29.68 in1005.1 mb 0.00 in0.0 mm 0.00 in0.0 mm 0.00 in0.0 mm
09:52 AM 37.2°F2.9°C 26.9°F-2.8°C 66% 5.0 mph SW8.0 kmh SW 16.0 mph25.7 kmh 29.68 in1005.1 mb 0.00 in0.0 mm 0.00 in0.0 mm 0.00 in0.0 mm
09:53 AM 37.2°F2.9°C 26.5°F-3.1°C 65% 5.0 mph SSE8.0 kmh SSE 16.0 mph25.7 kmh 29.68 in1005.1 mb 0.00 in0.0 mm 0.00 in0.0 mm 0.00 in0.0 mm
09:54 AM 37.3°F2.9°C 26.6°F-3.0°C 65% 9.0 mph S14.5 kmh S 16.0 mph25.7 kmh 29.69 in1005.4 mb 0.00 in0.0 mm 0.00 in0.0 mm 0.00 in0.0 mm
09:55 AM 37.3°F2.9°C 26.6°F-3.0°C 65% 12.0 mph S19.3 kmh S 16.0 mph25.7 kmh 29.68 in1005.1 mb 0.00 in0.0 mm 0.00 in0.0 mm 0.00 in0.0 mm
09:56 AM 37.3°F2.9°C 26.6°F-3.0°C 65% 10.0 mph S16.1 kmh S 16.0 mph25.7 kmh 29.69 in1005.4 mb 0.00 in0.0 mm 0.00 in0.0 mm 0.00 in0.0 mm
09:57 AM 37.4°F3.0°C 26.7°F-2.9°C 65% 7.0 mph S11.3 kmh S 16.0 mph25.7 kmh 29.68 in1005.1 mb 0.00 in0.0 mm 0.00 in0.0 mm 0.00 in0.0 mm
09:58 AM 37.4°F3.0°C 26.7°F-2.9°C 65% 6.0 mph SSW9.7 kmh SSW 15.0 mph24.1 kmh 29.68 in1005.1 mb 0.00 in0.0 mm 0.00 in0.0 mm 0.00 in0.0 mm
09:59 AM 37.5°F3.1°C 26.8°F-2.9°C 65% 5.0 mph S8.0 kmh S 15.0 mph24.1 kmh 29.68 in1005.1 mb 0.00 in0.0 mm 0.00 in0.0 mm 0.00 in0.0 mm
10:00 AM 37.5°F3.1°C 26.8°F-2.9°C 65% 6.0 mph S9.7 kmh S 15.0 mph24.1 kmh 29.68 in1005.1 mb 0.00 in0.0 mm 0.00 in0.0 mm 0.00 in0.0 mm
10:01 AM 37.6°F3.1°C 26.9°F-2.8°C 65% 12.0 mph S19.3 kmh S 15.0 mph24.1 kmh 29.69 in1005.4 mb 0.00 in0.0 mm 0.00 in0.0 mm 0.00 in0.0 mm
10:02 AM 37.7°F3.2°C 27.0°F-2.8°C 65% 6.0 mph S9.7 kmh S 16.0 mph25.7 kmh 29.69 in1005.4 mb 0.00 in0.0 mm 0.00 in0.0 mm 0.00 in0.0 mm
10:03 AM 37.7°F3.2°C 27.0°F-2.8°C 65% 10.0 mph SE16.1 kmh SE 16.0 mph25.7 kmh 29.68 in1005.1 mb 0.00 in0.0 mm 0.00 in0.0 mm 0.00 in0.0 mm
10:04 AM 37.7°F3.2°C 26.6°F-3.0°C 64% 7.0 mph S11.3 kmh S 16.0 mph25.7 kmh 29.68 in1005.1 mb 0.00 in0.0 mm 0.00 in0.0 mm 0.00 in0.0 mm
10:05 AM 37.8°F3.2°C 26.7°F-2.9°C 64% 9.0 mph SSW14.5 kmh SSW 16.0 mph25.7 kmh 29.68 in1005.1 mb 0.00 in0.0 mm 0.00 in0.0 mm 0.00 in0.0 mm
10:06 AM 37.9°F3.3°C 26.8°F-2.9°C 64% 8.0 mph SSE12.9 kmh SSE 16.0 mph25.7 kmh 29.68 in1005.1 mb 0.00 in0.0 mm 0.00 in0.0 mm 0.00 in0.0 mm
10:07 AM 38.0°F3.3°C 26.9°F-2.8°C 64% 6.0 mph S9.7 kmh S 16.0 mph25.7 kmh 29.68 in1005.1 mb 0.00 in0.0 mm 0.00 in0.0 mm 0.00 in0.0 mm
10:08 AM 38.1°F3.4°C 27.0°F-2.8°C 64% 8.0 mph SE12.9 kmh SE 16.0 mph25.7 kmh 29.68 in1005.1 mb 0.00 in0.0 mm 0.00 in0.0 mm 0.00 in0.0 mm
10:09 AM 38.2°F3.4°C 27.1°F-2.7°C 64% 5.0 mph S8.0 kmh S 16.0 mph25.7 kmh 29.68 in1005.1 mb 0.00 in0.0 mm 0.00 in0.0 mm 0.00 in0.0 mm
10:10 AM 38.2°F3.4°C 27.1°F-2.7°C 64% 10.0 mph SW16.1 kmh SW 16.0 mph25.7 kmh 29.68 in1005.1 mb 0.00 in0.0 mm 0.00 in0.0 mm 0.00 in0.0 mm
10:11 AM 38.3°F3.5°C 27.2°F-2.7°C 64% 7.0 mph S11.3 kmh S 16.0 mph25.7 kmh 29.68 in1005.1 mb 0.00 in0.0 mm 0.00 in0.0 mm 0.00 in0.0 mm
10:12 AM 38.3°F3.5°C 27.2°F-2.7°C 64% 7.0 mph S11.3 kmh S 15.0 mph24.1 kmh 29.68 in1005.1 mb 0.00 in0.0 mm 0.00 in0.0 mm 0.00 in0.0 mm
10:13 AM 38.4°F3.6°C 27.3°F-2.6°C 64% 6.0 mph S9.7 kmh S 15.0 mph24.1 kmh 29.68 in1005.1 mb 0.00 in0.0 mm 0.00 in0.0 mm 0.00 in0.0 mm
10:14 AM 38.5°F3.6°C 27.0°F-2.8°C 63% 12.0 mph S19.3 kmh S 15.0 mph24.1 kmh 29.68 in1005.1 mb 0.00 in0.0 mm 0.00 in0.0 mm 0.00 in0.0 mm
10:15 AM 38.5°F3.6°C 27.0°F-2.8°C 63% 9.0 mph S14.5 kmh S 15.0 mph24.1 kmh 29.68 in1005.1 mb 0.00 in0.0 mm 0.00 in0.0 mm 0.00 in0.0 mm
10:16 AM 38.6°F3.7°C 27.1°F-2.7°C 63% 11.0 mph SE17.7 kmh SE 15.0 mph24.1 kmh 29.68 in1005.1 mb 0.00 in0.0 mm 0.00 in0.0 mm 0.00 in0.0 mm
10:17 AM 38.6°F3.7°C 27.1°F-2.7°C 63% 2.0 mph SSW3.2 kmh SSW 15.0 mph24.1 kmh 29.68 in1005.1 mb 0.00 in0.0 mm 0.00 in0.0 mm 0.00 in0.0 mm
10:18 AM 38.7°F3.7°C 27.2°F-2.7°C 63% 6.0 mph S9.7 kmh S 15.0 mph24.1 kmh 29.68 in1005.1 mb 0.00 in0.0 mm 0.00 in0.0 mm 0.00 in0.0 mm
10:19 AM 38.7°F3.7°C 27.2°F-2.7°C 63% 5.0 mph S8.0 kmh S 15.0 mph24.1 kmh 29.68 in1005.1 mb 0.00 in0.0 mm 0.00 in0.0 mm 0.00 in0.0 mm
10:20 AM 38.8°F3.8°C 27.3°F-2.6°C 63% 5.0 mph S8.0 kmh S 15.0 mph24.1 kmh 29.68 in1005.1 mb 0.00 in0.0 mm 0.00 in0.0 mm 0.00 in0.0 mm
10:21 AM 38.8°F3.8°C 27.3°F-2.6°C 63% 8.0 mph S12.9 kmh S 15.0 mph24.1 kmh 29.68 in1005.1 mb 0.00 in0.0 mm 0.00 in0.0 mm 0.00 in0.0 mm
10:22 AM 38.9°F3.8°C 27.4°F-2.6°C 63% 5.0 mph S8.0 kmh S 15.0 mph24.1 kmh 29.68 in1005.1 mb 0.00 in0.0 mm 0.00 in0.0 mm 0.00 in0.0 mm
10:23 AM 38.9°F3.8°C 27.4°F-2.6°C 63% 7.0 mph SSE11.3 kmh SSE 15.0 mph24.1 kmh 29.68 in1005.1 mb 0.00 in0.0 mm 0.00 in0.0 mm 0.00 in0.0 mm
10:24 AM 39.0°F3.9°C 27.1°F-2.7°C 62% 8.0 mph S12.9 kmh S 15.0 mph24.1 kmh 29.68 in1005.1 mb 0.00 in0.0 mm 0.00 in0.0 mm 0.00 in0.0 mm
10:25 AM 39.1°F3.9°C 27.2°F-2.7°C 62% 8.0 mph SSW12.9 kmh SSW 15.0 mph24.1 kmh 29.68 in1005.1 mb 0.00 in0.0 mm 0.00 in0.0 mm 0.00 in0.0 mm
10:26 AM 39.2°F4.0°C 27.3°F-2.6°C 62% 6.0 mph S9.7 kmh S 15.0 mph24.1 kmh 29.68 in1005.1 mb 0.00 in0.0 mm 0.00 in0.0 mm 0.00 in0.0 mm
10:27 AM 39.2°F4.0°C 27.3°F-2.6°C 62% 6.0 mph S9.7 kmh S 15.0 mph24.1 kmh 29.68 in1005.1 mb 0.00 in0.0 mm 0.00 in0.0 mm 0.00 in0.0 mm
10:28 AM 39.3°F4.1°C 27.7°F-2.4°C 63% 8.0 mph SSE12.9 kmh SSE 15.0 mph24.1 kmh 29.68 in1005.1 mb 0.00 in0.0 mm 0.00 in0.0 mm 0.00 in0.0 mm
10:29 AM 39.3°F4.1°C 27.4°F-2.6°C 62% 14.0 mph S22.5 kmh S 15.0 mph24.1 kmh 29.68 in1005.1 mb 0.00 in0.0 mm 0.00 in0.0 mm 0.00 in0.0 mm
10:30 AM 39.4°F4.1°C 27.5°F-2.5°C 62% 5.0 mph SE8.0 kmh SE 17.0 mph27.4 kmh 29.68 in1005.1 mb 0.00 in0.0 mm 0.00 in0.0 mm 0.00 in0.0 mm
10:31 AM 39.5°F4.2°C 27.2°F-2.7°C 61% 5.0 mph SE8.0 kmh SE 17.0 mph27.4 kmh 29.68 in1005.1 mb 0.00 in0.0 mm 0.00 in0.0 mm 0.00 in0.0 mm
10:32 AM 39.5°F4.2°C 27.2°F-2.7°C 61% 5.0 mph SSW8.0 kmh SSW 17.0 mph27.4 kmh 29.68 in1005.1 mb 0.00 in0.0 mm 0.00 in0.0 mm 0.00 in0.0 mm
10:33 AM 39.5°F4.2°C 27.5°F-2.5°C 62% 7.0 mph SE11.3 kmh SE 17.0 mph27.4 kmh 29.68 in1005.1 mb 0.00 in0.0 mm 0.00 in0.0 mm 0.00 in0.0 mm
10:34 AM 39.5°F4.2°C 27.5°F-2.5°C 62% 8.0 mph SSW12.9 kmh SSW 17.0 mph27.4 kmh 29.68 in1005.1 mb 0.00 in0.0 mm 0.00 in0.0 mm 0.00 in0.0 mm
10:35 AM 39.6°F4.2°C 27.6°F-2.4°C 62% 10.0 mph SSE16.1 kmh SSE 17.0 mph27.4 kmh 29.68 in1005.1 mb 0.00 in0.0 mm 0.00 in0.0 mm 0.00 in0.0 mm
10:36 AM 39.6°F4.2°C 27.6°F-2.4°C 62% 5.0 mph S8.0 kmh S 17.0 mph27.4 kmh 29.68 in1005.1 mb 0.00 in0.0 mm 0.00 in0.0 mm 0.00 in0.0 mm
10:37 AM 39.6°F4.2°C 27.2°F-2.7°C 61% 7.0 mph S11.3 kmh S 17.0 mph27.4 kmh 29.68 in1005.1 mb 0.00 in0.0 mm 0.00 in0.0 mm 0.00 in0.0 mm
10:38 AM 39.6°F4.2°C 27.2°F-2.7°C 61% 9.0 mph S14.5 kmh S 17.0 mph27.4 kmh 29.68 in1005.1 mb 0.00 in0.0 mm 0.00 in0.0 mm 0.00 in0.0 mm
10:39 AM 39.7°F4.3°C 27.3°F-2.6°C 61% 6.0 mph S9.7 kmh S 17.0 mph27.4 kmh 29.68 in1005.1 mb 0.00 in0.0 mm 0.00 in0.0 mm 0.00 in0.0 mm
10:40 AM 39.7°F4.3°C 27.7°F-2.4°C 62% 7.0 mph SSE11.3 kmh SSE 13.0 mph20.9 kmh 29.68 in1005.1 mb 0.00 in0.0 mm 0.00 in0.0 mm 0.00 in0.0 mm
10:41 AM 39.7°F4.3°C 27.7°F-2.4°C 62% 3.0 mph S4.8 kmh S 13.0 mph20.9 kmh 29.68 in1005.1 mb 0.00 in0.0 mm 0.00 in0.0 mm 0.00 in0.0 mm
10:42 AM 39.8°F4.3°C 27.8°F-2.3°C 62% 3.0 mph S4.8 kmh S 13.0 mph20.9 kmh 29.68 in1005.1 mb 0.00 in0.0 mm 0.00 in0.0 mm 0.00 in0.0 mm
10:43 AM 39.9°F4.4°C 27.9°F-2.3°C 62% 8.0 mph S12.9 kmh S 13.0 mph20.9 kmh 29.68 in1005.1 mb 0.00 in0.0 mm 0.00 in0.0 mm 0.00 in0.0 mm
10:44 AM 39.9°F4.4°C 27.9°F-2.3°C 62% 7.0 mph S11.3 kmh S 13.0 mph20.9 kmh 29.68 in1005.1 mb 0.00 in0.0 mm 0.00 in0.0 mm 0.00 in0.0 mm
10:45 AM 40.0°F4.4°C 28.0°F-2.2°C 62% 4.0 mph S6.4 kmh S 13.0 mph20.9 kmh 29.68 in1005.1 mb 0.00 in0.0 mm 0.00 in0.0 mm 0.00 in0.0 mm
10:46 AM 40.1°F4.5°C 28.1°F-2.2°C 62% 5.0 mph S8.0 kmh S 13.0 mph20.9 kmh 29.68 in1005.1 mb 0.00 in0.0 mm 0.00 in0.0 mm 0.00 in0.0 mm
10:47 AM 40.2°F4.6°C 28.2°F-2.1°C 62% 5.0 mph S8.0 kmh S 10.0 mph16.1 kmh 29.68 in1005.1 mb 0.00 in0.0 mm 0.00 in0.0 mm 0.00 in0.0 mm
10:48 AM 40.3°F4.6°C 28.3°F-2.1°C 62% 6.0 mph S9.7 kmh S 10.0 mph16.1 kmh 29.68 in1005.1 mb 0.00 in0.0 mm 0.00 in0.0 mm 0.00 in0.0 mm
10:49 AM 40.4°F4.7°C 28.4°F-2.0°C 62% 3.0 mph S4.8 kmh S 10.0 mph16.1 kmh 29.68 in1005.1 mb 0.00 in0.0 mm 0.00 in0.0 mm 0.00 in0.0 mm
10:50 AM 40.5°F4.7°C 28.9°F-1.7°C 63% 5.0 mph SSE8.0 kmh SSE 10.0 mph16.1 kmh 29.68 in1005.1 mb 0.00 in0.0 mm 0.00 in0.0 mm 0.00 in0.0 mm
10:51 AM 40.6°F4.8°C 29.0°F-1.7°C 63% 6.0 mph S9.7 kmh S 10.0 mph16.1 kmh 29.68 in1005.1 mb 0.00 in0.0 mm 0.00 in0.0 mm 0.00 in0.0 mm
10:52 AM 40.7°F4.8°C 29.1°F-1.6°C 63% 7.0 mph S11.3 kmh S 11.0 mph17.7 kmh 29.68 in1005.1 mb 0.00 in0.0 mm 0.00 in0.0 mm 0.00 in0.0 mm
10:53 AM 40.8°F4.9°C 28.8°F-1.8°C 62% 9.0 mph S14.5 kmh S 11.0 mph17.7 kmh 29.68 in1005.1 mb 0.00 in0.0 mm 0.00 in0.0 mm 0.00 in0.0 mm
10:54 AM 40.9°F4.9°C 28.5°F-1.9°C 61% 5.0 mph S8.0 kmh S 11.0 mph17.7 kmh 29.68 in1005.1 mb 0.00 in0.0 mm 0.00 in0.0 mm 0.00 in0.0 mm
10:55 AM 40.9°F4.9°C 28.5°F-1.9°C 61% 6.0 mph S9.7 kmh S 11.0 mph17.7 kmh 29.68 in1005.1 mb 0.00 in0.0 mm 0.00 in0.0 mm 0.00 in0.0 mm
10:56 AM 41.0°F5.0°C 29.0°F-1.7°C 62% 9.0 mph SSE14.5 kmh SSE 11.0 mph17.7 kmh 29.68 in1005.1 mb 0.00 in0.0 mm 0.00 in0.0 mm 0.00 in0.0 mm
10:57 AM 41.0°F5.0°C 28.2°F-2.1°C 60% 4.0 mph SSE6.4 kmh SSE 11.0 mph17.7 kmh 29.68 in1005.1 mb 0.00 in0.0 mm 0.00 in0.0 mm 0.00 in0.0 mm
10:58 AM 41.0°F5.0°C 28.6°F-1.9°C 61% 5.0 mph S8.0 kmh S 11.0 mph17.7 kmh 29.68 in1005.1 mb 0.00 in0.0 mm 0.00 in0.0 mm 0.00 in0.0 mm
10:59 AM 41.1°F5.1°C 28.7°F-1.8°C 61% 1.0 mph S1.6 kmh S 11.0 mph17.7 kmh 29.68 in1005.1 mb 0.00 in0.0 mm 0.00 in0.0 mm 0.00 in0.0 mm
11:00 AM 41.2°F5.1°C 29.2°F-1.6°C 62% 5.0 mph SE8.0 kmh SE 11.0 mph17.7 kmh 29.68 in1005.1 mb 0.00 in0.0 mm 0.00 in0.0 mm 0.00 in0.0 mm
11:01 AM 41.3°F5.2°C 28.4°F-2.0°C 60% 8.0 mph SE12.9 kmh SE 12.0 mph19.3 kmh 29.68 in1005.1 mb 0.00 in0.0 mm 0.00 in0.0 mm 0.00 in0.0 mm
11:02 AM 41.3°F5.2°C 28.4°F-2.0°C 60% 6.0 mph S9.7 kmh S 12.0 mph19.3 kmh 29.68 in1005.1 mb 0.00 in0.0 mm 0.00 in0.0 mm 0.00 in0.0 mm
11:03 AM 41.4°F5.2°C 28.5°F-1.9°C 60% 8.0 mph SSW12.9 kmh SSW 12.0 mph19.3 kmh 29.68 in1005.1 mb 0.00 in0.0 mm 0.00 in0.0 mm 0.00 in0.0 mm
11:04 AM 41.5°F5.3°C 28.6°F-1.9°C 60% 6.0 mph S9.7 kmh S 12.0 mph19.3 kmh 29.68 in1005.1 mb 0.00 in0.0 mm 0.00 in0.0 mm 0.00 in0.0 mm
11:05 AM 41.6°F5.3°C 28.7°F-1.8°C 60% 5.0 mph SW8.0 kmh SW 13.0 mph20.9 kmh 29.68 in1005.1 mb 0.00 in0.0 mm 0.00 in0.0 mm 0.00 in0.0 mm
11:06 AM 41.6°F5.3°C 28.3°F-2.1°C 59% 13.0 mph S20.9 kmh S 13.0 mph20.9 kmh 29.68 in1005.1 mb 0.00 in0.0 mm 0.00 in0.0 mm 0.00 in0.0 mm
11:07 AM 41.7°F5.4°C 28.4°F-2.0°C 59% 8.0 mph SSE12.9 kmh SSE 13.0 mph20.9 kmh 29.68 in1005.1 mb 0.00 in0.0 mm 0.00 in0.0 mm 0.00 in0.0 mm
11:08 AM 41.8°F5.4°C 28.1°F-2.2°C 58% 4.0 mph SE6.4 kmh SE 15.0 mph24.1 kmh 29.68 in1005.1 mb 0.00 in0.0 mm 0.00 in0.0 mm 0.00 in0.0 mm
11:09 AM 41.9°F5.5°C 28.2°F-2.1°C 58% 7.0 mph SSW11.3 kmh SSW 15.0 mph24.1 kmh 29.68 in1005.1 mb 0.00 in0.0 mm 0.00 in0.0 mm 0.00 in0.0 mm
11:10 AM 41.9°F5.5°C 28.6°F-1.9°C 59% 6.0 mph SSE9.7 kmh SSE 15.0 mph24.1 kmh 29.68 in1005.1 mb 0.00 in0.0 mm 0.00 in0.0 mm 0.00 in0.0 mm
11:11 AM 42.0°F5.6°C 28.7°F-1.8°C 59% 6.0 mph SSW9.7 kmh SSW 15.0 mph24.1 kmh 29.68 in1005.1 mb 0.00 in0.0 mm 0.00 in0.0 mm 0.00 in0.0 mm
11:12 AM 42.1°F5.6°C 28.8°F-1.8°C 59% 10.0 mph S16.1 kmh S 15.0 mph24.1 kmh 29.68 in1005.1 mb 0.00 in0.0 mm 0.00 in0.0 mm 0.00 in0.0 mm
11:13 AM 42.3°F5.7°C 29.0°F-1.7°C 59% 9.0 mph S14.5 kmh S 15.0 mph24.1 kmh 29.67 in1004.7 mb 0.00 in0.0 mm 0.00 in0.0 mm 0.00 in0.0 mm
11:14 AM 42.4°F5.8°C 28.7°F-1.8°C 58% 7.0 mph S11.3 kmh S 15.0 mph24.1 kmh 29.67 in1004.7 mb 0.00 in0.0 mm 0.00 in0.0 mm 0.00 in0.0 mm
11:15 AM 42.4°F5.8°C 28.7°F-1.8°C 58% 5.0 mph SSE8.0 kmh SSE 15.0 mph24.1 kmh 29.67 in1004.7 mb 0.00 in0.0 mm 0.00 in0.0 mm 0.00 in0.0 mm
11:16 AM 42.5°F5.8°C 28.8°F-1.8°C 58% 6.0 mph S9.7 kmh S 15.0 mph24.1 kmh 29.67 in1004.7 mb 0.00 in0.0 mm 0.00 in0.0 mm 0.00 in0.0 mm
11:17 AM 42.7°F5.9°C 29.4°F-1.4°C 59% 10.0 mph S16.1 kmh S 15.0 mph24.1 kmh 29.67 in1004.7 mb 0.00 in0.0 mm 0.00 in0.0 mm 0.00 in0.0 mm
11:18 AM 42.7°F5.9°C 28.9°F-1.7°C 58% 6.0 mph S9.7 kmh S 15.0 mph24.1 kmh 29.67 in1004.7 mb 0.00 in0.0 mm 0.00 in0.0 mm 0.00 in0.0 mm
11:19 AM 42.8°F6.0°C 28.6°F-1.9°C 57% 8.0 mph S12.9 kmh S 15.0 mph24.1 kmh 29.67 in1004.7 mb 0.00 in0.0 mm 0.00 in0.0 mm 0.00 in0.0 mm
11:20 AM 42.9°F6.1°C 29.1°F-1.6°C 58% 6.0 mph S9.7 kmh S 15.0 mph24.1 kmh 29.67 in1004.7 mb 0.00 in0.0 mm 0.00 in0.0 mm 0.00 in0.0 mm
11:21 AM 42.9°F6.1°C 28.7°F-1.8°C 57% 5.0 mph S8.0 kmh S 15.0 mph24.1 kmh 29.67 in1004.7 mb 0.00 in0.0 mm 0.00 in0.0 mm 0.00 in0.0 mm
11:22 AM 43.0°F6.1°C 29.2°F-1.6°C 58% 14.0 mph SE22.5 kmh SE 15.0 mph24.1 kmh 29.67 in1004.7 mb 0.00 in0.0 mm 0.00 in0.0 mm 0.00 in0.0 mm
11:23 AM 43.1°F6.2°C 28.9°F-1.7°C 57% 9.0 mph S14.5 kmh S 15.0 mph24.1 kmh 29.67 in1004.7 mb 0.00 in0.0 mm 0.00 in0.0 mm 0.00 in0.0 mm
11:24 AM 43.1°F6.2°C 28.9°F-1.7°C 57% 10.0 mph S16.1 kmh S 15.0 mph24.1 kmh 29.67 in1004.7 mb 0.00 in0.0 mm 0.00 in0.0 mm 0.00 in0.0 mm
11:25 AM 43.2°F6.2°C 29.0°F-1.7°C 57% 9.0 mph S14.5 kmh S 15.0 mph24.1 kmh 29.67 in1004.7 mb 0.00 in0.0 mm 0.00 in0.0 mm 0.00 in0.0 mm
11:26 AM 43.2°F6.2°C 29.0°F-1.7°C 57% 8.0 mph S12.9 kmh S 15.0 mph24.1 kmh 29.67 in1004.7 mb 0.00 in0.0 mm 0.00 in0.0 mm 0.00 in0.0 mm
11:27 AM 43.3°F6.3°C 29.1°F-1.6°C 57% 9.0 mph SSE14.5 kmh SSE 16.0 mph25.7 kmh 29.67 in1004.7 mb 0.00 in0.0 mm 0.00 in0.0 mm 0.00 in0.0 mm
11:28 AM 43.4°F6.3°C 29.2°F-1.6°C 57% 5.0 mph SE8.0 kmh SE 16.0 mph25.7 kmh 29.67 in1004.7 mb 0.00 in0.0 mm 0.00 in0.0 mm 0.00 in0.0 mm
11:29 AM 43.5°F6.4°C 28.8°F-1.8°C 56% 7.0 mph S11.3 kmh S 16.0 mph25.7 kmh 29.67 in1004.7 mb 0.00 in0.0 mm 0.00 in0.0 mm 0.00 in0.0 mm
11:30 AM 43.5°F6.4°C 29.3°F-1.5°C 57% 10.0 mph S16.1 kmh S 16.0 mph25.7 kmh 29.66 in1004.4 mb 0.00 in0.0 mm 0.00 in0.0 mm 0.00 in0.0 mm
11:31 AM 43.6°F6.4°C 29.4°F-1.4°C 57% 10.0 mph S16.1 kmh S 16.0 mph25.7 kmh 29.66 in1004.4 mb 0.00 in0.0 mm 0.00 in0.0 mm 0.00 in0.0 mm
11:32 AM 43.7°F6.5°C 29.5°F-1.4°C 57% 8.0 mph SSE12.9 kmh SSE 16.0 mph25.7 kmh 29.66 in1004.4 mb 0.00 in0.0 mm 0.00 in0.0 mm 0.00 in0.0 mm
11:33 AM 43.8°F6.6°C 29.5°F-1.4°C 57% 11.0 mph S17.7 kmh S 16.0 mph25.7 kmh 29.66 in1004.4 mb 0.00 in0.0 mm 0.00 in0.0 mm 0.00 in0.0 mm
11:34 AM 44.0°F6.7°C 29.7°F-1.3°C 57% 4.0 mph SSW6.4 kmh SSW 16.0 mph25.7 kmh 29.66 in1004.4 mb 0.00 in0.0 mm 0.00 in0.0 mm 0.00 in0.0 mm
11:35 AM 44.1°F6.7°C 29.8°F-1.2°C 57% 15.0 mph S24.1 kmh S 16.0 mph25.7 kmh 29.66 in1004.4 mb 0.00 in0.0 mm 0.00 in0.0 mm 0.00 in0.0 mm
11:36 AM 44.2°F6.8°C 29.5°F-1.4°C 56% 10.0 mph SSW16.1 kmh SSW 16.0 mph25.7 kmh 29.66 in1004.4 mb 0.00 in0.0 mm 0.00 in0.0 mm 0.00 in0.0 mm
11:37 AM 44.3°F6.8°C 29.1°F-1.6°C 55% 7.0 mph S11.3 kmh S 15.0 mph24.1 kmh 29.66 in1004.4 mb 0.00 in0.0 mm 0.00 in0.0 mm 0.00 in0.0 mm
11:38 AM 44.3°F6.8°C 29.1°F-1.6°C 55% 10.0 mph S16.1 kmh S 15.0 mph24.1 kmh 29.66 in1004.4 mb 0.00 in0.0 mm 0.00 in0.0 mm 0.00 in0.0 mm
11:39 AM 44.4°F6.9°C 29.7°F-1.3°C 56% 9.0 mph S14.5 kmh S 15.0 mph24.1 kmh 29.66 in1004.4 mb 0.00 in0.0 mm 0.00 in0.0 mm 0.00 in0.0 mm
11:40 AM 44.5°F6.9°C 29.3°F-1.5°C 55% 9.0 mph SSE14.5 kmh SSE 16.0 mph25.7 kmh 29.66 in1004.4 mb 0.00 in0.0 mm 0.00 in0.0 mm 0.00 in0.0 mm
11:41 AM 44.5°F6.9°C 29.3°F-1.5°C 55% 5.0 mph S8.0 kmh S 16.0 mph25.7 kmh 29.66 in1004.4 mb 0.00 in0.0 mm 0.00 in0.0 mm 0.00 in0.0 mm
11:42 AM 44.5°F6.9°C 29.3°F-1.5°C 55% 6.0 mph SSE9.7 kmh SSE 16.0 mph25.7 kmh 29.66 in1004.4 mb 0.00 in0.0 mm 0.00 in0.0 mm 0.00 in0.0 mm
11:43 AM 44.6°F7.0°C 29.4°F-1.4°C 55% 5.0 mph S8.0 kmh S 16.0 mph25.7 kmh 29.66 in1004.4 mb 0.00 in0.0 mm 0.00 in0.0 mm 0.00 in0.0 mm
11:44 AM 44.6°F7.0°C 29.4°F-1.4°C 55% 7.0 mph S11.3 kmh S 16.0 mph25.7 kmh 29.66 in1004.4 mb 0.00 in0.0 mm 0.00 in0.0 mm 0.00 in0.0 mm
11:45 AM 44.7°F7.1°C 29.5°F-1.4°C 55% 11.0 mph SSE17.7 kmh SSE 16.0 mph25.7 kmh 29.66 in1004.4 mb 0.00 in0.0 mm 0.00 in0.0 mm 0.00 in0.0 mm
11:46 AM 44.7°F7.1°C 29.5°F-1.4°C 55% 10.0 mph SSE16.1 kmh SSE 16.0 mph25.7 kmh 29.66 in1004.4 mb 0.00 in0.0 mm 0.00 in0.0 mm 0.00 in0.0 mm
11:47 AM 44.7°F7.1°C 29.5°F-1.4°C 55% 9.0 mph S14.5 kmh S 16.0 mph25.7 kmh 29.66 in1004.4 mb 0.00 in0.0 mm 0.00 in0.0 mm 0.00 in0.0 mm
11:48 AM 44.7°F7.1°C 29.5°F-1.4°C 55% 7.0 mph SSE11.3 kmh SSE 16.0 mph25.7 kmh 29.66 in1004.4 mb 0.00 in0.0 mm 0.00 in0.0 mm 0.00 in0.0 mm
11:49 AM 44.7°F7.1°C 29.5°F-1.4°C 55% 11.0 mph S17.7 kmh S 16.0 mph25.7 kmh 29.66 in1004.4 mb 0.00 in0.0 mm 0.00 in0.0 mm 0.00 in0.0 mm
11:50 AM 44.8°F7.1°C 29.6°F-1.3°C 55% 8.0 mph S12.9 kmh S 15.0 mph24.1 kmh 29.66 in1004.4 mb 0.00 in0.0 mm 0.00 in0.0 mm 0.00 in0.0 mm
11:51 AM 44.7°F7.1°C 29.5°F-1.4°C 55% 7.0 mph SSE11.3 kmh SSE 15.0 mph24.1 kmh 29.66 in1004.4 mb 0.00 in0.0 mm 0.00 in0.0 mm 0.00 in0.0 mm
11:52 AM 44.8°F7.1°C 29.6°F-1.3°C 55% 5.0 mph SE8.0 kmh SE 16.0 mph25.7 kmh 29.66 in1004.4 mb 0.00 in0.0 mm 0.00 in0.0 mm 0.00 in0.0 mm
11:53 AM 44.8°F7.1°C 29.6°F-1.3°C 55% 6.0 mph S9.7 kmh S 16.0 mph25.7 kmh 29.66 in1004.4 mb 0.00 in0.0 mm 0.00 in0.0 mm 0.00 in0.0 mm
11:54 AM 44.8°F7.1°C 29.6°F-1.3°C 55% 6.0 mph SE9.7 kmh SE 16.0 mph25.7 kmh 29.66 in1004.4 mb 0.00 in0.0 mm 0.00 in0.0 mm 0.00 in0.0 mm
11:55 AM 44.7°F7.1°C 29.1°F-1.6°C 54% 3.0 mph S4.8 kmh S 16.0 mph25.7 kmh 29.66 in1004.4 mb 0.00 in0.0 mm 0.00 in0.0 mm 0.00 in0.0 mm
11:56 AM 44.7°F7.1°C 29.5°F-1.4°C 55% 8.0 mph S12.9 kmh S 16.0 mph25.7 kmh 29.66 in1004.4 mb 0.00 in0.0 mm 0.00 in0.0 mm 0.00 in0.0 mm
11:57 AM 44.7°F7.1°C 29.5°F-1.4°C 55% 9.0 mph S14.5 kmh S 16.0 mph25.7 kmh 29.65 in1004.1 mb 0.00 in0.0 mm 0.00 in0.0 mm 0.00 in0.0 mm
11:58 AM 44.7°F7.1°C 29.5°F-1.4°C 55% 9.0 mph S14.5 kmh S 16.0 mph25.7 kmh 29.65 in1004.1 mb 0.00 in0.0 mm 0.00 in0.0 mm 0.00 in0.0 mm
11:59 AM 44.7°F7.1°C 29.5°F-1.4°C 55% 4.0 mph SSE6.4 kmh SSE 16.0 mph25.7 kmh 29.65 in1004.1 mb 0.00 in0.0 mm 0.00 in0.0 mm 0.00 in0.0 mm
12:00 PM 44.7°F7.1°C 29.5°F-1.4°C 55% 7.0 mph SSE11.3 kmh SSE 16.0 mph25.7 kmh 29.65 in1004.1 mb 0.00 in0.0 mm 0.00 in0.0 mm 0.00 in0.0 mm
12:01 PM 44.7°F7.1°C 29.5°F-1.4°C 55% 4.0 mph S6.4 kmh S 16.0 mph25.7 kmh 29.65 in1004.1 mb 0.00 in0.0 mm 0.00 in0.0 mm 0.00 in0.0 mm
12:02 PM 44.7°F7.1°C 30.0°F-1.1°C 56% 8.0 mph SSW12.9 kmh SSW 13.0 mph20.9 kmh 29.65 in1004.1 mb 0.00 in0.0 mm 0.00 in0.0 mm 0.00 in0.0 mm
12:03 PM 44.7°F7.1°C 29.5°F-1.4°C 55% 8.0 mph SE12.9 kmh SE 13.0 mph20.9 kmh 29.65 in1004.1 mb 0.00 in0.0 mm 0.00 in0.0 mm 0.00 in0.0 mm
12:04 PM 44.8°F7.1°C 30.0°F-1.1°C 56% 4.0 mph S6.4 kmh S 13.0 mph20.9 kmh 29.65 in1004.1 mb 0.00 in0.0 mm 0.00 in0.0 mm 0.00 in0.0 mm
12:05 PM 44.8°F7.1°C 29.6°F-1.3°C 55% 9.0 mph SE14.5 kmh SE 13.0 mph20.9 kmh 29.65 in1004.1 mb 0.00 in0.0 mm 0.00 in0.0 mm 0.00 in0.0 mm
12:06 PM 44.9°F7.2°C 29.7°F-1.3°C 55% 3.0 mph S4.8 kmh S 13.0 mph20.9 kmh 29.64 in1003.7 mb 0.00 in0.0 mm 0.00 in0.0 mm 0.00 in0.0 mm
12:07 PM 44.9°F7.2°C 29.7°F-1.3°C 55% 5.0 mph SE8.0 kmh SE 13.0 mph20.9 kmh 29.64 in1003.7 mb 0.00 in0.0 mm 0.00 in0.0 mm 0.00 in0.0 mm
12:08 PM 45.0°F7.2°C 29.8°F-1.2°C 55% 3.0 mph S4.8 kmh S 12.0 mph19.3 kmh 29.64 in1003.7 mb 0.00 in0.0 mm 0.00 in0.0 mm 0.00 in0.0 mm
12:09 PM 45.0°F7.2°C 29.8°F-1.2°C 55% 5.0 mph S8.0 kmh S 12.0 mph19.3 kmh 29.64 in1003.7 mb 0.00 in0.0 mm 0.00 in0.0 mm 0.00 in0.0 mm
12:10 PM 45.1°F7.3°C 30.3°F-0.9°C 56% 5.0 mph SSE8.0 kmh SSE 12.0 mph19.3 kmh 29.64 in1003.7 mb 0.00 in0.0 mm 0.00 in0.0 mm 0.00 in0.0 mm
12:11 PM 45.2°F7.3°C 30.0°F-1.1°C 55% 10.0 mph S16.1 kmh S 12.0 mph19.3 kmh 29.64 in1003.7 mb 0.00 in0.0 mm 0.00 in0.0 mm 0.00 in0.0 mm
12:12 PM 45.3°F7.4°C 30.1°F-1.1°C 55% 2.0 mph S3.2 kmh S 12.0 mph19.3 kmh 29.64 in1003.7 mb 0.00 in0.0 mm 0.00 in0.0 mm 0.00 in0.0 mm
12:13 PM 45.4°F7.4°C 30.2°F-1.0°C 55% 8.0 mph S12.9 kmh S 12.0 mph19.3 kmh 29.64 in1003.7 mb 0.00 in0.0 mm 0.00 in0.0 mm 0.00 in0.0 mm
12:14 PM 45.5°F7.5°C 30.3°F-0.9°C 55% 5.0 mph SSE8.0 kmh SSE 12.0 mph19.3 kmh 29.64 in1003.7 mb 0.00 in0.0 mm 0.00 in0.0 mm 0.00 in0.0 mm
12:15 PM 45.6°F7.6°C 29.9°F-1.2°C 54% 2.0 mph S3.2 kmh S 12.0 mph19.3 kmh 29.64 in1003.7 mb 0.00 in0.0 mm 0.00 in0.0 mm 0.00 in0.0 mm
12:16 PM 45.6°F7.6°C 29.9°F-1.2°C 54% 7.0 mph SSE11.3 kmh SSE 12.0 mph19.3 kmh 29.64 in1003.7 mb 0.00 in0.0 mm 0.00 in0.0 mm 0.00 in0.0 mm
12:17 PM 45.7°F7.6°C 30.0°F-1.1°C 54% 6.0 mph SE9.7 kmh SE 12.0 mph19.3 kmh 29.64 in1003.7 mb 0.00 in0.0 mm 0.00 in0.0 mm 0.00 in0.0 mm
12:18 PM 45.7°F7.6°C 30.4°F-0.9°C 55% 5.0 mph S8.0 kmh S 12.0 mph19.3 kmh 29.64 in1003.7 mb 0.00 in0.0 mm 0.00 in0.0 mm 0.00 in0.0 mm
12:19 PM 45.8°F7.7°C 30.1°F-1.1°C 54% 10.0 mph S16.1 kmh S 14.0 mph22.5 kmh 29.63 in1003.4 mb 0.00 in0.0 mm 0.00 in0.0 mm 0.00 in0.0 mm
12:20 PM 45.8°F7.7°C 30.5°F-0.8°C 55% 7.0 mph S11.3 kmh S 14.0 mph22.5 kmh 29.63 in1003.4 mb 0.00 in0.0 mm 0.00 in0.0 mm 0.00 in0.0 mm
12:21 PM 46.0°F7.8°C 30.7°F-0.7°C 55% 9.0 mph SSE14.5 kmh SSE 14.0 mph22.5 kmh 29.63 in1003.4 mb 0.00 in0.0 mm 0.00 in0.0 mm 0.00 in0.0 mm
12:22 PM 46.1°F7.8°C 30.4°F-0.9°C 54% 2.0 mph S3.2 kmh S 14.0 mph22.5 kmh 29.63 in1003.4 mb 0.00 in0.0 mm 0.00 in0.0 mm 0.00 in0.0 mm
12:23 PM 46.1°F7.8°C 30.4°F-0.9°C 54% 2.0 mph S3.2 kmh S 14.0 mph22.5 kmh 29.63 in1003.4 mb 0.00 in0.0 mm 0.00 in0.0 mm 0.00 in0.0 mm
12:24 PM 46.2°F7.9°C 30.5°F-0.8°C 54% 7.0 mph SSE11.3 kmh SSE 14.0 mph22.5 kmh 29.63 in1003.4 mb 0.00 in0.0 mm 0.00 in0.0 mm 0.00 in0.0 mm
12:25 PM 46.4°F8.0°C 31.1°F-0.5°C 55% 7.0 mph S11.3 kmh S 14.0 mph22.5 kmh 29.63 in1003.4 mb 0.00 in0.0 mm 0.00 in0.0 mm 0.00 in0.0 mm
12:26 PM 46.5°F8.1°C 31.2°F-0.4°C 55% 5.0 mph SE8.0 kmh SE 14.0 mph22.5 kmh 29.63 in1003.4 mb 0.00 in0.0 mm 0.00 in0.0 mm 0.00 in0.0 mm
12:27 PM 46.5°F8.1°C 30.3°F-0.9°C 53% 9.0 mph S14.5 kmh S 14.0 mph22.5 kmh 29.63 in1003.4 mb 0.00 in0.0 mm 0.00 in0.0 mm 0.00 in0.0 mm
12:28 PM 46.6°F8.1°C 30.4°F-0.9°C 53% 6.0 mph S9.7 kmh S 14.0 mph22.5 kmh 29.63 in1003.4 mb 0.00 in0.0 mm 0.00 in0.0 mm 0.00 in0.0 mm
12:29 PM 46.7°F8.2°C 30.5°F-0.8°C 53% 10.0 mph S16.1 kmh S 13.0 mph20.9 kmh 29.63 in1003.4 mb 0.00 in0.0 mm 0.00 in0.0 mm 0.00 in0.0 mm
12:30 PM 46.7°F8.2°C 30.5°F-0.8°C 53% 8.0 mph S12.9 kmh S 13.0 mph20.9 kmh 29.63 in1003.4 mb 0.00 in0.0 mm 0.00 in0.0 mm 0.00 in0.0 mm
12:31 PM 46.7°F8.2°C 30.5°F-0.8°C 53% 8.0 mph S12.9 kmh S 13.0 mph20.9 kmh 29.63 in1003.4 mb 0.00 in0.0 mm 0.00 in0.0 mm 0.00 in0.0 mm
12:32 PM 46.8°F8.2°C 30.6°F-0.8°C 53% 6.0 mph S9.7 kmh S 13.0 mph20.9 kmh 29.63 in1003.4 mb 0.00 in0.0 mm 0.00 in0.0 mm 0.00 in0.0 mm
12:33 PM 46.8°F8.2°C 30.1°F-1.1°C 52% 7.0 mph S11.3 kmh S 13.0 mph20.9 kmh 29.62 in1003.0 mb 0.00 in0.0 mm 0.00 in0.0 mm 0.00 in0.0 mm
12:34 PM 46.8°F8.2°C 30.1°F-1.1°C 52% 6.0 mph S9.7 kmh S 13.0 mph20.9 kmh 29.62 in1003.0 mb 0.00 in0.0 mm 0.00 in0.0 mm 0.00 in0.0 mm
12:35 PM 46.8°F8.2°C 30.1°F-1.1°C 52% 7.0 mph S11.3 kmh S 13.0 mph20.9 kmh 29.62 in1003.0 mb 0.00 in0.0 mm 0.00 in0.0 mm 0.00 in0.0 mm
12:36 PM 46.9°F8.3°C 30.2°F-1.0°C 52% 9.0 mph SSW14.5 kmh SSW 13.0 mph20.9 kmh 29.62 in1003.0 mb 0.00 in0.0 mm 0.00 in0.0 mm 0.00 in0.0 mm
12:37 PM 46.9°F8.3°C 30.6°F-0.8°C 53% 7.0 mph S11.3 kmh S 13.0 mph20.9 kmh 29.62 in1003.0 mb 0.00 in0.0 mm 0.00 in0.0 mm 0.00 in0.0 mm
12:38 PM 47.0°F8.3°C 30.7°F-0.7°C 53% 6.0 mph S9.7 kmh S 13.0 mph20.9 kmh 29.62 in1003.0 mb 0.00 in0.0 mm 0.00 in0.0 mm 0.00 in0.0 mm
12:39 PM 47.0°F8.3°C 30.7°F-0.7°C 53% 2.0 mph S3.2 kmh S 12.0 mph19.3 kmh 29.62 in1003.0 mb 0.00 in0.0 mm 0.00 in0.0 mm 0.00 in0.0 mm
12:40 PM 47.1°F8.4°C 30.4°F-0.9°C 52% 8.0 mph S12.9 kmh S 12.0 mph19.3 kmh 29.62 in1003.0 mb 0.00 in0.0 mm 0.00 in0.0 mm 0.00 in0.0 mm
12:41 PM 47.1°F8.4°C 30.4°F-0.9°C 52% 10.0 mph SE16.1 kmh SE 12.0 mph19.3 kmh 29.62 in1003.0 mb 0.00 in0.0 mm 0.00 in0.0 mm 0.00 in0.0 mm
12:42 PM 47.2°F8.4°C 30.5°F-0.8°C 52% 8.0 mph S12.9 kmh S 12.0 mph19.3 kmh 29.62 in1003.0 mb 0.00 in0.0 mm 0.00 in0.0 mm 0.00 in0.0 mm
12:43 PM 47.2°F8.4°C 30.5°F-0.8°C 52% 8.0 mph SSW12.9 kmh SSW 12.0 mph19.3 kmh 29.62 in1003.0 mb 0.00 in0.0 mm 0.00 in0.0 mm 0.00 in0.0 mm
12:44 PM 47.2°F8.4°C 30.5°F-0.8°C 52% 3.0 mph S4.8 kmh S 12.0 mph19.3 kmh 29.68 in1005.1 mb 0.00 in0.0 mm 0.00 in0.0 mm 0.00 in0.0 mm
12:45 PM 47.2°F8.4°C 30.5°F-0.8°C 52% 7.0 mph SSE11.3 kmh SSE 12.0 mph19.3 kmh 29.68 in1005.1 mb 0.00 in0.0 mm 0.00 in0.0 mm 0.00 in0.0 mm
12:46 PM 47.3°F8.5°C 30.5°F-0.8°C 52% 6.0 mph S9.7 kmh S 12.0 mph19.3 kmh 29.68 in1005.1 mb 0.00 in0.0 mm 0.00 in0.0 mm 0.00 in0.0 mm
12:47 PM 47.3°F8.5°C 30.5°F-0.8°C 52% 6.0 mph S9.7 kmh S 12.0 mph19.3 kmh 29.68 in1005.1 mb 0.00 in0.0 mm 0.00 in0.0 mm 0.00 in0.0 mm
12:48 PM 47.4°F8.6°C 30.6°F-0.8°C 52% 8.0 mph S12.9 kmh S 12.0 mph19.3 kmh 29.68 in1005.1 mb 0.00 in0.0 mm 0.00 in0.0 mm 0.00 in0.0 mm
12:49 PM 47.4°F8.6°C 30.6°F-0.8°C 52% 6.0 mph SSW9.7 kmh SSW 12.0 mph19.3 kmh 29.67 in1004.7 mb 0.00 in0.0 mm 0.00 in0.0 mm 0.00 in0.0 mm
12:50 PM 47.5°F8.6°C 30.7°F-0.7°C 52% 5.0 mph S8.0 kmh S 12.0 mph19.3 kmh 29.67 in1004.7 mb 0.00 in0.0 mm 0.00 in0.0 mm 0.00 in0.0 mm
12:51 PM 47.6°F8.7°C 30.8°F-0.7°C 52% 5.0 mph S8.0 kmh S 12.0 mph19.3 kmh 29.67 in1004.7 mb 0.00 in0.0 mm 0.00 in0.0 mm 0.00 in0.0 mm
12:52 PM 47.6°F8.7°C 30.3°F-0.9°C 51% 9.0 mph S14.5 kmh S 12.0 mph19.3 kmh 29.67 in1004.7 mb 0.00 in0.0 mm 0.00 in0.0 mm 0.00 in0.0 mm
12:53 PM 47.6°F8.7°C 30.3°F-0.9°C 51% 4.0 mph S6.4 kmh S 12.0 mph19.3 kmh 29.67 in1004.7 mb 0.00 in0.0 mm 0.00 in0.0 mm 0.00 in0.0 mm
12:54 PM 47.7°F8.7°C 30.9°F-0.6°C 52% 6.0 mph S9.7 kmh S 12.0 mph19.3 kmh 29.67 in1004.7 mb 0.00 in0.0 mm 0.00 in0.0 mm 0.00 in0.0 mm
12:55 PM 47.7°F8.7°C 30.9°F-0.6°C 52% 7.0 mph S11.3 kmh S 12.0 mph19.3 kmh 29.67 in1004.7 mb 0.00 in0.0 mm 0.00 in0.0 mm 0.00 in0.0 mm
12:56 PM 47.7°F8.7°C 30.4°F-0.9°C 51% 7.0 mph S11.3 kmh S 12.0 mph19.3 kmh 29.67 in1004.7 mb 0.00 in0.0 mm 0.00 in0.0 mm 0.00 in0.0 mm
12:57 PM 47.7°F8.7°C 30.4°F-0.9°C 51% 7.0 mph S11.3 kmh S 12.0 mph19.3 kmh 29.67 in1004.7 mb 0.00 in0.0 mm 0.00 in0.0 mm 0.00 in0.0 mm
12:58 PM 47.8°F8.8°C 30.5°F-0.8°C 51% 9.0 mph S14.5 kmh S 14.0 mph22.5 kmh 29.67 in1004.7 mb 0.00 in0.0 mm 0.00 in0.0 mm 0.00 in0.0 mm
12:59 PM 47.8°F8.8°C 30.5°F-0.8°C 51% 6.0 mph SSE9.7 kmh SSE 14.0 mph22.5 kmh 29.67 in1004.7 mb 0.00 in0.0 mm 0.00 in0.0 mm 0.00 in0.0 mm
01:00 PM 47.8°F8.8°C 30.5°F-0.8°C 51% 5.0 mph SSE8.0 kmh SSE 14.0 mph22.5 kmh 29.67 in1004.7 mb 0.00 in0.0 mm 0.00 in0.0 mm 0.00 in0.0 mm
01:01 PM 47.8°F8.8°C 31.5°F-0.3°C 53% 4.0 mph SE6.4 kmh SE 14.0 mph22.5 kmh 29.67 in1004.7 mb 0.00 in0.0 mm 0.00 in0.0 mm 0.00 in0.0 mm
01:02 PM 47.9°F8.8°C 31.6°F-0.2°C 53% 8.0 mph SSE12.9 kmh SSE 14.0 mph22.5 kmh 29.67 in1004.7 mb 0.00 in0.0 mm 0.00 in0.0 mm 0.00 in0.0 mm
01:03 PM 47.9°F8.8°C 31.6°F-0.2°C 53% 9.0 mph S14.5 kmh S 14.0 mph22.5 kmh 29.66 in1004.4 mb 0.00 in0.0 mm 0.00 in0.0 mm 0.00 in0.0 mm
01:04 PM 47.9°F8.8°C 30.6°F-0.8°C 51% 5.0 mph SE8.0 kmh SE 14.0 mph22.5 kmh 29.66 in1004.4 mb 0.00 in0.0 mm 0.00 in0.0 mm 0.00 in0.0 mm
01:05 PM 47.8°F8.8°C 30.5°F-0.8°C 51% 5.0 mph SE8.0 kmh SE 14.0 mph22.5 kmh 29.66 in1004.4 mb 0.00 in0.0 mm 0.00 in0.0 mm 0.00 in0.0 mm
01:06 PM 47.8°F8.8°C 31.0°F-0.6°C 52% 5.0 mph S8.0 kmh S 14.0 mph22.5 kmh 29.66 in1004.4 mb 0.00 in0.0 mm 0.00 in0.0 mm 0.00 in0.0 mm
01:07 PM 47.8°F8.8°C 31.0°F-0.6°C 52% 6.0 mph S9.7 kmh S 14.0 mph22.5 kmh 29.66 in1004.4 mb 0.00 in0.0 mm 0.00 in0.0 mm 0.00 in0.0 mm
01:08 PM 47.8°F8.8°C 31.5°F-0.3°C 53% 6.0 mph S9.7 kmh S 12.0 mph19.3 kmh 29.66 in1004.4 mb 0.00 in0.0 mm 0.00 in0.0 mm 0.00 in0.0 mm
01:09 PM 47.8°F8.8°C 31.5°F-0.3°C 53% 6.0 mph SSE9.7 kmh SSE 12.0 mph19.3 kmh 29.66 in1004.4 mb 0.00 in0.0 mm 0.00 in0.0 mm 0.00 in0.0 mm
01:10 PM 47.8°F8.8°C 31.9°F-0.1°C 54% 9.0 mph S14.5 kmh S 12.0 mph19.3 kmh 29.66 in1004.4 mb 0.00 in0.0 mm 0.00 in0.0 mm 0.00 in0.0 mm
01:11 PM 47.9°F8.8°C 31.6°F-0.2°C 53% 7.0 mph S11.3 kmh S 12.0 mph19.3 kmh 29.66 in1004.4 mb 0.00 in0.0 mm 0.00 in0.0 mm 0.00 in0.0 mm
01:12 PM 47.9°F8.8°C 31.6°F-0.2°C 53% 9.0 mph SE14.5 kmh SE 15.0 mph24.1 kmh 29.66 in1004.4 mb 0.00 in0.0 mm 0.00 in0.0 mm 0.00 in0.0 mm
01:13 PM 47.9°F8.8°C 31.6°F-0.2°C 53% 4.0 mph SE6.4 kmh SE 15.0 mph24.1 kmh 29.66 in1004.4 mb 0.00 in0.0 mm 0.00 in0.0 mm 0.00 in0.0 mm
01:14 PM 47.9°F8.8°C 31.1°F-0.5°C 52% 6.0 mph SE9.7 kmh SE 15.0 mph24.1 kmh 29.65 in1004.1 mb 0.00 in0.0 mm 0.00 in0.0 mm 0.00 in0.0 mm
01:15 PM 47.9°F8.8°C 31.6°F-0.2°C 53% 7.0 mph S11.3 kmh S 15.0 mph24.1 kmh 29.65 in1004.1 mb 0.00 in0.0 mm 0.00 in0.0 mm 0.00 in0.0 mm
01:16 PM 48.0°F8.9°C 31.2°F-0.4°C 52% 2.0 mph SSE3.2 kmh SSE 15.0 mph24.1 kmh 29.65 in1004.1 mb 0.00 in0.0 mm 0.00 in0.0 mm 0.00 in0.0 mm
01:17 PM 48.0°F8.9°C 31.2°F-0.4°C 52% 5.0 mph SSW8.0 kmh SSW 15.0 mph24.1 kmh 29.65 in1004.1 mb 0.00 in0.0 mm 0.00 in0.0 mm 0.00 in0.0 mm
01:18 PM 48.1°F8.9°C 31.3°F-0.4°C 52% 5.0 mph SSE8.0 kmh SSE 15.0 mph24.1 kmh 29.65 in1004.1 mb 0.00 in0.0 mm 0.00 in0.0 mm 0.00 in0.0 mm
01:19 PM 48.1°F8.9°C 31.3°F-0.4°C 52% 3.0 mph S4.8 kmh S 15.0 mph24.1 kmh 29.65 in1004.1 mb 0.00 in0.0 mm 0.00 in0.0 mm 0.00 in0.0 mm
01:20 PM 48.1°F8.9°C 31.3°F-0.4°C 52% 5.0 mph SE8.0 kmh SE 15.0 mph24.1 kmh 29.65 in1004.1 mb 0.00 in0.0 mm 0.00 in0.0 mm 0.00 in0.0 mm
01:21 PM 48.1°F8.9°C 31.3°F-0.4°C 52% 8.0 mph S12.9 kmh S 15.0 mph24.1 kmh 29.65 in1004.1 mb 0.00 in0.0 mm 0.00 in0.0 mm 0.00 in0.0 mm
01:22 PM 48.2°F9.0°C 31.4°F-0.3°C 52% 8.0 mph SE12.9 kmh SE 16.0 mph25.7 kmh 29.65 in1004.1 mb 0.00 in0.0 mm 0.00 in0.0 mm 0.00 in0.0 mm
01:23 PM 48.1°F8.9°C 31.3°F-0.4°C 52% 6.0 mph S9.7 kmh S 16.0 mph25.7 kmh 29.66 in1004.4 mb 0.00 in0.0 mm 0.00 in0.0 mm 0.00 in0.0 mm
01:24 PM 48.1°F8.9°C 31.3°F-0.4°C 52% 9.0 mph S14.5 kmh S 16.0 mph25.7 kmh 29.65 in1004.1 mb 0.00 in0.0 mm 0.00 in0.0 mm 0.00 in0.0 mm
01:25 PM 48.1°F8.9°C 30.8°F-0.7°C 51% 7.0 mph S11.3 kmh S 16.0 mph25.7 kmh 29.65 in1004.1 mb 0.00 in0.0 mm 0.00 in0.0 mm 0.00 in0.0 mm
01:26 PM 48.0°F8.9°C 30.7°F-0.7°C 51% 10.0 mph SSE16.1 kmh SSE 16.0 mph25.7 kmh 29.65 in1004.1 mb 0.00 in0.0 mm 0.00 in0.0 mm 0.00 in0.0 mm
01:27 PM 48.0°F8.9°C 31.2°F-0.4°C 52% 5.0 mph S8.0 kmh S 16.0 mph25.7 kmh 29.65 in1004.1 mb 0.00 in0.0 mm 0.00 in0.0 mm 0.00 in0.0 mm
01:28 PM 47.9°F8.8°C 31.1°F-0.5°C 52% 6.0 mph S9.7 kmh S 16.0 mph25.7 kmh 29.65 in1004.1 mb 0.00 in0.0 mm 0.00 in0.0 mm 0.00 in0.0 mm
01:29 PM 48.0°F8.9°C 31.7°F-0.2°C 53% 5.0 mph S8.0 kmh S 16.0 mph25.7 kmh 29.65 in1004.1 mb 0.00 in0.0 mm 0.00 in0.0 mm 0.00 in0.0 mm
01:30 PM 48.0°F8.9°C 32.1°F0.1°C 54% 8.0 mph SSE12.9 kmh SSE 16.0 mph25.7 kmh 29.65 in1004.1 mb 0.00 in0.0 mm 0.00 in0.0 mm 0.00 in0.0 mm
01:31 PM 48.1°F8.9°C 31.8°F-0.1°C 53% 10.0 mph S16.1 kmh S 16.0 mph25.7 kmh 29.65 in1004.1 mb 0.00 in0.0 mm 0.00 in0.0 mm 0.00 in0.0 mm
01:32 PM 48.1°F8.9°C 31.3°F-0.4°C 52% 6.0 mph S9.7 kmh S 12.0 mph19.3 kmh 29.65 in1004.1 mb 0.00 in0.0 mm 0.00 in0.0 mm 0.00 in0.0 mm
01:33 PM 48.2°F9.0°C 30.9°F-0.6°C 51% 7.0 mph S11.3 kmh S 12.0 mph19.3 kmh 29.65 in1004.1 mb 0.00 in0.0 mm 0.00 in0.0 mm 0.00 in0.0 mm
01:34 PM 48.2°F9.0°C 31.4°F-0.3°C 52% 9.0 mph S14.5 kmh S 12.0 mph19.3 kmh 29.65 in1004.1 mb 0.00 in0.0 mm 0.00 in0.0 mm 0.00 in0.0 mm
01:35 PM 48.3°F9.1°C 31.5°F-0.3°C 52% 6.0 mph SE9.7 kmh SE 12.0 mph19.3 kmh 29.65 in1004.1 mb 0.00 in0.0 mm 0.00 in0.0 mm 0.00 in0.0 mm
01:36 PM 48.3°F9.1°C 31.5°F-0.3°C 52% 7.0 mph S11.3 kmh S 12.0 mph19.3 kmh 29.65 in1004.1 mb 0.00 in0.0 mm 0.00 in0.0 mm 0.00 in0.0 mm
01:37 PM 48.4°F9.1°C 31.6°F-0.2°C 52% 7.0 mph S11.3 kmh S 12.0 mph19.3 kmh 29.65 in1004.1 mb 0.00 in0.0 mm 0.00 in0.0 mm 0.00 in0.0 mm
01:38 PM 48.4°F9.1°C 32.0°F0.0°C 53% 2.0 mph SE3.2 kmh SE 12.0 mph19.3 kmh 29.65 in1004.1 mb 0.00 in0.0 mm 0.00 in0.0 mm 0.00 in0.0 mm
01:39 PM 48.4°F9.1°C 31.6°F-0.2°C 52% 11.0 mph SSE17.7 kmh SSE 15.0 mph24.1 kmh 29.65 in1004.1 mb 0.00 in0.0 mm 0.00 in0.0 mm 0.00 in0.0 mm
01:40 PM 48.5°F9.2°C 31.2°F-0.4°C 51% 3.0 mph SSE4.8 kmh SSE 15.0 mph24.1 kmh 29.65 in1004.1 mb 0.00 in0.0 mm 0.00 in0.0 mm 0.00 in0.0 mm
01:41 PM 48.4°F9.1°C 31.1°F-0.5°C 51% 7.0 mph SW11.3 kmh SW 15.0 mph24.1 kmh 29.65 in1004.1 mb 0.00 in0.0 mm 0.00 in0.0 mm 0.00 in0.0 mm
01:42 PM 48.4°F9.1°C 31.6°F-0.2°C 52% 3.0 mph S4.8 kmh S 15.0 mph24.1 kmh 29.65 in1004.1 mb 0.00 in0.0 mm 0.00 in0.0 mm 0.00 in0.0 mm
01:43 PM 48.4°F9.1°C 32.0°F0.0°C 53% 8.0 mph SE12.9 kmh SE 15.0 mph24.1 kmh 29.65 in1004.1 mb 0.00 in0.0 mm 0.00 in0.0 mm 0.00 in0.0 mm
01:44 PM 48.5°F9.2°C 32.1°F0.1°C 53% 10.0 mph SSE16.1 kmh SSE 15.0 mph24.1 kmh 29.65 in1004.1 mb 0.00 in0.0 mm 0.00 in0.0 mm 0.00 in0.0 mm
01:45 PM 48.5°F9.2°C 31.7°F-0.2°C 52% 6.0 mph SSE9.7 kmh SSE 15.0 mph24.1 kmh 29.64 in1003.7 mb 0.00 in0.0 mm 0.00 in0.0 mm 0.00 in0.0 mm
01:46 PM 48.5°F9.2°C 31.7°F-0.2°C 52% 8.0 mph SSE12.9 kmh SSE 15.0 mph24.1 kmh 29.64 in1003.7 mb 0.00 in0.0 mm 0.00 in0.0 mm 0.00 in0.0 mm
01:47 PM 48.6°F9.2°C 31.8°F-0.1°C 52% 7.0 mph S11.3 kmh S 15.0 mph24.1 kmh 29.64 in1003.7 mb 0.00 in0.0 mm 0.00 in0.0 mm 0.00 in0.0 mm
01:48 PM 48.6°F9.2°C 32.2°F0.1°C 53% 6.0 mph SW9.7 kmh SW 15.0 mph24.1 kmh 29.64 in1003.7 mb 0.00 in0.0 mm 0.00 in0.0 mm 0.00 in0.0 mm
01:49 PM 48.7°F9.3°C 31.4°F-0.3°C 51% 6.0 mph SSW9.7 kmh SSW 14.0 mph22.5 kmh 29.64 in1003.7 mb 0.00 in0.0 mm 0.00 in0.0 mm 0.00 in0.0 mm
01:50 PM 48.7°F9.3°C 31.4°F-0.3°C 51% 5.0 mph S8.0 kmh S 14.0 mph22.5 kmh 29.64 in1003.7 mb 0.00 in0.0 mm 0.00 in0.0 mm 0.00 in0.0 mm
01:51 PM 48.7°F9.3°C 31.4°F-0.3°C 51% 4.0 mph S6.4 kmh S 14.0 mph22.5 kmh 29.64 in1003.7 mb 0.00 in0.0 mm 0.00 in0.0 mm 0.00 in0.0 mm
01:52 PM 48.7°F9.3°C 31.8°F-0.1°C 52% 7.0 mph S11.3 kmh S 14.0 mph22.5 kmh 29.64 in1003.7 mb 0.00 in0.0 mm 0.00 in0.0 mm 0.00 in0.0 mm
01:53 PM 48.7°F9.3°C 31.8°F-0.1°C 52% 11.0 mph SE17.7 kmh SE 14.0 mph22.5 kmh 29.64 in1003.7 mb 0.00 in0.0 mm 0.00 in0.0 mm 0.00 in0.0 mm
01:54 PM 48.7°F9.3°C 31.8°F-0.1°C 52% 11.0 mph SSE17.7 kmh SSE 14.0 mph22.5 kmh 29.64 in1003.7 mb 0.00 in0.0 mm 0.00 in0.0 mm 0.00 in0.0 mm
01:55 PM 48.8°F9.3°C 31.5°F-0.3°C 51% 10.0 mph SE16.1 kmh SE 14.0 mph22.5 kmh 29.64 in1003.7 mb 0.00 in0.0 mm 0.00 in0.0 mm 0.00 in0.0 mm
01:56 PM 48.8°F9.3°C 31.9°F-0.1°C 52% 4.0 mph SSE6.4 kmh SSE 14.0 mph22.5 kmh 29.64 in1003.7 mb 0.00 in0.0 mm 0.00 in0.0 mm 0.00 in0.0 mm
01:57 PM 48.8°F9.3°C 31.9°F-0.1°C 52% 10.0 mph SSE16.1 kmh SSE 14.0 mph22.5 kmh 29.64 in1003.7 mb 0.00 in0.0 mm 0.00 in0.0 mm 0.00 in0.0 mm
01:58 PM 48.8°F9.3°C 31.9°F-0.1°C 52% 6.0 mph S9.7 kmh S 14.0 mph22.5 kmh 29.64 in1003.7 mb 0.00 in0.0 mm 0.00 in0.0 mm 0.00 in0.0 mm
01:59 PM 48.8°F9.3°C 31.9°F-0.1°C 52% 10.0 mph SSW16.1 kmh SSW 15.0 mph24.1 kmh 29.64 in1003.7 mb 0.00 in0.0 mm 0.00 in0.0 mm 0.00 in0.0 mm
02:00 PM 48.9°F9.4°C 32.0°F0.0°C 52% 4.0 mph S6.4 kmh S 15.0 mph24.1 kmh 29.64 in1003.7 mb 0.00 in0.0 mm 0.00 in0.0 mm 0.00 in0.0 mm
02:01 PM 48.9°F9.4°C 32.0°F0.0°C 52% 6.0 mph S9.7 kmh S 15.0 mph24.1 kmh 29.64 in1003.7 mb 0.00 in0.0 mm 0.00 in0.0 mm 0.00 in0.0 mm
02:02 PM 48.9°F9.4°C 32.5°F0.3°C 53% 2.0 mph S3.2 kmh S 15.0 mph24.1 kmh 29.64 in1003.7 mb 0.00 in0.0 mm 0.00 in0.0 mm 0.00 in0.0 mm
02:03 PM 48.9°F9.4°C 32.5°F0.3°C 53% 8.0 mph SSE12.9 kmh SSE 15.0 mph24.1 kmh 29.64 in1003.7 mb 0.00 in0.0 mm 0.00 in0.0 mm 0.00 in0.0 mm
02:04 PM 48.9°F9.4°C 33.0°F0.6°C 54% 6.0 mph S9.7 kmh S 15.0 mph24.1 kmh 29.64 in1003.7 mb 0.00 in0.0 mm 0.00 in0.0 mm 0.00 in0.0 mm
02:05 PM 48.9°F9.4°C 32.5°F0.3°C 53% 14.0 mph SSE22.5 kmh SSE 15.0 mph24.1 kmh 29.64 in1003.7 mb 0.00 in0.0 mm 0.00 in0.0 mm 0.00 in0.0 mm
02:06 PM 48.9°F9.4°C 32.5°F0.3°C 53% 7.0 mph SSW11.3 kmh SSW 15.0 mph24.1 kmh 29.64 in1003.7 mb 0.00 in0.0 mm 0.00 in0.0 mm 0.00 in0.0 mm
02:07 PM 48.8°F9.3°C 31.9°F-0.1°C 52% 7.0 mph S11.3 kmh S 15.0 mph24.1 kmh 29.64 in1003.7 mb 0.00 in0.0 mm 0.00 in0.0 mm 0.00 in0.0 mm
02:08 PM 48.7°F9.3°C 31.8°F-0.1°C 52% 9.0 mph SE14.5 kmh SE 15.0 mph24.1 kmh 29.64 in1003.7 mb 0.00 in0.0 mm 0.00 in0.0 mm 0.00 in0.0 mm
02:09 PM 48.6°F9.2°C 31.3°F-0.4°C 51% 7.0 mph SSE11.3 kmh SSE 14.0 mph22.5 kmh 29.64 in1003.7 mb 0.00 in0.0 mm 0.00 in0.0 mm 0.00 in0.0 mm
02:10 PM 48.6°F9.2°C 31.8°F-0.1°C 52% 10.0 mph SSE16.1 kmh SSE 14.0 mph22.5 kmh 29.64 in1003.7 mb 0.00 in0.0 mm 0.00 in0.0 mm 0.00 in0.0 mm
02:11 PM 48.5°F9.2°C 31.7°F-0.2°C 52% 4.0 mph SSE6.4 kmh SSE 15.0 mph24.1 kmh 29.64 in1003.7 mb 0.00 in0.0 mm 0.00 in0.0 mm 0.00 in0.0 mm
02:12 PM 48.4°F9.1°C 31.6°F-0.2°C 52% 4.0 mph S6.4 kmh S 15.0 mph24.1 kmh 29.64 in1003.7 mb 0.00 in0.0 mm 0.00 in0.0 mm 0.00 in0.0 mm
02:13 PM 48.3°F9.1°C 31.9°F-0.1°C 53% 7.0 mph S11.3 kmh S 15.0 mph24.1 kmh 29.64 in1003.7 mb 0.00 in0.0 mm 0.00 in0.0 mm 0.00 in0.0 mm
02:14 PM 48.3°F9.1°C 31.9°F-0.1°C 53% 10.0 mph S16.1 kmh S 15.0 mph24.1 kmh 29.64 in1003.7 mb 0.00 in0.0 mm 0.00 in0.0 mm 0.00 in0.0 mm
02:15 PM 48.3°F9.1°C 31.9°F-0.1°C 53% 11.0 mph S17.7 kmh S 15.0 mph24.1 kmh 29.64 in1003.7 mb 0.00 in0.0 mm 0.00 in0.0 mm 0.00 in0.0 mm
02:16 PM 48.2°F9.0°C 31.9°F-0.1°C 53% 5.0 mph S8.0 kmh S 15.0 mph24.1 kmh 29.64 in1003.7 mb 0.00 in0.0 mm 0.00 in0.0 mm 0.00 in0.0 mm
02:17 PM 48.2°F9.0°C 31.9°F-0.1°C 53% 7.0 mph S11.3 kmh S 15.0 mph24.1 kmh 29.64 in1003.7 mb 0.00 in0.0 mm 0.00 in0.0 mm 0.00 in0.0 mm
02:18 PM 48.2°F9.0°C 31.9°F-0.1°C 53% 7.0 mph SSE11.3 kmh SSE 15.0 mph24.1 kmh 29.64 in1003.7 mb 0.00 in0.0 mm 0.00 in0.0 mm 0.00 in0.0 mm
02:19 PM 48.1°F8.9°C 31.8°F-0.1°C 53% 8.0 mph SSW12.9 kmh SSW 15.0 mph24.1 kmh 29.64 in1003.7 mb 0.00 in0.0 mm 0.00 in0.0 mm 0.00 in0.0 mm
02:20 PM 48.1°F8.9°C 31.8°F-0.1°C 53% 10.0 mph S16.1 kmh S 15.0 mph24.1 kmh 29.64 in1003.7 mb 0.00 in0.0 mm 0.00 in0.0 mm 0.00 in0.0 mm
02:21 PM 48.2°F9.0°C 31.9°F-0.1°C 53% 8.0 mph SSE12.9 kmh SSE 14.0 mph22.5 kmh 29.64 in1003.7 mb 0.00 in0.0 mm 0.00 in0.0 mm 0.00 in0.0 mm
02:22 PM 48.1°F8.9°C 32.2°F0.1°C 54% 8.0 mph S12.9 kmh S 14.0 mph22.5 kmh 29.64 in1003.7 mb 0.00 in0.0 mm 0.00 in0.0 mm 0.00 in0.0 mm
02:23 PM 48.1°F8.9°C 31.8°F-0.1°C 53% 3.0 mph S4.8 kmh S 14.0 mph22.5 kmh 29.64 in1003.7 mb 0.00 in0.0 mm 0.00 in0.0 mm 0.00 in0.0 mm
02:24 PM 48.1°F8.9°C 31.8°F-0.1°C 53% 7.0 mph ESE11.3 kmh ESE 12.0 mph19.3 kmh 29.64 in1003.7 mb 0.00 in0.0 mm 0.00 in0.0 mm 0.00 in0.0 mm
02:25 PM 48.0°F8.9°C 31.7°F-0.2°C 53% 6.0 mph SE9.7 kmh SE 12.0 mph19.3 kmh 29.64 in1003.7 mb 0.00 in0.0 mm 0.00 in0.0 mm 0.00 in0.0 mm
02:26 PM 47.9°F8.8°C 31.6°F-0.2°C 53% 11.0 mph S17.7 kmh S 12.0 mph19.3 kmh 29.64 in1003.7 mb 0.00 in0.0 mm 0.00 in0.0 mm 0.00 in0.0 mm
02:27 PM 47.9°F8.8°C 31.6°F-0.2°C 53% 6.0 mph SE9.7 kmh SE 12.0 mph19.3 kmh 29.64 in1003.7 mb 0.00 in0.0 mm 0.00 in0.0 mm 0.00 in0.0 mm
02:28 PM 47.9°F8.8°C 31.6°F-0.2°C 53% 7.0 mph SSE11.3 kmh SSE 12.0 mph19.3 kmh 29.64 in1003.7 mb 0.00 in0.0 mm 0.00 in0.0 mm 0.00 in0.0 mm
02:29 PM 47.8°F8.8°C 31.5°F-0.3°C 53% 12.0 mph SSE19.3 kmh SSE 12.0 mph19.3 kmh 29.64 in1003.7 mb 0.00 in0.0 mm 0.00 in0.0 mm 0.00 in0.0 mm
02:30 PM 47.8°F8.8°C 31.9°F-0.1°C 54% 4.0 mph SSW6.4 kmh SSW 12.0 mph19.3 kmh 29.64 in1003.7 mb 0.00 in0.0 mm 0.00 in0.0 mm 0.00 in0.0 mm
02:31 PM 47.7°F8.7°C 31.9°F-0.1°C 54% 6.0 mph SSE9.7 kmh SSE 12.0 mph19.3 kmh 29.64 in1003.7 mb 0.00 in0.0 mm 0.00 in0.0 mm 0.00 in0.0 mm
02:32 PM 47.6°F8.7°C 31.8°F-0.1°C 54% 9.0 mph SSW14.5 kmh SSW 12.0 mph19.3 kmh 29.64 in1003.7 mb 0.00 in0.0 mm 0.00 in0.0 mm 0.00 in0.0 mm
02:33 PM 47.6°F8.7°C 32.2°F0.1°C 55% 10.0 mph SSE16.1 kmh SSE 12.0 mph19.3 kmh 29.64 in1003.7 mb 0.00 in0.0 mm 0.00 in0.0 mm 0.00 in0.0 mm
02:34 PM 47.6°F8.7°C 32.2°F0.1°C 55% 3.0 mph S4.8 kmh S 12.0 mph19.3 kmh 29.64 in1003.7 mb 0.00 in0.0 mm 0.00 in0.0 mm 0.00 in0.0 mm
02:35 PM 47.6°F8.7°C 32.2°F0.1°C 55% 8.0 mph SE12.9 kmh SE 12.0 mph19.3 kmh 29.64 in1003.7 mb 0.00 in0.0 mm 0.00 in0.0 mm 0.00 in0.0 mm
02:36 PM 47.6°F8.7°C 32.2°F0.1°C 55% 6.0 mph SE9.7 kmh SE 12.0 mph19.3 kmh 29.64 in1003.7 mb 0.00 in0.0 mm 0.00 in0.0 mm 0.00 in0.0 mm
02:37 PM 47.6°F8.7°C 32.2°F0.1°C 55% 8.0 mph SE12.9 kmh SE 12.0 mph19.3 kmh 29.64 in1003.7 mb 0.00 in0.0 mm 0.00 in0.0 mm 0.00 in0.0 mm
02:38 PM 47.6°F8.7°C 32.2°F0.1°C 55% 11.0 mph SSE17.7 kmh SSE 12.0 mph19.3 kmh 29.64 in1003.7 mb 0.00 in0.0 mm 0.00 in0.0 mm 0.00 in0.0 mm
02:39 PM 47.6°F8.7°C 32.2°F0.1°C 55% 5.0 mph SE8.0 kmh SE 12.0 mph19.3 kmh 29.64 in1003.7 mb 0.00 in0.0 mm 0.00 in0.0 mm 0.00 in0.0 mm
02:40 PM 47.6°F8.7°C 32.2°F0.1°C 55% 4.0 mph SSE6.4 kmh SSE 12.0 mph19.3 kmh 29.64 in1003.7 mb 0.00 in0.0 mm 0.00 in0.0 mm 0.00 in0.0 mm
02:41 PM 47.6°F8.7°C 32.2°F0.1°C 55% 9.0 mph S14.5 kmh S 12.0 mph19.3 kmh 29.64 in1003.7 mb 0.00 in0.0 mm 0.00 in0.0 mm 0.00 in0.0 mm
02:42 PM 47.6°F8.7°C 32.2°F0.1°C 55% 4.0 mph SSE6.4 kmh SSE 12.0 mph19.3 kmh 29.64 in1003.7 mb 0.00 in0.0 mm 0.00 in0.0 mm 0.00 in0.0 mm
02:43 PM 47.6°F8.7°C 32.2°F0.1°C 55% 10.0 mph SE16.1 kmh SE 16.0 mph25.7 kmh 29.64 in1003.7 mb 0.00 in0.0 mm 0.00 in0.0 mm 0.00 in0.0 mm
02:44 PM 47.6°F8.7°C 32.2°F0.1°C 55% 6.0 mph S9.7 kmh S 16.0 mph25.7 kmh 29.64 in1003.7 mb 0.00 in0.0 mm 0.00 in0.0 mm 0.00 in0.0 mm
02:45 PM 47.7°F8.7°C 32.3°F0.2°C 55% 5.0 mph S8.0 kmh S 16.0 mph25.7 kmh 29.64 in1003.7 mb 0.00 in0.0 mm 0.00 in0.0 mm 0.00 in0.0 mm
02:46 PM 47.7°F8.7°C 32.8°F0.4°C 56% 3.0 mph S4.8 kmh S 16.0 mph25.7 kmh 29.64 in1003.7 mb 0.00 in0.0 mm 0.00 in0.0 mm 0.00 in0.0 mm
02:47 PM 47.7°F8.7°C 32.8°F0.4°C 56% 4.0 mph SSE6.4 kmh SSE 16.0 mph25.7 kmh 29.65 in1004.1 mb 0.00 in0.0 mm 0.00 in0.0 mm 0.00 in0.0 mm
02:48 PM 47.7°F8.7°C 32.8°F0.4°C 56% 6.0 mph S9.7 kmh S 16.0 mph25.7 kmh 29.64 in1003.7 mb 0.00 in0.0 mm 0.00 in0.0 mm 0.00 in0.0 mm
02:49 PM 47.7°F8.7°C 32.3°F0.2°C 55% 2.0 mph S3.2 kmh S 16.0 mph25.7 kmh 29.64 in1003.7 mb 0.00 in0.0 mm 0.00 in0.0 mm 0.00 in0.0 mm
02:50 PM 47.7°F8.7°C 32.8°F0.4°C 56% 8.0 mph SE12.9 kmh SE 16.0 mph25.7 kmh 29.65 in1004.1 mb 0.00 in0.0 mm 0.00 in0.0 mm 0.00 in0.0 mm
02:51 PM 47.8°F8.8°C 32.9°F0.5°C 56% 6.0 mph S9.7 kmh S 16.0 mph25.7 kmh 29.64 in1003.7 mb 0.00 in0.0 mm 0.00 in0.0 mm 0.00 in0.0 mm
02:52 PM 47.8°F8.8°C 32.4°F0.2°C 55% 8.0 mph SSE12.9 kmh SSE 16.0 mph25.7 kmh 29.64 in1003.7 mb 0.00 in0.0 mm 0.00 in0.0 mm 0.00 in0.0 mm
02:53 PM 47.8°F8.8°C 32.4°F0.2°C 55% 6.0 mph SSE9.7 kmh SSE 13.0 mph20.9 kmh 29.65 in1004.1 mb 0.00 in0.0 mm 0.00 in0.0 mm 0.00 in0.0 mm
02:54 PM 47.8°F8.8°C 32.4°F0.2°C 55% 8.0 mph S12.9 kmh S 15.0 mph24.1 kmh 29.65 in1004.1 mb 0.00 in0.0 mm 0.00 in0.0 mm 0.00 in0.0 mm
02:55 PM 47.8°F8.8°C 32.9°F0.5°C 56% 7.0 mph SSE11.3 kmh SSE 15.0 mph24.1 kmh 29.65 in1004.1 mb 0.00 in0.0 mm 0.00 in0.0 mm 0.00 in0.0 mm
02:56 PM 47.8°F8.8°C 32.9°F0.5°C 56% 5.0 mph S8.0 kmh S 15.0 mph24.1 kmh 29.65 in1004.1 mb 0.00 in0.0 mm 0.00 in0.0 mm 0.00 in0.0 mm
02:57 PM 47.8°F8.8°C 33.3°F0.7°C 57% 4.0 mph S6.4 kmh S 15.0 mph24.1 kmh 29.65 in1004.1 mb 0.00 in0.0 mm 0.00 in0.0 mm 0.00 in0.0 mm
02:58 PM 47.8°F8.8°C 33.3°F0.7°C 57% 6.0 mph S9.7 kmh S 15.0 mph24.1 kmh 29.65 in1004.1 mb 0.00 in0.0 mm 0.00 in0.0 mm 0.00 in0.0 mm
02:59 PM 47.7°F8.7°C 32.8°F0.4°C 56% 7.0 mph SSE11.3 kmh SSE 15.0 mph24.1 kmh 29.65 in1004.1 mb 0.00 in0.0 mm 0.00 in0.0 mm 0.00 in0.0 mm
03:00 PM 47.7°F8.7°C 32.8°F0.4°C 56% 9.0 mph S14.5 kmh S 15.0 mph24.1 kmh 29.65 in1004.1 mb 0.00 in0.0 mm 0.00 in0.0 mm 0.00 in0.0 mm
03:01 PM 47.7°F8.7°C 32.8°F0.4°C 56% 10.0 mph S16.1 kmh S 15.0 mph24.1 kmh 29.65 in1004.1 mb 0.00 in0.0 mm 0.00 in0.0 mm 0.00 in0.0 mm
03:02 PM 47.7°F8.7°C 32.8°F0.4°C 56% 6.0 mph S9.7 kmh S 15.0 mph24.1 kmh 29.65 in1004.1 mb 0.00 in0.0 mm 0.00 in0.0 mm 0.00 in0.0 mm
03:03 PM 47.7°F8.7°C 32.8°F0.4°C 56% 4.0 mph S6.4 kmh S 15.0 mph24.1 kmh 29.65 in1004.1 mb 0.00 in0.0 mm 0.00 in0.0 mm 0.00 in0.0 mm
03:04 PM 47.7°F8.7°C 32.3°F0.2°C 55% 7.0 mph SSE11.3 kmh SSE 12.0 mph19.3 kmh 29.65 in1004.1 mb 0.00 in0.0 mm 0.00 in0.0 mm 0.00 in0.0 mm
03:05 PM 47.7°F8.7°C 32.3°F0.2°C 55% 7.0 mph SSW11.3 kmh SSW 13.0 mph20.9 kmh 29.65 in1004.1 mb 0.00 in0.0 mm 0.00 in0.0 mm 0.00 in0.0 mm
03:06 PM 47.6°F8.7°C 32.2°F0.1°C 55% 9.0 mph SE14.5 kmh SE 13.0 mph20.9 kmh 29.65 in1004.1 mb 0.00 in0.0 mm 0.00 in0.0 mm 0.00 in0.0 mm
03:07 PM 47.6°F8.7°C 32.2°F0.1°C 55% 7.0 mph S11.3 kmh S 13.0 mph20.9 kmh 29.66 in1004.4 mb 0.00 in0.0 mm 0.00 in0.0 mm 0.00 in0.0 mm
03:08 PM 47.5°F8.6°C 32.1°F0.1°C 55% 4.0 mph SSE6.4 kmh SSE 13.0 mph20.9 kmh 29.66 in1004.4 mb 0.00 in0.0 mm 0.00 in0.0 mm 0.00 in0.0 mm
03:09 PM 47.5°F8.6°C 32.1°F0.1°C 55% 5.0 mph SSE8.0 kmh SSE 13.0 mph20.9 kmh 29.65 in1004.1 mb 0.00 in0.0 mm 0.00 in0.0 mm 0.00 in0.0 mm
03:10 PM 47.5°F8.6°C 32.1°F0.1°C 55% 6.0 mph S9.7 kmh S 13.0 mph20.9 kmh 29.65 in1004.1 mb 0.00 in0.0 mm 0.00 in0.0 mm 0.00 in0.0 mm
03:11 PM 47.4°F8.6°C 32.0°F0.0°C 55% 7.0 mph SSE11.3 kmh SSE 13.0 mph20.9 kmh 29.65 in1004.1 mb 0.00 in0.0 mm 0.00 in0.0 mm 0.00 in0.0 mm
03:12 PM 47.4°F8.6°C 32.5°F0.3°C 56% 8.0 mph S12.9 kmh S 13.0 mph20.9 kmh 29.65 in1004.1 mb 0.00 in0.0 mm 0.00 in0.0 mm 0.00 in0.0 mm
03:13 PM 47.3°F8.5°C 31.9°F-0.1°C 55% 10.0 mph SE16.1 kmh SE 14.0 mph22.5 kmh 29.66 in1004.4 mb 0.00 in0.0 mm 0.00 in0.0 mm 0.00 in0.0 mm
03:14 PM 47.3°F8.5°C 31.9°F-0.1°C 55% 6.0 mph S9.7 kmh S 14.0 mph22.5 kmh 29.65 in1004.1 mb 0.00 in0.0 mm 0.00 in0.0 mm 0.00 in0.0 mm
03:15 PM 47.3°F8.5°C 31.9°F-0.1°C 55% 5.0 mph SSE8.0 kmh SSE 14.0 mph22.5 kmh 29.65 in1004.1 mb 0.00 in0.0 mm 0.00 in0.0 mm 0.00 in0.0 mm
03:16 PM 47.3°F8.5°C 31.9°F-0.1°C 55% 10.0 mph S16.1 kmh S 14.0 mph22.5 kmh 29.65 in1004.1 mb 0.00 in0.0 mm 0.00 in0.0 mm 0.00 in0.0 mm
03:17 PM 47.2°F8.4°C 31.8°F-0.1°C 55% 4.0 mph SSE6.4 kmh SSE 14.0 mph22.5 kmh 29.66 in1004.4 mb 0.00 in0.0 mm 0.00 in0.0 mm 0.00 in0.0 mm
03:18 PM 47.2°F8.4°C 31.8°F-0.1°C 55% 6.0 mph S9.7 kmh S 14.0 mph22.5 kmh 29.65 in1004.1 mb 0.00 in0.0 mm 0.00 in0.0 mm 0.00 in0.0 mm
03:19 PM 47.2°F8.4°C 31.8°F-0.1°C 55% 6.0 mph S9.7 kmh S 14.0 mph22.5 kmh 29.66 in1004.4 mb 0.00 in0.0 mm 0.00 in0.0 mm 0.00 in0.0 mm
03:20 PM 47.2°F8.4°C 31.8°F-0.1°C 55% 5.0 mph SSE8.0 kmh SSE 14.0 mph22.5 kmh 29.66 in1004.4 mb 0.00 in0.0 mm 0.00 in0.0 mm 0.00 in0.0 mm
03:21 PM 47.1°F8.4°C 32.2°F0.1°C 56% 4.0 mph S6.4 kmh S 14.0 mph22.5 kmh 29.65 in1004.1 mb 0.00 in0.0 mm 0.00 in0.0 mm 0.00 in0.0 mm
03:22 PM 47.1°F8.4°C 31.7°F-0.2°C 55% 8.0 mph S12.9 kmh S 14.0 mph22.5 kmh 29.66 in1004.4 mb 0.00 in0.0 mm 0.00 in0.0 mm 0.00 in0.0 mm
03:23 PM 47.0°F8.3°C 31.7°F-0.2°C 55% 3.0 mph SSE4.8 kmh SSE 13.0 mph20.9 kmh 29.66 in1004.4 mb 0.00 in0.0 mm 0.00 in0.0 mm 0.00 in0.0 mm
03:24 PM 47.0°F8.3°C 31.7°F-0.2°C 55% 7.0 mph S11.3 kmh S 15.0 mph24.1 kmh 29.66 in1004.4 mb 0.00 in0.0 mm 0.00 in0.0 mm 0.00 in0.0 mm
03:25 PM 46.9°F8.3°C 31.6°F-0.2°C 55% 3.0 mph S4.8 kmh S 15.0 mph24.1 kmh 29.65 in1004.1 mb 0.00 in0.0 mm 0.00 in0.0 mm 0.00 in0.0 mm
03:26 PM 46.9°F8.3°C 31.6°F-0.2°C 55% 5.0 mph SSE8.0 kmh SSE 15.0 mph24.1 kmh 29.66 in1004.4 mb 0.00 in0.0 mm 0.00 in0.0 mm 0.00 in0.0 mm
03:27 PM 46.8°F8.2°C 31.5°F-0.3°C 55% 6.0 mph S9.7 kmh S 15.0 mph24.1 kmh 29.66 in1004.4 mb 0.00 in0.0 mm 0.00 in0.0 mm 0.00 in0.0 mm
03:28 PM 46.8°F8.2°C 31.5°F-0.3°C 55% 4.0 mph S6.4 kmh S 15.0 mph24.1 kmh 29.65 in1004.1 mb 0.00 in0.0 mm 0.00 in0.0 mm 0.00 in0.0 mm
03:29 PM 46.7°F8.2°C 31.4°F-0.3°C 55% 6.0 mph S9.7 kmh S 15.0 mph24.1 kmh 29.65 in1004.1 mb 0.00 in0.0 mm 0.00 in0.0 mm 0.00 in0.0 mm
03:30 PM 46.7°F8.2°C 31.4°F-0.3°C 55% 9.0 mph SSE14.5 kmh SSE 15.0 mph24.1 kmh 29.65 in1004.1 mb 0.00 in0.0 mm 0.00 in0.0 mm 0.00 in0.0 mm
03:31 PM 46.6°F8.1°C 31.3°F-0.4°C 55% 6.0 mph S9.7 kmh S 15.0 mph24.1 kmh 29.65 in1004.1 mb 0.00 in0.0 mm 0.00 in0.0 mm 0.00 in0.0 mm
03:32 PM 46.5°F8.1°C 31.2°F-0.4°C 55% 4.0 mph SE6.4 kmh SE 15.0 mph24.1 kmh 29.65 in1004.1 mb 0.00 in0.0 mm 0.00 in0.0 mm 0.00 in0.0 mm
03:33 PM 46.5°F8.1°C 31.2°F-0.4°C 55% 5.0 mph S8.0 kmh S 15.0 mph24.1 kmh 29.65 in1004.1 mb 0.00 in0.0 mm 0.00 in0.0 mm 0.00 in0.0 mm
03:34 PM 46.4°F8.0°C 31.1°F-0.5°C 55% 2.0 mph S3.2 kmh S 12.0 mph19.3 kmh 29.65 in1004.1 mb 0.00 in0.0 mm 0.00 in0.0 mm 0.00 in0.0 mm
03:35 PM 46.4°F8.0°C 31.5°F-0.3°C 56% 6.0 mph S9.7 kmh S 12.0 mph19.3 kmh 29.65 in1004.1 mb 0.00 in0.0 mm 0.00 in0.0 mm 0.00 in0.0 mm
03:36 PM 46.3°F7.9°C 31.4°F-0.3°C 56% 2.0 mph S3.2 kmh S 12.0 mph19.3 kmh 29.65 in1004.1 mb 0.00 in0.0 mm 0.00 in0.0 mm 0.00 in0.0 mm
03:37 PM 46.3°F7.9°C 31.4°F-0.3°C 56% 5.0 mph SE8.0 kmh SE 12.0 mph19.3 kmh 29.65 in1004.1 mb 0.00 in0.0 mm 0.00 in0.0 mm 0.00 in0.0 mm
03:38 PM 46.2°F7.9°C 31.4°F-0.3°C 56% 7.0 mph SSW11.3 kmh SSW 14.0 mph22.5 kmh 29.65 in1004.1 mb 0.00 in0.0 mm 0.00 in0.0 mm 0.00 in0.0 mm
03:39 PM 46.2°F7.9°C 31.4°F-0.3°C 56% 4.0 mph S6.4 kmh S 14.0 mph22.5 kmh 29.65 in1004.1 mb 0.00 in0.0 mm 0.00 in0.0 mm 0.00 in0.0 mm
03:40 PM 46.1°F7.8°C 31.3°F-0.4°C 56% 6.0 mph S9.7 kmh S 14.0 mph22.5 kmh 29.65 in1004.1 mb 0.00 in0.0 mm 0.00 in0.0 mm 0.00 in0.0 mm
03:41 PM 46.1°F7.8°C 31.3°F-0.4°C 56% 8.0 mph S12.9 kmh S 14.0 mph22.5 kmh 29.65 in1004.1 mb 0.00 in0.0 mm 0.00 in0.0 mm 0.00 in0.0 mm
03:42 PM 46.1°F7.8°C 31.3°F-0.4°C 56% 6.0 mph SE9.7 kmh SE 14.0 mph22.5 kmh 29.65 in1004.1 mb 0.00 in0.0 mm 0.00 in0.0 mm 0.00 in0.0 mm
03:43 PM 46.0°F7.8°C 31.2°F-0.4°C 56% 9.0 mph SE14.5 kmh SE 14.0 mph22.5 kmh 29.65 in1004.1 mb 0.00 in0.0 mm 0.00 in0.0 mm 0.00 in0.0 mm
03:44 PM 46.0°F7.8°C 31.2°F-0.4°C 56% 6.0 mph S9.7 kmh S 14.0 mph22.5 kmh 29.65 in1004.1 mb 0.00 in0.0 mm 0.00 in0.0 mm 0.00 in0.0 mm
03:45 PM 46.0°F7.8°C 31.2°F-0.4°C 56% 13.0 mph S20.9 kmh S 14.0 mph22.5 kmh 29.65 in1004.1 mb 0.00 in0.0 mm 0.00 in0.0 mm 0.00 in0.0 mm
03:46 PM 45.9°F7.7°C 31.1°F-0.5°C 56% 5.0 mph S8.0 kmh S 14.0 mph22.5 kmh 29.65 in1004.1 mb 0.00 in0.0 mm 0.00 in0.0 mm 0.00 in0.0 mm
03:47 PM 45.9°F7.7°C 31.1°F-0.5°C 56% 5.0 mph S8.0 kmh S 14.0 mph22.5 kmh 29.65 in1004.1 mb 0.00 in0.0 mm 0.00 in0.0 mm 0.00 in0.0 mm
03:48 PM 45.8°F7.7°C 31.0°F-0.6°C 56% 8.0 mph SSE12.9 kmh SSE 16.0 mph25.7 kmh 29.65 in1004.1 mb 0.00 in0.0 mm 0.00 in0.0 mm 0.00 in0.0 mm
03:49 PM 45.8°F7.7°C 31.0°F-0.6°C 56% 4.0 mph S6.4 kmh S 16.0 mph25.7 kmh 29.65 in1004.1 mb 0.00 in0.0 mm 0.00 in0.0 mm 0.00 in0.0 mm
03:50 PM 45.8°F7.7°C 31.4°F-0.3°C 57% 5.0 mph S8.0 kmh S 16.0 mph25.7 kmh 29.65 in1004.1 mb 0.00 in0.0 mm 0.00 in0.0 mm 0.00 in0.0 mm
03:51 PM 45.8°F7.7°C 31.4°F-0.3°C 57% 5.0 mph SE8.0 kmh SE 16.0 mph25.7 kmh 29.66 in1004.4 mb 0.00 in0.0 mm 0.00 in0.0 mm 0.00 in0.0 mm
03:52 PM 45.8°F7.7°C 31.4°F-0.3°C 57% 6.0 mph S9.7 kmh S 16.0 mph25.7 kmh 29.65 in1004.1 mb 0.00 in0.0 mm 0.00 in0.0 mm 0.00 in0.0 mm
03:53 PM 45.7°F7.6°C 31.3°F-0.4°C 57% 3.0 mph SSE4.8 kmh SSE 16.0 mph25.7 kmh 29.65 in1004.1 mb 0.00 in0.0 mm 0.00 in0.0 mm 0.00 in0.0 mm
03:54 PM 45.7°F7.6°C 31.3°F-0.4°C 57% 6.0 mph SSE9.7 kmh SSE 16.0 mph25.7 kmh 29.65 in1004.1 mb 0.00 in0.0 mm 0.00 in0.0 mm 0.00 in0.0 mm
03:55 PM 45.6°F7.6°C 31.2°F-0.4°C 57% 15.0 mph S24.1 kmh S 16.0 mph25.7 kmh 29.65 in1004.1 mb 0.00 in0.0 mm 0.00 in0.0 mm 0.00 in0.0 mm
03:56 PM 45.6°F7.6°C 31.2°F-0.4°C 57% 6.0 mph S9.7 kmh S 16.0 mph25.7 kmh 29.65 in1004.1 mb 0.00 in0.0 mm 0.00 in0.0 mm 0.00 in0.0 mm
03:57 PM 45.5°F7.5°C 31.1°F-0.5°C 57% 6.0 mph S9.7 kmh S 16.0 mph25.7 kmh 29.65 in1004.1 mb 0.00 in0.0 mm 0.00 in0.0 mm 0.00 in0.0 mm
03:58 PM 45.5°F7.5°C 31.1°F-0.5°C 57% 2.0 mph SSE3.2 kmh SSE 15.0 mph24.1 kmh 29.65 in1004.1 mb 0.00 in0.0 mm 0.00 in0.0 mm 0.00 in0.0 mm
03:59 PM 45.5°F7.5°C 31.1°F-0.5°C 57% 5.0 mph SW8.0 kmh SW 15.0 mph24.1 kmh 29.66 in1004.4 mb 0.00 in0.0 mm 0.00 in0.0 mm 0.00 in0.0 mm
04:00 PM 45.4°F7.4°C 31.0°F-0.6°C 57% 5.0 mph SSE8.0 kmh SSE 15.0 mph24.1 kmh 29.65 in1004.1 mb 0.00 in0.0 mm 0.00 in0.0 mm 0.00 in0.0 mm
04:01 PM 45.4°F7.4°C 31.0°F-0.6°C 57% 6.0 mph S9.7 kmh S 15.0 mph24.1 kmh 29.66 in1004.4 mb 0.00 in0.0 mm 0.00 in0.0 mm 0.00 in0.0 mm
04:02 PM 45.3°F7.4°C 31.0°F-0.6°C 57% 8.0 mph SSW12.9 kmh SSW 15.0 mph24.1 kmh 29.65 in1004.1 mb 0.00 in0.0 mm 0.00 in0.0 mm 0.00 in0.0 mm
04:03 PM 45.2°F7.3°C 30.9°F-0.6°C 57% 11.0 mph S17.7 kmh S 16.0 mph25.7 kmh 29.65 in1004.1 mb 0.00 in0.0 mm 0.00 in0.0 mm 0.00 in0.0 mm
04:04 PM 45.2°F7.3°C 31.3°F-0.4°C 58% 5.0 mph S8.0 kmh S 16.0 mph25.7 kmh 29.65 in1004.1 mb 0.00 in0.0 mm 0.00 in0.0 mm 0.00 in0.0 mm
04:05 PM 45.1°F7.3°C 31.2°F-0.4°C 58% 5.0 mph SSE8.0 kmh SSE 16.0 mph25.7 kmh 29.66 in1004.4 mb 0.00 in0.0 mm 0.00 in0.0 mm 0.00 in0.0 mm
04:06 PM 45.1°F7.3°C 30.8°F-0.7°C 57% 6.0 mph S9.7 kmh S 16.0 mph25.7 kmh 29.66 in1004.4 mb 0.00 in0.0 mm 0.00 in0.0 mm 0.00 in0.0 mm
04:07 PM 45.1°F7.3°C 31.2°F-0.4°C 58% 5.0 mph SE8.0 kmh SE 16.0 mph25.7 kmh 29.65 in1004.1 mb 0.00 in0.0 mm 0.00 in0.0 mm 0.00 in0.0 mm
04:08 PM 45.0°F7.2°C 31.1°F-0.5°C 58% 8.0 mph S12.9 kmh S 16.0 mph25.7 kmh 29.65 in1004.1 mb 0.00 in0.0 mm 0.00 in0.0 mm 0.00 in0.0 mm
04:09 PM 44.9°F7.2°C 31.0°F-0.6°C 58% 6.0 mph S9.7 kmh S 16.0 mph25.7 kmh 29.65 in1004.1 mb 0.00 in0.0 mm 0.00 in0.0 mm 0.00 in0.0 mm
04:10 PM 44.9°F7.2°C 31.0°F-0.6°C 58% 11.0 mph S17.7 kmh S 16.0 mph25.7 kmh 29.65 in1004.1 mb 0.00 in0.0 mm 0.00 in0.0 mm 0.00 in0.0 mm
04:11 PM 44.9°F7.2°C 31.0°F-0.6°C 58% 6.0 mph SE9.7 kmh SE 16.0 mph25.7 kmh 29.65 in1004.1 mb 0.00 in0.0 mm 0.00 in0.0 mm 0.00 in0.0 mm
04:12 PM 44.8°F7.1°C 31.3°F-0.4°C 59% 6.0 mph S9.7 kmh S 16.0 mph25.7 kmh 29.65 in1004.1 mb 0.00 in0.0 mm 0.00 in0.0 mm 0.00 in0.0 mm
04:13 PM 44.8°F7.1°C 31.3°F-0.4°C 59% 4.0 mph SSE6.4 kmh SSE 15.0 mph24.1 kmh 29.65 in1004.1 mb 0.00 in0.0 mm 0.00 in0.0 mm 0.00 in0.0 mm
04:14 PM 44.7°F7.1°C 31.2°F-0.4°C 59% 8.0 mph S12.9 kmh S 15.0 mph24.1 kmh 29.65 in1004.1 mb 0.00 in0.0 mm 0.00 in0.0 mm 0.00 in0.0 mm
04:15 PM 44.7°F7.1°C 31.2°F-0.4°C 59% 7.0 mph SSE11.3 kmh SSE 15.0 mph24.1 kmh 29.65 in1004.1 mb 0.00 in0.0 mm 0.00 in0.0 mm 0.00 in0.0 mm
04:16 PM 44.6°F7.0°C 31.1°F-0.5°C 59% 7.0 mph S11.3 kmh S 15.0 mph24.1 kmh 29.65 in1004.1 mb 0.00 in0.0 mm 0.00 in0.0 mm 0.00 in0.0 mm
04:17 PM 44.6°F7.0°C 31.1°F-0.5°C 59% 6.0 mph SSE9.7 kmh SSE 15.0 mph24.1 kmh 29.65 in1004.1 mb 0.00 in0.0 mm 0.00 in0.0 mm 0.00 in0.0 mm
04:18 PM 44.6°F7.0°C 31.6°F-0.2°C 60% 7.0 mph S11.3 kmh S 15.0 mph24.1 kmh 29.65 in1004.1 mb 0.00 in0.0 mm 0.00 in0.0 mm 0.00 in0.0 mm
04:19 PM 44.5°F6.9°C 31.5°F-0.3°C 60% 4.0 mph S6.4 kmh S 15.0 mph24.1 kmh 29.65 in1004.1 mb 0.00 in0.0 mm 0.00 in0.0 mm 0.00 in0.0 mm
04:20 PM 44.5°F6.9°C 31.5°F-0.3°C 60% 4.0 mph SSE6.4 kmh SSE 15.0 mph24.1 kmh 29.65 in1004.1 mb 0.00 in0.0 mm 0.00 in0.0 mm 0.00 in0.0 mm
04:21 PM 44.4°F6.9°C 31.4°F-0.3°C 60% 3.0 mph S4.8 kmh S 15.0 mph24.1 kmh 29.65 in1004.1 mb 0.00 in0.0 mm 0.00 in0.0 mm 0.00 in0.0 mm
04:22 PM 44.3°F6.8°C 31.7°F-0.2°C 61% 11.0 mph SSE17.7 kmh SSE 15.0 mph24.1 kmh 29.65 in1004.1 mb 0.00 in0.0 mm 0.00 in0.0 mm 0.00 in0.0 mm
04:23 PM 44.3°F6.8°C 31.3°F-0.4°C 60% 6.0 mph SSE9.7 kmh SSE 15.0 mph24.1 kmh 29.65 in1004.1 mb 0.00 in0.0 mm 0.00 in0.0 mm 0.00 in0.0 mm
04:24 PM 44.2°F6.8°C 31.6°F-0.2°C 61% 7.0 mph S11.3 kmh S 15.0 mph24.1 kmh 29.65 in1004.1 mb 0.00 in0.0 mm 0.00 in0.0 mm 0.00 in0.0 mm
04:25 PM 44.1°F6.7°C 31.5°F-0.3°C 61% 7.0 mph S11.3 kmh S 15.0 mph24.1 kmh 29.65 in1004.1 mb 0.00 in0.0 mm 0.00 in0.0 mm 0.00 in0.0 mm
04:26 PM 44.1°F6.7°C 31.5°F-0.3°C 61% 9.0 mph S14.5 kmh S 15.0 mph24.1 kmh 29.65 in1004.1 mb 0.00 in0.0 mm 0.00 in0.0 mm 0.00 in0.0 mm
04:27 PM 44.0°F6.7°C 31.4°F-0.3°C 61% 4.0 mph S6.4 kmh S 15.0 mph24.1 kmh 29.65 in1004.1 mb 0.00 in0.0 mm 0.00 in0.0 mm 0.00 in0.0 mm
04:28 PM 44.0°F6.7°C 31.4°F-0.3°C 61% 12.0 mph S19.3 kmh S 13.0 mph20.9 kmh 29.65 in1004.1 mb 0.00 in0.0 mm 0.00 in0.0 mm 0.00 in0.0 mm
04:29 PM 43.9°F6.6°C 31.3°F-0.4°C 61% 8.0 mph SE12.9 kmh SE 13.0 mph20.9 kmh 29.65 in1004.1 mb 0.00 in0.0 mm 0.00 in0.0 mm 0.00 in0.0 mm
04:30 PM 43.9°F6.6°C 31.3°F-0.4°C 61% 7.0 mph SE11.3 kmh SE 16.0 mph25.7 kmh 29.64 in1003.7 mb 0.00 in0.0 mm 0.00 in0.0 mm 0.00 in0.0 mm
04:31 PM 43.8°F6.6°C 31.2°F-0.4°C 61% 13.0 mph S20.9 kmh S 16.0 mph25.7 kmh 29.64 in1003.7 mb 0.00 in0.0 mm 0.00 in0.0 mm 0.00 in0.0 mm
04:32 PM 43.8°F6.6°C 31.2°F-0.4°C 61% 7.0 mph S11.3 kmh S 16.0 mph25.7 kmh 29.64 in1003.7 mb 0.00 in0.0 mm 0.00 in0.0 mm 0.00 in0.0 mm
04:33 PM 43.7°F6.5°C 31.1°F-0.5°C 61% 7.0 mph S11.3 kmh S 16.0 mph25.7 kmh 29.64 in1003.7 mb 0.00 in0.0 mm 0.00 in0.0 mm 0.00 in0.0 mm
04:34 PM 43.7°F6.5°C 31.1°F-0.5°C 61% 7.0 mph S11.3 kmh S 16.0 mph25.7 kmh 29.64 in1003.7 mb 0.00 in0.0 mm 0.00 in0.0 mm 0.00 in0.0 mm
04:35 PM 43.6°F6.4°C 31.4°F-0.3°C 62% 10.0 mph S16.1 kmh S 16.0 mph25.7 kmh 29.64 in1003.7 mb 0.00 in0.0 mm 0.00 in0.0 mm 0.00 in0.0 mm
04:36 PM 43.6°F6.4°C 31.4°F-0.3°C 62% 8.0 mph SE12.9 kmh SE 16.0 mph25.7 kmh 29.64 in1003.7 mb 0.00 in0.0 mm 0.00 in0.0 mm 0.00 in0.0 mm
04:37 PM 43.5°F6.4°C 31.3°F-0.4°C 62% 8.0 mph S12.9 kmh S 16.0 mph25.7 kmh 29.64 in1003.7 mb 0.00 in0.0 mm 0.00 in0.0 mm 0.00 in0.0 mm
04:38 PM 43.4°F6.3°C 31.2°F-0.4°C 62% 12.0 mph S19.3 kmh S 16.0 mph25.7 kmh 29.64 in1003.7 mb 0.00 in0.0 mm 0.00 in0.0 mm 0.00 in0.0 mm
04:39 PM 43.4°F6.3°C 31.2°F-0.4°C 62% 9.0 mph S14.5 kmh S 16.0 mph25.7 kmh 29.64 in1003.7 mb 0.00 in0.0 mm 0.00 in0.0 mm 0.00 in0.0 mm
04:40 PM 43.3°F6.3°C 31.1°F-0.5°C 62% 9.0 mph SE14.5 kmh SE 15.0 mph24.1 kmh 29.64 in1003.7 mb 0.00 in0.0 mm 0.00 in0.0 mm 0.00 in0.0 mm
04:41 PM 43.3°F6.3°C 31.5°F-0.3°C 63% 6.0 mph S9.7 kmh S 15.0 mph24.1 kmh 29.64 in1003.7 mb 0.00 in0.0 mm 0.00 in0.0 mm 0.00 in0.0 mm
04:42 PM 43.3°F6.3°C 31.5°F-0.3°C 63% 5.0 mph SE8.0 kmh SE 15.0 mph24.1 kmh 29.65 in1004.1 mb 0.00 in0.0 mm 0.00 in0.0 mm 0.00 in0.0 mm
04:43 PM 43.3°F6.3°C 31.5°F-0.3°C 63% 3.0 mph SSE4.8 kmh SSE 15.0 mph24.1 kmh 29.65 in1004.1 mb 0.00 in0.0 mm 0.00 in0.0 mm 0.00 in0.0 mm
04:44 PM 43.2°F6.2°C 31.4°F-0.3°C 63% 9.0 mph S14.5 kmh S 14.0 mph22.5 kmh 29.66 in1004.4 mb 0.00 in0.0 mm 0.00 in0.0 mm 0.00 in0.0 mm
04:45 PM 43.2°F6.2°C 31.4°F-0.3°C 63% 6.0 mph S9.7 kmh S 14.0 mph22.5 kmh 29.66 in1004.4 mb 0.00 in0.0 mm 0.00 in0.0 mm 0.00 in0.0 mm
04:46 PM 43.2°F6.2°C 31.4°F-0.3°C 63% 7.0 mph S11.3 kmh S 14.0 mph22.5 kmh 29.65 in1004.1 mb 0.00 in0.0 mm 0.00 in0.0 mm 0.00 in0.0 mm
04:47 PM 43.2°F6.2°C 31.4°F-0.3°C 63% 8.0 mph SSW12.9 kmh SSW 14.0 mph22.5 kmh 29.65 in1004.1 mb 0.00 in0.0 mm 0.00 in0.0 mm 0.00 in0.0 mm
04:48 PM 43.2°F6.2°C 31.4°F-0.3°C 63% 11.0 mph S17.7 kmh S 17.0 mph27.4 kmh 29.65 in1004.1 mb 0.00 in0.0 mm 0.00 in0.0 mm 0.00 in0.0 mm
04:49 PM 43.1°F6.2°C 31.4°F-0.3°C 63% 6.0 mph S9.7 kmh S 17.0 mph27.4 kmh 29.65 in1004.1 mb 0.00 in0.0 mm 0.00 in0.0 mm 0.00 in0.0 mm
04:50 PM 43.1°F6.2°C 31.4°F-0.3°C 63% 5.0 mph SW8.0 kmh SW 17.0 mph27.4 kmh 29.66 in1004.4 mb 0.00 in0.0 mm 0.00 in0.0 mm 0.00 in0.0 mm
04:51 PM 43.1°F6.2°C 31.4°F-0.3°C 63% 7.0 mph SW11.3 kmh SW 17.0 mph27.4 kmh 29.66 in1004.4 mb 0.00 in0.0 mm 0.00 in0.0 mm 0.00 in0.0 mm
04:52 PM 43.1°F6.2°C 31.4°F-0.3°C 63% 2.0 mph S3.2 kmh S 17.0 mph27.4 kmh 29.66 in1004.4 mb 0.00 in0.0 mm 0.00 in0.0 mm 0.00 in0.0 mm
04:53 PM 43.1°F6.2°C 31.4°F-0.3°C 63% 9.0 mph S14.5 kmh S 17.0 mph27.4 kmh 29.66 in1004.4 mb 0.00 in0.0 mm 0.00 in0.0 mm 0.00 in0.0 mm
04:54 PM 43.1°F6.2°C 31.4°F-0.3°C 63% 6.0 mph SW9.7 kmh SW 17.0 mph27.4 kmh 29.66 in1004.4 mb 0.00 in0.0 mm 0.00 in0.0 mm 0.00 in0.0 mm
04:55 PM 43.0°F6.1°C 31.3°F-0.4°C 63% 6.0 mph SSE9.7 kmh SSE 17.0 mph27.4 kmh 29.66 in1004.4 mb 0.00 in0.0 mm 0.00 in0.0 mm 0.00 in0.0 mm
04:56 PM 43.0°F6.1°C 31.3°F-0.4°C 63% 10.0 mph S16.1 kmh S 17.0 mph27.4 kmh 29.66 in1004.4 mb 0.00 in0.0 mm 0.00 in0.0 mm 0.00 in0.0 mm
04:57 PM 43.0°F6.1°C 31.3°F-0.4°C 63% 4.0 mph SSE6.4 kmh SSE 17.0 mph27.4 kmh 29.66 in1004.4 mb 0.00 in0.0 mm 0.00 in0.0 mm 0.00 in0.0 mm
04:58 PM 42.9°F6.1°C 31.2°F-0.4°C 63% 11.0 mph SSW17.7 kmh SSW 14.0 mph22.5 kmh 29.66 in1004.4 mb 0.00 in0.0 mm 0.00 in0.0 mm 0.00 in0.0 mm
04:59 PM 42.9°F6.1°C 31.2°F-0.4°C 63% 7.0 mph S11.3 kmh S 14.0 mph22.5 kmh 29.66 in1004.4 mb 0.00 in0.0 mm 0.00 in0.0 mm 0.00 in0.0 mm
05:00 PM 42.9°F6.1°C 31.2°F-0.4°C 63% 8.0 mph SSE12.9 kmh SSE 15.0 mph24.1 kmh 29.66 in1004.4 mb 0.00 in0.0 mm 0.00 in0.0 mm 0.00 in0.0 mm
05:01 PM 42.8°F6.0°C 31.1°F-0.5°C 63% 7.0 mph S11.3 kmh S 15.0 mph24.1 kmh 29.66 in1004.4 mb 0.00 in0.0 mm 0.00 in0.0 mm 0.00 in0.0 mm
05:02 PM 42.8°F6.0°C 30.7°F-0.7°C 62% 3.0 mph S4.8 kmh S 15.0 mph24.1 kmh 29.66 in1004.4 mb 0.00 in0.0 mm 0.00 in0.0 mm 0.00 in0.0 mm
05:03 PM 42.8°F6.0°C 30.7°F-0.7°C 62% 5.0 mph SW8.0 kmh SW 15.0 mph24.1 kmh 29.66 in1004.4 mb 0.00 in0.0 mm 0.00 in0.0 mm 0.00 in0.0 mm
05:04 PM 42.8°F6.0°C 30.7°F-0.7°C 62% 9.0 mph SSW14.5 kmh SSW 15.0 mph24.1 kmh 29.66 in1004.4 mb 0.00 in0.0 mm 0.00 in0.0 mm 0.00 in0.0 mm
05:05 PM 42.7°F5.9°C 31.0°F-0.6°C 63% 7.0 mph SSW11.3 kmh SSW 15.0 mph24.1 kmh 29.66 in1004.4 mb 0.00 in0.0 mm 0.00 in0.0 mm 0.00 in0.0 mm
05:06 PM 42.7°F5.9°C 30.6°F-0.8°C 62% 7.0 mph SSE11.3 kmh SSE 15.0 mph24.1 kmh 29.66 in1004.4 mb 0.00 in0.0 mm 0.00 in0.0 mm 0.00 in0.0 mm
05:07 PM 42.7°F5.9°C 30.6°F-0.8°C 62% 7.0 mph S11.3 kmh S 15.0 mph24.1 kmh 29.66 in1004.4 mb 0.00 in0.0 mm 0.00 in0.0 mm 0.00 in0.0 mm
05:08 PM 42.7°F5.9°C 30.6°F-0.8°C 62% 9.0 mph S14.5 kmh S 15.0 mph24.1 kmh 29.66 in1004.4 mb 0.00 in0.0 mm 0.00 in0.0 mm 0.00 in0.0 mm
05:09 PM 42.6°F5.9°C 30.5°F-0.8°C 62% 7.0 mph S11.3 kmh S 15.0 mph24.1 kmh 29.67 in1004.7 mb 0.00 in0.0 mm 0.00 in0.0 mm 0.00 in0.0 mm
05:10 PM 42.6°F5.9°C 30.5°F-0.8°C 62% 8.0 mph S12.9 kmh S 13.0 mph20.9 kmh 29.66 in1004.4 mb 0.00 in0.0 mm 0.00 in0.0 mm 0.00 in0.0 mm
05:11 PM 42.6°F5.9°C 30.9°F-0.6°C 63% 7.0 mph S11.3 kmh S 13.0 mph20.9 kmh 29.67 in1004.7 mb 0.00 in0.0 mm 0.00 in0.0 mm 0.00 in0.0 mm
05:12 PM 42.5°F5.8°C 30.8°F-0.7°C 63% 6.0 mph S9.7 kmh S 13.0 mph20.9 kmh 29.67 in1004.7 mb 0.00 in0.0 mm 0.00 in0.0 mm 0.00 in0.0 mm
05:13 PM 42.4°F5.8°C 30.7°F-0.7°C 63% 3.0 mph S4.8 kmh S 13.0 mph20.9 kmh 29.67 in1004.7 mb 0.00 in0.0 mm 0.00 in0.0 mm 0.00 in0.0 mm
05:14 PM 42.4°F5.8°C 30.7°F-0.7°C 63% 8.0 mph S12.9 kmh S 13.0 mph20.9 kmh 29.67 in1004.7 mb 0.00 in0.0 mm 0.00 in0.0 mm 0.00 in0.0 mm
05:15 PM 42.4°F5.8°C 30.7°F-0.7°C 63% 12.0 mph S19.3 kmh S 13.0 mph20.9 kmh 29.67 in1004.7 mb 0.00 in0.0 mm 0.00 in0.0 mm 0.00 in0.0 mm
05:16 PM 42.3°F5.7°C 30.6°F-0.8°C 63% 10.0 mph S16.1 kmh S 14.0 mph22.5 kmh 29.67 in1004.7 mb 0.00 in0.0 mm 0.00 in0.0 mm 0.00 in0.0 mm
05:17 PM 42.3°F5.7°C 30.6°F-0.8°C 63% 10.0 mph S16.1 kmh S 14.0 mph22.5 kmh 29.67 in1004.7 mb 0.00 in0.0 mm 0.00 in0.0 mm 0.00 in0.0 mm
05:18 PM 42.3°F5.7°C 30.6°F-0.8°C 63% 6.0 mph S9.7 kmh S 14.0 mph22.5 kmh 29.67 in1004.7 mb 0.00 in0.0 mm 0.00 in0.0 mm 0.00 in0.0 mm
05:19 PM 42.3°F5.7°C 30.6°F-0.8°C 63% 6.0 mph S9.7 kmh S 14.0 mph22.5 kmh 29.67 in1004.7 mb 0.00 in0.0 mm 0.00 in0.0 mm 0.00 in0.0 mm
05:20 PM 42.2°F5.7°C 30.5°F-0.8°C 63% 7.0 mph S11.3 kmh S 14.0 mph22.5 kmh 29.67 in1004.7 mb 0.00 in0.0 mm 0.00 in0.0 mm 0.00 in0.0 mm
05:21 PM 42.1°F5.6°C 30.4°F-0.9°C 63% 7.0 mph S11.3 kmh S 14.0 mph22.5 kmh 29.66 in1004.4 mb 0.00 in0.0 mm 0.00 in0.0 mm 0.00 in0.0 mm
05:22 PM 42.1°F5.6°C 30.4°F-0.9°C 63% 7.0 mph S11.3 kmh S 14.0 mph22.5 kmh 29.66 in1004.4 mb 0.00 in0.0 mm 0.00 in0.0 mm 0.00 in0.0 mm
05:23 PM 42.0°F5.6°C 30.3°F-0.9°C 63% 6.0 mph SW9.7 kmh SW 15.0 mph24.1 kmh 29.66 in1004.4 mb 0.00 in0.0 mm 0.00 in0.0 mm 0.00 in0.0 mm
05:24 PM 42.0°F5.6°C 30.7°F-0.7°C 64% 9.0 mph S14.5 kmh S 15.0 mph24.1 kmh 29.66 in1004.4 mb 0.00 in0.0 mm 0.00 in0.0 mm 0.00 in0.0 mm
05:25 PM 41.9°F5.5°C 30.6°F-0.8°C 64% 6.0 mph S9.7 kmh S 15.0 mph24.1 kmh 29.66 in1004.4 mb 0.00 in0.0 mm 0.00 in0.0 mm 0.00 in0.0 mm
05:26 PM 41.9°F5.5°C 30.6°F-0.8°C 64% 10.0 mph S16.1 kmh S 15.0 mph24.1 kmh 29.66 in1004.4 mb 0.00 in0.0 mm 0.00 in0.0 mm 0.00 in0.0 mm
05:27 PM 41.8°F5.4°C 30.5°F-0.8°C 64% 7.0 mph S11.3 kmh S 16.0 mph25.7 kmh 29.66 in1004.4 mb 0.00 in0.0 mm 0.00 in0.0 mm 0.00 in0.0 mm
05:28 PM 41.8°F5.4°C 30.5°F-0.8°C 64% 10.0 mph S16.1 kmh S 16.0 mph25.7 kmh 29.66 in1004.4 mb 0.00 in0.0 mm 0.00 in0.0 mm 0.00 in0.0 mm
05:29 PM 41.8°F5.4°C 30.5°F-0.8°C 64% 5.0 mph S8.0 kmh S 16.0 mph25.7 kmh 29.66 in1004.4 mb 0.00 in0.0 mm 0.00 in0.0 mm 0.00 in0.0 mm
05:30 PM 41.7°F5.4°C 30.4°F-0.9°C 64% 4.0 mph S6.4 kmh S 16.0 mph25.7 kmh 29.66 in1004.4 mb 0.00 in0.0 mm 0.00 in0.0 mm 0.00 in0.0 mm
05:31 PM 41.7°F5.4°C 30.4°F-0.9°C 64% 7.0 mph S11.3 kmh S 16.0 mph25.7 kmh 29.67 in1004.7 mb 0.00 in0.0 mm 0.00 in0.0 mm 0.00 in0.0 mm
05:32 PM 41.7°F5.4°C 30.4°F-0.9°C 64% 5.0 mph S8.0 kmh S 16.0 mph25.7 kmh 29.67 in1004.7 mb 0.00 in0.0 mm 0.00 in0.0 mm 0.00 in0.0 mm
05:33 PM 41.6°F5.3°C 30.3°F-0.9°C 64% 5.0 mph SW8.0 kmh SW 16.0 mph25.7 kmh 29.67 in1004.7 mb 0.00 in0.0 mm 0.00 in0.0 mm 0.00 in0.0 mm
05:34 PM 41.6°F5.3°C 30.3°F-0.9°C 64% 3.0 mph S4.8 kmh S 16.0 mph25.7 kmh 29.67 in1004.7 mb 0.00 in0.0 mm 0.00 in0.0 mm 0.00 in0.0 mm
05:35 PM 41.6°F5.3°C 30.3°F-0.9°C 64% 6.0 mph S9.7 kmh S 16.0 mph25.7 kmh 29.67 in1004.7 mb 0.00 in0.0 mm 0.00 in0.0 mm 0.00 in0.0 mm
05:36 PM 41.5°F5.3°C 30.2°F-1.0°C 64% 6.0 mph S9.7 kmh S 16.0 mph25.7 kmh 29.68 in1005.1 mb 0.00 in0.0 mm 0.00 in0.0 mm 0.00 in0.0 mm
05:37 PM 41.6°F5.3°C 30.3°F-0.9°C 64% 4.0 mph S6.4 kmh S 15.0 mph24.1 kmh 29.68 in1005.1 mb 0.00 in0.0 mm 0.00 in0.0 mm 0.00 in0.0 mm
05:38 PM 41.5°F5.3°C 30.2°F-1.0°C 64% 7.0 mph S11.3 kmh S 12.0 mph19.3 kmh 29.68 in1005.1 mb 0.00 in0.0 mm 0.00 in0.0 mm 0.00 in0.0 mm
05:39 PM 41.5°F5.3°C 30.2°F-1.0°C 64% 6.0 mph S9.7 kmh S 11.0 mph17.7 kmh 29.67 in1004.7 mb 0.00 in0.0 mm 0.00 in0.0 mm 0.00 in0.0 mm
05:40 PM 41.5°F5.3°C 30.6°F-0.8°C 65% 9.0 mph S14.5 kmh S 12.0 mph19.3 kmh 29.67 in1004.7 mb 0.00 in0.0 mm 0.00 in0.0 mm 0.00 in0.0 mm
05:41 PM 41.5°F5.3°C 30.2°F-1.0°C 64% 6.0 mph S9.7 kmh S 12.0 mph19.3 kmh 29.67 in1004.7 mb 0.00 in0.0 mm 0.00 in0.0 mm 0.00 in0.0 mm
05:42 PM 41.4°F5.2°C 30.5°F-0.8°C 65% 8.0 mph S12.9 kmh S 12.0 mph19.3 kmh 29.67 in1004.7 mb 0.00 in0.0 mm 0.00 in0.0 mm 0.00 in0.0 mm
05:43 PM 41.4°F5.2°C 30.5°F-0.8°C 65% 4.0 mph S6.4 kmh S 12.0 mph19.3 kmh 29.67 in1004.7 mb 0.00 in0.0 mm 0.00 in0.0 mm 0.00 in0.0 mm
05:44 PM 41.4°F5.2°C 30.5°F-0.8°C 65% 4.0 mph S6.4 kmh S 12.0 mph19.3 kmh 29.67 in1004.7 mb 0.00 in0.0 mm 0.00 in0.0 mm 0.00 in0.0 mm
05:45 PM 41.4°F5.2°C 30.5°F-0.8°C 65% 7.0 mph SSE11.3 kmh SSE 12.0 mph19.3 kmh 29.67 in1004.7 mb 0.00 in0.0 mm 0.00 in0.0 mm 0.00 in0.0 mm
05:46 PM 41.4°F5.2°C 30.5°F-0.8°C 65% 3.0 mph SW4.8 kmh SW 12.0 mph19.3 kmh 29.68 in1005.1 mb 0.00 in0.0 mm 0.00 in0.0 mm 0.00 in0.0 mm
05:47 PM 41.3°F5.2°C 30.4°F-0.9°C 65% 6.0 mph SSW9.7 kmh SSW 12.0 mph19.3 kmh 29.68 in1005.1 mb 0.00 in0.0 mm 0.00 in0.0 mm 0.00 in0.0 mm
05:48 PM 41.3°F5.2°C 30.4°F-0.9°C 65% 6.0 mph SE9.7 kmh SE 12.0 mph19.3 kmh 29.68 in1005.1 mb 0.00 in0.0 mm 0.00 in0.0 mm 0.00 in0.0 mm
05:49 PM 41.3°F5.2°C 30.4°F-0.9°C 65% 6.0 mph S9.7 kmh S 12.0 mph19.3 kmh 29.68 in1005.1 mb 0.00 in0.0 mm 0.00 in0.0 mm 0.00 in0.0 mm
05:50 PM 41.3°F5.2°C 30.4°F-0.9°C 65% 6.0 mph S9.7 kmh S 12.0 mph19.3 kmh 29.68 in1005.1 mb 0.00 in0.0 mm 0.00 in0.0 mm 0.00 in0.0 mm
05:51 PM 41.3°F5.2°C 30.0°F-1.1°C 64% 7.0 mph SSE11.3 kmh SSE 12.0 mph19.3 kmh 29.68 in1005.1 mb 0.00 in0.0 mm 0.00 in0.0 mm 0.00 in0.0 mm
05:52 PM 41.3°F5.2°C 30.0°F-1.1°C 64% 5.0 mph S8.0 kmh S 11.0 mph17.7 kmh 29.68 in1005.1 mb 0.00 in0.0 mm 0.00 in0.0 mm 0.00 in0.0 mm
05:53 PM 41.2°F5.1°C 29.9°F-1.2°C 64% 3.0 mph SW4.8 kmh SW 11.0 mph17.7 kmh 29.68 in1005.1 mb 0.00 in0.0 mm 0.00 in0.0 mm 0.00 in0.0 mm
05:54 PM 41.2°F5.1°C 29.9°F-1.2°C 64% 2.0 mph S3.2 kmh S 11.0 mph17.7 kmh 29.68 in1005.1 mb 0.00 in0.0 mm 0.00 in0.0 mm 0.00 in0.0 mm
05:55 PM 41.2°F5.1°C 29.9°F-1.2°C 64% 6.0 mph S9.7 kmh S 11.0 mph17.7 kmh 29.68 in1005.1 mb 0.00 in0.0 mm 0.00 in0.0 mm 0.00 in0.0 mm
05:56 PM 41.2°F5.1°C 30.3°F-0.9°C 65% 7.0 mph S11.3 kmh S 11.0 mph17.7 kmh 29.68 in1005.1 mb 0.00 in0.0 mm 0.00 in0.0 mm 0.00 in0.0 mm
05:57 PM 41.1°F5.1°C 30.2°F-1.0°C 65% 8.0 mph S12.9 kmh S 11.0 mph17.7 kmh 29.68 in1005.1 mb 0.00 in0.0 mm 0.00 in0.0 mm 0.00 in0.0 mm
05:58 PM 41.1°F5.1°C 30.2°F-1.0°C 65% 7.0 mph SSE11.3 kmh SSE 11.0 mph17.7 kmh 29.68 in1005.1 mb 0.00 in0.0 mm 0.00 in0.0 mm 0.00 in0.0 mm
05:59 PM 41.1°F5.1°C 30.2°F-1.0°C 65% 4.0 mph S6.4 kmh S 11.0 mph17.7 kmh 29.68 in1005.1 mb 0.00 in0.0 mm 0.00 in0.0 mm 0.00 in0.0 mm
06:00 PM 41.0°F5.0°C 30.1°F-1.1°C 65% 2.0 mph SSW3.2 kmh SSW 11.0 mph17.7 kmh 29.68 in1005.1 mb 0.00 in0.0 mm 0.00 in0.0 mm 0.00 in0.0 mm
06:01 PM 41.0°F5.0°C 30.1°F-1.1°C 65% 3.0 mph SSW4.8 kmh SSW 11.0 mph17.7 kmh 29.69 in1005.4 mb 0.00 in0.0 mm 0.00 in0.0 mm 0.00 in0.0 mm
06:02 PM 41.0°F5.0°C 30.1°F-1.1°C 65% 5.0 mph S8.0 kmh S 11.0 mph17.7 kmh 29.69 in1005.4 mb 0.00 in0.0 mm 0.00 in0.0 mm 0.00 in0.0 mm
06:03 PM 40.9°F4.9°C 30.0°F-1.1°C 65% 5.0 mph S8.0 kmh S 11.0 mph17.7 kmh 29.68 in1005.1 mb 0.00 in0.0 mm 0.00 in0.0 mm 0.00 in0.0 mm
06:04 PM 40.9°F4.9°C 30.0°F-1.1°C 65% 4.0 mph S6.4 kmh S 11.0 mph17.7 kmh 29.68 in1005.1 mb 0.00 in0.0 mm 0.00 in0.0 mm 0.00 in0.0 mm
06:05 PM 40.9°F4.9°C 30.0°F-1.1°C 65% 6.0 mph S9.7 kmh S 11.0 mph17.7 kmh 29.69 in1005.4 mb 0.00 in0.0 mm 0.00 in0.0 mm 0.00 in0.0 mm
06:06 PM 40.9°F4.9°C 30.0°F-1.1°C 65% 3.0 mph S4.8 kmh S 11.0 mph17.7 kmh 29.69 in1005.4 mb 0.00 in0.0 mm 0.00 in0.0 mm 0.00 in0.0 mm
06:07 PM 40.8°F4.9°C 29.9°F-1.2°C 65% 3.0 mph S4.8 kmh S 11.0 mph17.7 kmh 29.69 in1005.4 mb 0.00 in0.0 mm 0.00 in0.0 mm 0.00 in0.0 mm
06:08 PM 40.8°F4.9°C 29.9°F-1.2°C 65% 7.0 mph S11.3 kmh S 10.0 mph16.1 kmh 29.68 in1005.1 mb 0.00 in0.0 mm 0.00 in0.0 mm 0.00 in0.0 mm
06:09 PM 40.8°F4.9°C 29.9°F-1.2°C 65% 6.0 mph S9.7 kmh S 15.0 mph24.1 kmh 29.68 in1005.1 mb 0.00 in0.0 mm 0.00 in0.0 mm 0.00 in0.0 mm
06:10 PM 40.7°F4.8°C 29.8°F-1.2°C 65% 5.0 mph SSE8.0 kmh SSE 15.0 mph24.1 kmh 29.68 in1005.1 mb 0.00 in0.0 mm 0.00 in0.0 mm 0.00 in0.0 mm
06:11 PM 40.7°F4.8°C 29.8°F-1.2°C 65% 8.0 mph S12.9 kmh S 15.0 mph24.1 kmh 29.68 in1005.1 mb 0.00 in0.0 mm 0.00 in0.0 mm 0.00 in0.0 mm
06:12 PM 40.7°F4.8°C 29.8°F-1.2°C 65% 6.0 mph S9.7 kmh S 15.0 mph24.1 kmh 29.68 in1005.1 mb 0.00 in0.0 mm 0.00 in0.0 mm 0.00 in0.0 mm
06:13 PM 40.7°F4.8°C 29.8°F-1.2°C 65% 9.0 mph S14.5 kmh S 15.0 mph24.1 kmh 29.69 in1005.4 mb 0.00 in0.0 mm 0.00 in0.0 mm 0.00 in0.0 mm
06:14 PM 40.7°F4.8°C 29.8°F-1.2°C 65% 5.0 mph S8.0 kmh S 15.0 mph24.1 kmh 29.69 in1005.4 mb 0.00 in0.0 mm 0.00 in0.0 mm 0.00 in0.0 mm
06:15 PM 40.7°F4.8°C 29.8°F-1.2°C 65% 8.0 mph SSE12.9 kmh SSE 15.0 mph24.1 kmh 29.69 in1005.4 mb 0.00 in0.0 mm 0.00 in0.0 mm 0.00 in0.0 mm
06:16 PM 40.6°F4.8°C 29.7°F-1.3°C 65% 7.0 mph SSE11.3 kmh SSE 15.0 mph24.1 kmh 29.69 in1005.4 mb 0.00 in0.0 mm 0.00 in0.0 mm 0.00 in0.0 mm
06:17 PM 40.6°F4.8°C 29.7°F-1.3°C 65% 5.0 mph S8.0 kmh S 15.0 mph24.1 kmh 29.69 in1005.4 mb 0.00 in0.0 mm 0.00 in0.0 mm 0.00 in0.0 mm
06:18 PM 40.6°F4.8°C 30.1°F-1.1°C 66% 7.0 mph S11.3 kmh S 15.0 mph24.1 kmh 29.69 in1005.4 mb 0.00 in0.0 mm 0.00 in0.0 mm 0.00 in0.0 mm
06:19 PM 40.6°F4.8°C 30.1°F-1.1°C 66% 6.0 mph S9.7 kmh S 12.0 mph19.3 kmh 29.69 in1005.4 mb 0.00 in0.0 mm 0.00 in0.0 mm 0.00 in0.0 mm
06:20 PM 40.5°F4.7°C 30.0°F-1.1°C 66% 7.0 mph S11.3 kmh S 12.0 mph19.3 kmh 29.69 in1005.4 mb 0.00 in0.0 mm 0.00 in0.0 mm 0.00 in0.0 mm
06:21 PM 40.5°F4.7°C 30.0°F-1.1°C 66% 4.0 mph S6.4 kmh S 12.0 mph19.3 kmh 29.69 in1005.4 mb 0.00 in0.0 mm 0.00 in0.0 mm 0.00 in0.0 mm
06:22 PM 40.5°F4.7°C 30.0°F-1.1°C 66% 4.0 mph S6.4 kmh S 12.0 mph19.3 kmh 29.69 in1005.4 mb 0.00 in0.0 mm 0.00 in0.0 mm 0.00 in0.0 mm
06:23 PM 40.5°F4.7°C 30.0°F-1.1°C 66% 4.0 mph S6.4 kmh S 12.0 mph19.3 kmh 29.69 in1005.4 mb 0.00 in0.0 mm 0.00 in0.0 mm 0.00 in0.0 mm
06:24 PM 40.4°F4.7°C 29.9°F-1.2°C 66% 4.0 mph S6.4 kmh S 12.0 mph19.3 kmh 29.69 in1005.4 mb 0.00 in0.0 mm 0.00 in0.0 mm 0.00 in0.0 mm
06:25 PM 40.4°F4.7°C 29.9°F-1.2°C 66% 4.0 mph S6.4 kmh S 12.0 mph19.3 kmh 29.69 in1005.4 mb 0.00 in0.0 mm 0.00 in0.0 mm 0.00 in0.0 mm
06:26 PM 40.4°F4.7°C 29.9°F-1.2°C 66% 3.0 mph S4.8 kmh S 12.0 mph19.3 kmh 29.70 in1005.8 mb 0.00 in0.0 mm 0.00 in0.0 mm 0.00 in0.0 mm
06:27 PM 40.3°F4.6°C 29.8°F-1.2°C 66% 4.0 mph SSE6.4 kmh SSE 11.0 mph17.7 kmh 29.70 in1005.8 mb 0.00 in0.0 mm 0.00 in0.0 mm 0.00 in0.0 mm
06:28 PM 40.3°F4.6°C 29.8°F-1.2°C 66% 3.0 mph S4.8 kmh S 9.0 mph14.5 kmh 29.70 in1005.8 mb 0.00 in0.0 mm 0.00 in0.0 mm 0.00 in0.0 mm
06:29 PM 40.2°F4.6°C 29.7°F-1.3°C 66% 7.0 mph S11.3 kmh S 9.0 mph14.5 kmh 29.70 in1005.8 mb 0.00 in0.0 mm 0.00 in0.0 mm 0.00 in0.0 mm
06:30 PM 40.2°F4.6°C 29.7°F-1.3°C 66% 3.0 mph S4.8 kmh S 8.0 mph12.9 kmh 29.70 in1005.8 mb 0.00 in0.0 mm 0.00 in0.0 mm 0.00 in0.0 mm
06:31 PM 40.2°F4.6°C 29.7°F-1.3°C 66% 3.0 mph S4.8 kmh S 8.0 mph12.9 kmh 29.70 in1005.8 mb 0.00 in0.0 mm 0.00 in0.0 mm 0.00 in0.0 mm
06:32 PM 40.1°F4.5°C 29.6°F-1.3°C 66% 2.0 mph S3.2 kmh S 8.0 mph12.9 kmh 29.70 in1005.8 mb 0.00 in0.0 mm 0.00 in0.0 mm 0.00 in0.0 mm
06:33 PM 40.1°F4.5°C 29.6°F-1.3°C 66% 3.0 mph S4.8 kmh S 8.0 mph12.9 kmh 29.70 in1005.8 mb 0.00 in0.0 mm 0.00 in0.0 mm 0.00 in0.0 mm
06:34 PM 40.0°F4.4°C 29.6°F-1.3°C 66% 3.0 mph S4.8 kmh S 8.0 mph12.9 kmh 29.70 in1005.8 mb 0.00 in0.0 mm 0.00 in0.0 mm 0.00 in0.0 mm
06:35 PM 40.0°F4.4°C 29.6°F-1.3°C 66% 4.0 mph S6.4 kmh S 8.0 mph12.9 kmh 29.70 in1005.8 mb 0.00 in0.0 mm 0.00 in0.0 mm 0.00 in0.0 mm
06:36 PM 39.9°F4.4°C 29.5°F-1.4°C 66% 4.0 mph S6.4 kmh S 8.0 mph12.9 kmh 29.70 in1005.8 mb 0.00 in0.0 mm 0.00 in0.0 mm 0.00 in0.0 mm
06:37 PM 39.9°F4.4°C 29.5°F-1.4°C 66% 4.0 mph S6.4 kmh S 8.0 mph12.9 kmh 29.70 in1005.8 mb 0.00 in0.0 mm 0.00 in0.0 mm 0.00 in0.0 mm
06:38 PM 39.9°F4.4°C 29.8°F-1.2°C 67% 5.0 mph S8.0 kmh S 8.0 mph12.9 kmh 29.70 in1005.8 mb 0.00 in0.0 mm 0.00 in0.0 mm 0.00 in0.0 mm
06:39 PM 39.8°F4.3°C 29.7°F-1.3°C 67% 5.0 mph S8.0 kmh S 8.0 mph12.9 kmh 29.70 in1005.8 mb 0.00 in0.0 mm 0.00 in0.0 mm 0.00 in0.0 mm
06:40 PM 39.8°F4.3°C 29.7°F-1.3°C 67% 5.0 mph S8.0 kmh S 8.0 mph12.9 kmh 29.70 in1005.8 mb 0.00 in0.0 mm 0.00 in0.0 mm 0.00 in0.0 mm
06:41 PM 39.7°F4.3°C 29.6°F-1.3°C 67% 4.0 mph S6.4 kmh S 8.0 mph12.9 kmh 29.70 in1005.8 mb 0.00 in0.0 mm 0.00 in0.0 mm 0.00 in0.0 mm
06:42 PM 39.7°F4.3°C 29.6°F-1.3°C 67% 5.0 mph SSW8.0 kmh SSW 8.0 mph12.9 kmh 29.70 in1005.8 mb 0.00 in0.0 mm 0.00 in0.0 mm 0.00 in0.0 mm
06:43 PM 39.7°F4.3°C 29.6°F-1.3°C 67% 4.0 mph S6.4 kmh S 8.0 mph12.9 kmh 29.70 in1005.8 mb 0.00 in0.0 mm 0.00 in0.0 mm 0.00 in0.0 mm
06:44 PM 39.6°F4.2°C 29.5°F-1.4°C 67% 4.0 mph S6.4 kmh S 8.0 mph12.9 kmh 29.70 in1005.8 mb 0.00 in0.0 mm 0.00 in0.0 mm 0.00 in0.0 mm
06:45 PM 39.6°F4.2°C 29.5°F-1.4°C 67% 5.0 mph S8.0 kmh S 8.0 mph12.9 kmh 29.70 in1005.8 mb 0.00 in0.0 mm 0.00 in0.0 mm 0.00 in0.0 mm
06:46 PM 39.5°F4.2°C 29.4°F-1.4°C 67% 5.0 mph S8.0 kmh S 8.0 mph12.9 kmh 29.70 in1005.8 mb 0.00 in0.0 mm 0.00 in0.0 mm 0.00 in0.0 mm
06:47 PM 39.5°F4.2°C 29.4°F-1.4°C 67% 5.0 mph SSE8.0 kmh SSE 8.0 mph12.9 kmh 29.70 in1005.8 mb 0.00 in0.0 mm 0.00 in0.0 mm 0.00 in0.0 mm
06:48 PM 39.4°F4.1°C 29.3°F-1.5°C 67% 6.0 mph S9.7 kmh S 7.0 mph11.3 kmh 29.70 in1005.8 mb 0.00 in0.0 mm 0.00 in0.0 mm 0.00 in0.0 mm
06:49 PM 39.4°F4.1°C 29.3°F-1.5°C 67% 6.0 mph S9.7 kmh S 7.0 mph11.3 kmh 29.70 in1005.8 mb 0.00 in0.0 mm 0.00 in0.0 mm 0.00 in0.0 mm
06:50 PM 39.3°F4.1°C 29.3°F-1.5°C 67% 8.0 mph S12.9 kmh S 9.0 mph14.5 kmh 29.70 in1005.8 mb 0.00 in0.0 mm 0.00 in0.0 mm 0.00 in0.0 mm
06:51 PM 39.3°F4.1°C 29.3°F-1.5°C 67% 5.0 mph S8.0 kmh S 9.0 mph14.5 kmh 29.70 in1005.8 mb 0.00 in0.0 mm 0.00 in0.0 mm 0.00 in0.0 mm
06:52 PM 39.3°F4.1°C 29.3°F-1.5°C 67% 7.0 mph S11.3 kmh S 9.0 mph14.5 kmh 29.70 in1005.8 mb 0.00 in0.0 mm 0.00 in0.0 mm 0.00 in0.0 mm
06:53 PM 39.3°F4.1°C 29.3°F-1.5°C 67% 3.0 mph S4.8 kmh S 9.0 mph14.5 kmh 29.70 in1005.8 mb 0.00 in0.0 mm 0.00 in0.0 mm 0.00 in0.0 mm
06:54 PM 39.3°F4.1°C 29.3°F-1.5°C 67% 7.0 mph S11.3 kmh S 9.0 mph14.5 kmh 29.70 in1005.8 mb 0.00 in0.0 mm 0.00 in0.0 mm 0.00 in0.0 mm
06:55 PM 39.3°F4.1°C 29.3°F-1.5°C 67% 3.0 mph S4.8 kmh S 9.0 mph14.5 kmh 29.71 in1006.1 mb 0.00 in0.0 mm 0.00 in0.0 mm 0.00 in0.0 mm
06:56 PM 39.3°F4.1°C 29.3°F-1.5°C 67% 4.0 mph S6.4 kmh S 9.0 mph14.5 kmh 29.71 in1006.1 mb 0.00 in0.0 mm 0.00 in0.0 mm 0.00 in0.0 mm
06:57 PM 39.3°F4.1°C 29.3°F-1.5°C 67% 5.0 mph S8.0 kmh S 9.0 mph14.5 kmh 29.71 in1006.1 mb 0.00 in0.0 mm 0.00 in0.0 mm 0.00 in0.0 mm
06:58 PM 39.3°F4.1°C 29.3°F-1.5°C 67% 4.0 mph S6.4 kmh S 9.0 mph14.5 kmh 29.71 in1006.1 mb 0.00 in0.0 mm 0.00 in0.0 mm 0.00 in0.0 mm
06:59 PM 39.3°F4.1°C 29.3°F-1.5°C 67% 4.0 mph SSW6.4 kmh SSW 9.0 mph14.5 kmh 29.71 in1006.1 mb 0.00 in0.0 mm 0.00 in0.0 mm 0.00 in0.0 mm
07:00 PM 39.3°F4.1°C 29.3°F-1.5°C 67% 9.0 mph S14.5 kmh S 9.0 mph14.5 kmh 29.71 in1006.1 mb 0.00 in0.0 mm 0.00 in0.0 mm 0.00 in0.0 mm
07:01 PM 39.3°F4.1°C 29.3°F-1.5°C 67% 8.0 mph S12.9 kmh S 9.0 mph14.5 kmh 29.71 in1006.1 mb 0.00 in0.0 mm 0.00 in0.0 mm 0.00 in0.0 mm
07:02 PM 39.3°F4.1°C 29.3°F-1.5°C 67% 4.0 mph S6.4 kmh S 9.0 mph14.5 kmh 29.71 in1006.1 mb 0.00 in0.0 mm 0.00 in0.0 mm 0.00 in0.0 mm
07:03 PM 39.3°F4.1°C 29.3°F-1.5°C 67% 5.0 mph SSE8.0 kmh SSE 9.0 mph14.5 kmh 29.71 in1006.1 mb 0.00 in0.0 mm 0.00 in0.0 mm 0.00 in0.0 mm
07:04 PM 39.3°F4.1°C 28.9°F-1.7°C 66% 5.0 mph S8.0 kmh S 9.0 mph14.5 kmh 29.71 in1006.1 mb 0.00 in0.0 mm 0.00 in0.0 mm 0.00 in0.0 mm
07:05 PM 39.3°F4.1°C 28.9°F-1.7°C 66% 4.0 mph S6.4 kmh S 9.0 mph14.5 kmh 29.71 in1006.1 mb 0.00 in0.0 mm 0.00 in0.0 mm 0.00 in0.0 mm
07:06 PM 39.3°F4.1°C 28.9°F-1.7°C 66% 5.0 mph S8.0 kmh S 9.0 mph14.5 kmh 29.71 in1006.1 mb 0.00 in0.0 mm 0.00 in0.0 mm 0.00 in0.0 mm
07:07 PM 39.4°F4.1°C 29.0°F-1.7°C 66% 5.0 mph S8.0 kmh S 9.0 mph14.5 kmh 29.71 in1006.1 mb 0.00 in0.0 mm 0.00 in0.0 mm 0.00 in0.0 mm
07:08 PM 39.4°F4.1°C 29.0°F-1.7°C 66% 5.0 mph S8.0 kmh S 9.0 mph14.5 kmh 29.70 in1005.8 mb 0.00 in0.0 mm 0.00 in0.0 mm 0.00 in0.0 mm
07:09 PM 39.5°F4.2°C 29.1°F-1.6°C 66% 4.0 mph S6.4 kmh S 9.0 mph14.5 kmh 29.70 in1005.8 mb 0.00 in0.0 mm 0.00 in0.0 mm 0.00 in0.0 mm
07:10 PM 39.5°F4.2°C 29.1°F-1.6°C 66% 6.0 mph SSE9.7 kmh SSE 9.0 mph14.5 kmh 29.70 in1005.8 mb 0.00 in0.0 mm 0.00 in0.0 mm 0.00 in0.0 mm
07:11 PM 39.5°F4.2°C 29.1°F-1.6°C 66% 5.0 mph SSE8.0 kmh SSE 9.0 mph14.5 kmh 29.71 in1006.1 mb 0.00 in0.0 mm 0.00 in0.0 mm 0.00 in0.0 mm
07:12 PM 39.5°F4.2°C 29.1°F-1.6°C 66% 3.0 mph S4.8 kmh S 9.0 mph14.5 kmh 29.71 in1006.1 mb 0.00 in0.0 mm 0.00 in0.0 mm 0.00 in0.0 mm
07:13 PM 39.6°F4.2°C 29.2°F-1.6°C 66% 5.0 mph S8.0 kmh S 9.0 mph14.5 kmh 29.71 in1006.1 mb 0.00 in0.0 mm 0.00 in0.0 mm 0.00 in0.0 mm
07:14 PM 39.6°F4.2°C 28.8°F-1.8°C 65% 5.0 mph S8.0 kmh S 9.0 mph14.5 kmh 29.71 in1006.1 mb 0.00 in0.0 mm 0.00 in0.0 mm 0.00 in0.0 mm
07:15 PM 39.6°F4.2°C 28.8°F-1.8°C 65% 4.0 mph S6.4 kmh S 9.0 mph14.5 kmh 29.71 in1006.1 mb 0.00 in0.0 mm 0.00 in0.0 mm 0.00 in0.0 mm
07:16 PM 39.6°F4.2°C 28.8°F-1.8°C 65% 3.0 mph S4.8 kmh S 9.0 mph14.5 kmh 29.71 in1006.1 mb 0.00 in0.0 mm 0.00 in0.0 mm 0.00 in0.0 mm
07:17 PM 39.6°F4.2°C 28.8°F-1.8°C 65% 3.0 mph S4.8 kmh S 8.0 mph12.9 kmh 29.71 in1006.1 mb 0.00 in0.0 mm 0.00 in0.0 mm 0.00 in0.0 mm
07:18 PM 39.6°F4.2°C 28.8°F-1.8°C 65% 5.0 mph S8.0 kmh S 8.0 mph12.9 kmh 29.71 in1006.1 mb 0.00 in0.0 mm 0.00 in0.0 mm 0.00 in0.0 mm
07:19 PM 39.6°F4.2°C 28.8°F-1.8°C 65% 5.0 mph S8.0 kmh S 8.0 mph12.9 kmh 29.71 in1006.1 mb 0.00 in0.0 mm 0.00 in0.0 mm 0.00 in0.0 mm
07:20 PM 39.6°F4.2°C 28.8°F-1.8°C 65% 4.0 mph SSW6.4 kmh SSW 11.0 mph17.7 kmh 29.71 in1006.1 mb 0.00 in0.0 mm 0.00 in0.0 mm 0.00 in0.0 mm
07:21 PM 39.6°F4.2°C 28.8°F-1.8°C 65% 3.0 mph S4.8 kmh S 11.0 mph17.7 kmh 29.71 in1006.1 mb 0.00 in0.0 mm 0.00 in0.0 mm 0.00 in0.0 mm
07:22 PM 39.7°F4.3°C 28.9°F-1.7°C 65% 3.0 mph S4.8 kmh S 11.0 mph17.7 kmh 29.71 in1006.1 mb 0.00 in0.0 mm 0.00 in0.0 mm 0.00 in0.0 mm
07:23 PM 39.7°F4.3°C 28.9°F-1.7°C 65% 5.0 mph S8.0 kmh S 11.0 mph17.7 kmh 29.72 in1006.4 mb 0.00 in0.0 mm 0.00 in0.0 mm 0.00 in0.0 mm
07:24 PM 39.7°F4.3°C 28.9°F-1.7°C 65% 2.0 mph S3.2 kmh S 11.0 mph17.7 kmh 29.72 in1006.4 mb 0.00 in0.0 mm 0.00 in0.0 mm 0.00 in0.0 mm
07:25 PM 39.7°F4.3°C 28.9°F-1.7°C 65% 2.0 mph S3.2 kmh S 11.0 mph17.7 kmh 29.72 in1006.4 mb 0.00 in0.0 mm 0.00 in0.0 mm 0.00 in0.0 mm
07:26 PM 39.8°F4.3°C 29.0°F-1.7°C 65% 2.0 mph S3.2 kmh S 11.0 mph17.7 kmh 29.72 in1006.4 mb 0.00 in0.0 mm 0.00 in0.0 mm 0.00 in0.0 mm
07:27 PM 39.7°F4.3°C 28.9°F-1.7°C 65% 3.0 mph S4.8 kmh S 11.0 mph17.7 kmh 29.72 in1006.4 mb 0.00 in0.0 mm 0.00 in0.0 mm 0.00 in0.0 mm
07:28 PM 39.7°F4.3°C 28.9°F-1.7°C 65% 3.0 mph S4.8 kmh S 11.0 mph17.7 kmh 29.72 in1006.4 mb 0.00 in0.0 mm 0.00 in0.0 mm 0.00 in0.0 mm
07:29 PM 39.7°F4.3°C 28.9°F-1.7°C 65% 4.0 mph S6.4 kmh S 11.0 mph17.7 kmh 29.72 in1006.4 mb 0.00 in0.0 mm 0.00 in0.0 mm 0.00 in0.0 mm
07:30 PM 39.7°F4.3°C 28.9°F-1.7°C 65% 5.0 mph S8.0 kmh S 7.0 mph11.3 kmh 29.72 in1006.4 mb 0.00 in0.0 mm 0.00 in0.0 mm 0.00 in0.0 mm
07:31 PM 39.7°F4.3°C 28.9°F-1.7°C 65% 3.0 mph S4.8 kmh S 7.0 mph11.3 kmh 29.72 in1006.4 mb 0.00 in0.0 mm 0.00 in0.0 mm 0.00 in0.0 mm
07:32 PM 39.6°F4.2°C 28.8°F-1.8°C 65% 4.0 mph S6.4 kmh S 7.0 mph11.3 kmh 29.72 in1006.4 mb 0.00 in0.0 mm 0.00 in0.0 mm 0.00 in0.0 mm
07:33 PM 39.6°F4.2°C 28.8°F-1.8°C 65% 4.0 mph S6.4 kmh S 5.0 mph8.0 kmh 29.72 in1006.4 mb 0.00 in0.0 mm 0.00 in0.0 mm 0.00 in0.0 mm
07:34 PM 39.6°F4.2°C 28.8°F-1.8°C 65% 4.0 mph S6.4 kmh S 5.0 mph8.0 kmh 29.72 in1006.4 mb 0.00 in0.0 mm 0.00 in0.0 mm 0.00 in0.0 mm
07:35 PM 39.6°F4.2°C 28.8°F-1.8°C 65% 4.0 mph S6.4 kmh S 6.0 mph9.7 kmh 29.71 in1006.1 mb 0.00 in0.0 mm 0.00 in0.0 mm 0.00 in0.0 mm
07:36 PM 39.5°F4.2°C 28.7°F-1.8°C 65% 5.0 mph S8.0 kmh S 6.0 mph9.7 kmh 29.72 in1006.4 mb 0.00 in0.0 mm 0.00 in0.0 mm 0.00 in0.0 mm
07:37 PM 39.5°F4.2°C 28.7°F-1.8°C 65% 4.0 mph S6.4 kmh S 6.0 mph9.7 kmh 29.72 in1006.4 mb 0.00 in0.0 mm 0.00 in0.0 mm 0.00 in0.0 mm
07:38 PM 39.5°F4.2°C 28.7°F-1.8°C 65% 3.0 mph S4.8 kmh S 6.0 mph9.7 kmh 29.72 in1006.4 mb 0.00 in0.0 mm 0.00 in0.0 mm 0.00 in0.0 mm
07:39 PM 39.4°F4.1°C 29.0°F-1.7°C 66% 2.0 mph S3.2 kmh S 6.0 mph9.7 kmh 29.72 in1006.4 mb 0.00 in0.0 mm 0.00 in0.0 mm 0.00 in0.0 mm
07:40 PM 39.4°F4.1°C 29.0°F-1.7°C 66% 2.0 mph S3.2 kmh S 6.0 mph9.7 kmh 29.72 in1006.4 mb 0.00 in0.0 mm 0.00 in0.0 mm 0.00 in0.0 mm
07:41 PM 39.4°F4.1°C 29.0°F-1.7°C 66% 1.0 mph S1.6 kmh S 6.0 mph9.7 kmh 29.72 in1006.4 mb 0.00 in0.0 mm 0.00 in0.0 mm 0.00 in0.0 mm
07:42 PM 39.3°F4.1°C 28.9°F-1.7°C 66% 1.0 mph S1.6 kmh S 6.0 mph9.7 kmh 29.72 in1006.4 mb 0.00 in0.0 mm 0.00 in0.0 mm 0.00 in0.0 mm
07:43 PM 39.3°F4.1°C 28.9°F-1.7°C 66% 2.0 mph S3.